<?xml version="1.0" encoding="UTF-8" standalone="no" ?>
<gpx xmlns="http://www.topografix.com/GPX/1/1" xmlns:xsi="http://www.w3.org/2001/XMLSchema-instance" xsi:schemaLocation="http://www.topografix.com/GPX/1/1 http://www.topografix.com/GPX/1/1/gpx.xsd" version="1.1" creator="VisuGPX - https://www.visugpx.com">
  <metadata>
    <name>Dome de la Cochette</name>
  </metadata>
  <trk>
    <name><![CDATA[Dome de la Cochette]]></name>
    <trkseg>
      <trkpt lat="45.71382" lon="6.0664">
        <ele>2406</ele>
        <time>2015-02-01T11:47:48.1Z</time>
      </trkpt>
      <trkpt lat="45.71383" lon="6.0664">
        <ele>2406</ele>
        <time>2015-02-01T11:47:54.1Z</time>
      </trkpt>
      <trkpt lat="45.71382" lon="6.06639">
        <ele>2407</ele>
        <time>2015-02-01T11:48:00.1Z</time>
      </trkpt>
      <trkpt lat="45.71382" lon="6.06639">
        <ele>2407</ele>
        <time>2015-02-01T11:48:06.1Z</time>
      </trkpt>
      <trkpt lat="45.71383" lon="6.06639">
        <ele>2407</ele>
        <time>2015-02-01T11:48:12.1Z</time>
      </trkpt>
      <trkpt lat="45.71383" lon="6.06638">
        <ele>2407</ele>
        <time>2015-02-01T11:48:17.1Z</time>
      </trkpt>
      <trkpt lat="45.71383" lon="6.06638">
        <ele>2407</ele>
        <time>2015-02-01T11:48:22.1Z</time>
      </trkpt>
      <trkpt lat="45.71383" lon="6.06638">
        <ele>2407</ele>
        <time>2015-02-01T11:48:29.1Z</time>
      </trkpt>
      <trkpt lat="45.71383" lon="6.06638">
        <ele>2406</ele>
        <time>2015-02-01T11:48:35.1Z</time>
      </trkpt>
      <trkpt lat="45.71384" lon="6.06635">
        <ele>2407</ele>
        <time>2015-02-01T11:48:41.1Z</time>
      </trkpt>
      <trkpt lat="45.71388" lon="6.0663">
        <ele>2407</ele>
        <time>2015-02-01T11:48:47.1Z</time>
      </trkpt>
      <trkpt lat="45.71392" lon="6.06625">
        <ele>2408</ele>
        <time>2015-02-01T11:48:52.1Z</time>
      </trkpt>
      <trkpt lat="45.71397" lon="6.06621">
        <ele>2408</ele>
        <time>2015-02-01T11:48:57.1Z</time>
      </trkpt>
      <trkpt lat="45.71402" lon="6.06617">
        <ele>2409</ele>
        <time>2015-02-01T11:49:03.1Z</time>
      </trkpt>
      <trkpt lat="45.71408" lon="6.06614">
        <ele>2409</ele>
        <time>2015-02-01T11:49:08.1Z</time>
      </trkpt>
      <trkpt lat="45.71413" lon="6.06612">
        <ele>2410</ele>
        <time>2015-02-01T11:49:13.1Z</time>
      </trkpt>
      <trkpt lat="45.71418" lon="6.06611">
        <ele>2410</ele>
        <time>2015-02-01T11:49:18.1Z</time>
      </trkpt>
      <trkpt lat="45.71422" lon="6.06611">
        <ele>2410</ele>
        <time>2015-02-01T11:49:23.1Z</time>
      </trkpt>
      <trkpt lat="45.71427" lon="6.06609">
        <ele>2411</ele>
        <time>2015-02-01T11:49:29.1Z</time>
      </trkpt>
      <trkpt lat="45.71431" lon="6.06608">
        <ele>2411</ele>
        <time>2015-02-01T11:49:34.1Z</time>
      </trkpt>
      <trkpt lat="45.71437" lon="6.06606">
        <ele>2412</ele>
        <time>2015-02-01T11:49:39.1Z</time>
      </trkpt>
      <trkpt lat="45.71442" lon="6.06602">
        <ele>2412</ele>
        <time>2015-02-01T11:49:44.1Z</time>
      </trkpt>
      <trkpt lat="45.7145" lon="6.06599">
        <ele>2412</ele>
        <time>2015-02-01T11:49:50.1Z</time>
      </trkpt>
      <trkpt lat="45.71456" lon="6.06595">
        <ele>2412</ele>
        <time>2015-02-01T11:49:55.1Z</time>
      </trkpt>
      <trkpt lat="45.71464" lon="6.06591">
        <ele>2413</ele>
        <time>2015-02-01T11:50:01.1Z</time>
      </trkpt>
      <trkpt lat="45.7147" lon="6.06584">
        <ele>2414</ele>
        <time>2015-02-01T11:50:06.1Z</time>
      </trkpt>
      <trkpt lat="45.71476" lon="6.06579">
        <ele>2415</ele>
        <time>2015-02-01T11:50:11.1Z</time>
      </trkpt>
      <trkpt lat="45.71481" lon="6.06575">
        <ele>2415</ele>
        <time>2015-02-01T11:50:16.1Z</time>
      </trkpt>
      <trkpt lat="45.71486" lon="6.06568">
        <ele>2416</ele>
        <time>2015-02-01T11:50:22.1Z</time>
      </trkpt>
      <trkpt lat="45.71492" lon="6.06563">
        <ele>2417</ele>
        <time>2015-02-01T11:50:27.1Z</time>
      </trkpt>
      <trkpt lat="45.71497" lon="6.06559">
        <ele>2418</ele>
        <time>2015-02-01T11:50:32.1Z</time>
      </trkpt>
      <trkpt lat="45.71505" lon="6.06555">
        <ele>2417</ele>
        <time>2015-02-01T11:50:38.1Z</time>
      </trkpt>
      <trkpt lat="45.7151" lon="6.06553">
        <ele>2418</ele>
        <time>2015-02-01T11:50:43.1Z</time>
      </trkpt>
      <trkpt lat="45.71518" lon="6.06555">
        <ele>2418</ele>
        <time>2015-02-01T11:50:49.1Z</time>
      </trkpt>
      <trkpt lat="45.71524" lon="6.06555">
        <ele>2419</ele>
        <time>2015-02-01T11:50:54.1Z</time>
      </trkpt>
      <trkpt lat="45.71529" lon="6.06558">
        <ele>2419</ele>
        <time>2015-02-01T11:50:59.1Z</time>
      </trkpt>
      <trkpt lat="45.71535" lon="6.06561">
        <ele>2420</ele>
        <time>2015-02-01T11:51:04.1Z</time>
      </trkpt>
      <trkpt lat="45.71541" lon="6.06562">
        <ele>2420</ele>
        <time>2015-02-01T11:51:09.1Z</time>
      </trkpt>
      <trkpt lat="45.71547" lon="6.06566">
        <ele>2422</ele>
        <time>2015-02-01T11:51:15.1Z</time>
      </trkpt>
      <trkpt lat="45.71553" lon="6.06568">
        <ele>2423</ele>
        <time>2015-02-01T11:51:20.1Z</time>
      </trkpt>
      <trkpt lat="45.71558" lon="6.0657">
        <ele>2422</ele>
        <time>2015-02-01T11:51:25.1Z</time>
      </trkpt>
      <trkpt lat="45.71566" lon="6.06571">
        <ele>2423</ele>
        <time>2015-02-01T11:51:31.1Z</time>
      </trkpt>
      <trkpt lat="45.71572" lon="6.06572">
        <ele>2424</ele>
        <time>2015-02-01T11:51:36.1Z</time>
      </trkpt>
      <trkpt lat="45.71578" lon="6.0657">
        <ele>2425</ele>
        <time>2015-02-01T11:51:41.1Z</time>
      </trkpt>
      <trkpt lat="45.71585" lon="6.06565">
        <ele>2426</ele>
        <time>2015-02-01T11:51:47.1Z</time>
      </trkpt>
      <trkpt lat="45.71592" lon="6.06562">
        <ele>2425</ele>
        <time>2015-02-01T11:51:52.1Z</time>
      </trkpt>
      <trkpt lat="45.71599" lon="6.06557">
        <ele>2426</ele>
        <time>2015-02-01T11:51:58.1Z</time>
      </trkpt>
      <trkpt lat="45.71606" lon="6.06553">
        <ele>2427</ele>
        <time>2015-02-01T11:52:04.1Z</time>
      </trkpt>
      <trkpt lat="45.71612" lon="6.06551">
        <ele>2428</ele>
        <time>2015-02-01T11:52:09.1Z</time>
      </trkpt>
      <trkpt lat="45.71617" lon="6.06546">
        <ele>2428</ele>
        <time>2015-02-01T11:52:14.1Z</time>
      </trkpt>
      <trkpt lat="45.71622" lon="6.06541">
        <ele>2428</ele>
        <time>2015-02-01T11:52:19.1Z</time>
      </trkpt>
      <trkpt lat="45.71627" lon="6.06534">
        <ele>2428</ele>
        <time>2015-02-01T11:52:25.1Z</time>
      </trkpt>
      <trkpt lat="45.71631" lon="6.0653">
        <ele>2429</ele>
        <time>2015-02-01T11:52:30.1Z</time>
      </trkpt>
      <trkpt lat="45.71636" lon="6.06523">
        <ele>2429</ele>
        <time>2015-02-01T11:52:36.1Z</time>
      </trkpt>
      <trkpt lat="45.7164" lon="6.06518">
        <ele>2431</ele>
        <time>2015-02-01T11:52:41.1Z</time>
      </trkpt>
      <trkpt lat="45.71641" lon="6.06515">
        <ele>2431</ele>
        <time>2015-02-01T11:52:46.1Z</time>
      </trkpt>
      <trkpt lat="45.71641" lon="6.06514">
        <ele>2430</ele>
        <time>2015-02-01T11:52:52.1Z</time>
      </trkpt>
      <trkpt lat="45.71642" lon="6.06514">
        <ele>2431</ele>
        <time>2015-02-01T11:52:57.1Z</time>
      </trkpt>
      <trkpt lat="45.71647" lon="6.06507">
        <ele>2431</ele>
        <time>2015-02-01T11:53:03.1Z</time>
      </trkpt>
      <trkpt lat="45.71651" lon="6.06501">
        <ele>2433</ele>
        <time>2015-02-01T11:53:08.1Z</time>
      </trkpt>
      <trkpt lat="45.71656" lon="6.06495">
        <ele>2434</ele>
        <time>2015-02-01T11:53:14.1Z</time>
      </trkpt>
      <trkpt lat="45.7166" lon="6.06488">
        <ele>2433</ele>
        <time>2015-02-01T11:53:19.1Z</time>
      </trkpt>
      <trkpt lat="45.71665" lon="6.06482">
        <ele>2434</ele>
        <time>2015-02-01T11:53:24.1Z</time>
      </trkpt>
      <trkpt lat="45.71672" lon="6.06475">
        <ele>2436</ele>
        <time>2015-02-01T11:53:30.1Z</time>
      </trkpt>
      <trkpt lat="45.71677" lon="6.06468">
        <ele>2436</ele>
        <time>2015-02-01T11:53:35.1Z</time>
      </trkpt>
      <trkpt lat="45.71682" lon="6.06461">
        <ele>2437</ele>
        <time>2015-02-01T11:53:40.1Z</time>
      </trkpt>
      <trkpt lat="45.71686" lon="6.06454">
        <ele>2438</ele>
        <time>2015-02-01T11:53:45.1Z</time>
      </trkpt>
      <trkpt lat="45.71691" lon="6.06446">
        <ele>2439</ele>
        <time>2015-02-01T11:53:51.1Z</time>
      </trkpt>
      <trkpt lat="45.71695" lon="6.0644">
        <ele>2440</ele>
        <time>2015-02-01T11:53:56.1Z</time>
      </trkpt>
      <trkpt lat="45.71699" lon="6.06431">
        <ele>2441</ele>
        <time>2015-02-01T11:54:02.1Z</time>
      </trkpt>
      <trkpt lat="45.71703" lon="6.06425">
        <ele>2441</ele>
        <time>2015-02-01T11:54:07.1Z</time>
      </trkpt>
      <trkpt lat="45.71706" lon="6.06415">
        <ele>2441</ele>
        <time>2015-02-01T11:54:13.1Z</time>
      </trkpt>
      <trkpt lat="45.71709" lon="6.06406">
        <ele>2443</ele>
        <time>2015-02-01T11:54:18.1Z</time>
      </trkpt>
      <trkpt lat="45.71713" lon="6.06397">
        <ele>2445</ele>
        <time>2015-02-01T11:54:24.1Z</time>
      </trkpt>
      <trkpt lat="45.71717" lon="6.0639">
        <ele>2445</ele>
        <time>2015-02-01T11:54:29.1Z</time>
      </trkpt>
      <trkpt lat="45.71722" lon="6.06386">
        <ele>2445</ele>
        <time>2015-02-01T11:54:35.1Z</time>
      </trkpt>
      <trkpt lat="45.71727" lon="6.06385">
        <ele>2446</ele>
        <time>2015-02-01T11:54:41.1Z</time>
      </trkpt>
      <trkpt lat="45.71733" lon="6.06387">
        <ele>2447</ele>
        <time>2015-02-01T11:54:46.1Z</time>
      </trkpt>
      <trkpt lat="45.71741" lon="6.06389">
        <ele>2447</ele>
        <time>2015-02-01T11:54:52.1Z</time>
      </trkpt>
      <trkpt lat="45.71747" lon="6.06388">
        <ele>2447</ele>
        <time>2015-02-01T11:54:57.1Z</time>
      </trkpt>
      <trkpt lat="45.71755" lon="6.06388">
        <ele>2448</ele>
        <time>2015-02-01T11:55:03.1Z</time>
      </trkpt>
      <trkpt lat="45.71762" lon="6.06387">
        <ele>2448</ele>
        <time>2015-02-01T11:55:08.1Z</time>
      </trkpt>
      <trkpt lat="45.7177" lon="6.06385">
        <ele>2449</ele>
        <time>2015-02-01T11:55:13.1Z</time>
      </trkpt>
      <trkpt lat="45.71778" lon="6.06383">
        <ele>2450</ele>
        <time>2015-02-01T11:55:19.1Z</time>
      </trkpt>
      <trkpt lat="45.71783" lon="6.06379">
        <ele>2450</ele>
        <time>2015-02-01T11:55:24.1Z</time>
      </trkpt>
      <trkpt lat="45.7179" lon="6.06373">
        <ele>2451</ele>
        <time>2015-02-01T11:55:30.1Z</time>
      </trkpt>
      <trkpt lat="45.71796" lon="6.06367">
        <ele>2451</ele>
        <time>2015-02-01T11:55:36.1Z</time>
      </trkpt>
      <trkpt lat="45.718" lon="6.06361">
        <ele>2451</ele>
        <time>2015-02-01T11:55:41.1Z</time>
      </trkpt>
      <trkpt lat="45.71806" lon="6.06356">
        <ele>2453</ele>
        <time>2015-02-01T11:55:46.1Z</time>
      </trkpt>
      <trkpt lat="45.71811" lon="6.06352">
        <ele>2454</ele>
        <time>2015-02-01T11:55:52.1Z</time>
      </trkpt>
      <trkpt lat="45.71817" lon="6.06349">
        <ele>2454</ele>
        <time>2015-02-01T11:55:58.1Z</time>
      </trkpt>
      <trkpt lat="45.71823" lon="6.06347">
        <ele>2454</ele>
        <time>2015-02-01T11:56:04.1Z</time>
      </trkpt>
      <trkpt lat="45.71828" lon="6.06345">
        <ele>2456</ele>
        <time>2015-02-01T11:56:09.1Z</time>
      </trkpt>
      <trkpt lat="45.71835" lon="6.06342">
        <ele>2456</ele>
        <time>2015-02-01T11:56:15.1Z</time>
      </trkpt>
      <trkpt lat="45.7184" lon="6.06337">
        <ele>2456</ele>
        <time>2015-02-01T11:56:20.1Z</time>
      </trkpt>
      <trkpt lat="45.71846" lon="6.06334">
        <ele>2458</ele>
        <time>2015-02-01T11:56:25.1Z</time>
      </trkpt>
      <trkpt lat="45.71854" lon="6.06332">
        <ele>2459</ele>
        <time>2015-02-01T11:56:31.1Z</time>
      </trkpt>
      <trkpt lat="45.71859" lon="6.06329">
        <ele>2459</ele>
        <time>2015-02-01T11:56:36.1Z</time>
      </trkpt>
      <trkpt lat="45.71867" lon="6.06326">
        <ele>2460</ele>
        <time>2015-02-01T11:56:42.1Z</time>
      </trkpt>
      <trkpt lat="45.71872" lon="6.06323">
        <ele>2460</ele>
        <time>2015-02-01T11:56:48.1Z</time>
      </trkpt>
      <trkpt lat="45.71878" lon="6.0632">
        <ele>2460</ele>
        <time>2015-02-01T11:56:54.1Z</time>
      </trkpt>
      <trkpt lat="45.71884" lon="6.06316">
        <ele>2461</ele>
        <time>2015-02-01T11:57:00.1Z</time>
      </trkpt>
      <trkpt lat="45.7189" lon="6.06312">
        <ele>2462</ele>
        <time>2015-02-01T11:57:06.1Z</time>
      </trkpt>
      <trkpt lat="45.71894" lon="6.0631">
        <ele>2462</ele>
        <time>2015-02-01T11:57:11.1Z</time>
      </trkpt>
      <trkpt lat="45.71899" lon="6.06308">
        <ele>2460</ele>
        <time>2015-02-01T11:57:16.1Z</time>
      </trkpt>
      <trkpt lat="45.71904" lon="6.06306">
        <ele>2462</ele>
        <time>2015-02-01T11:57:22.1Z</time>
      </trkpt>
      <trkpt lat="45.71909" lon="6.06304">
        <ele>2463</ele>
        <time>2015-02-01T11:57:27.1Z</time>
      </trkpt>
      <trkpt lat="45.71916" lon="6.06303">
        <ele>2463</ele>
        <time>2015-02-01T11:57:33.1Z</time>
      </trkpt>
      <trkpt lat="45.71922" lon="6.06301">
        <ele>2464</ele>
        <time>2015-02-01T11:57:39.1Z</time>
      </trkpt>
      <trkpt lat="45.71928" lon="6.06301">
        <ele>2465</ele>
        <time>2015-02-01T11:57:45.1Z</time>
      </trkpt>
      <trkpt lat="45.71933" lon="6.06301">
        <ele>2464</ele>
        <time>2015-02-01T11:57:50.1Z</time>
      </trkpt>
      <trkpt lat="45.71938" lon="6.06301">
        <ele>2464</ele>
        <time>2015-02-01T11:57:56.1Z</time>
      </trkpt>
      <trkpt lat="45.71944" lon="6.06301">
        <ele>2466</ele>
        <time>2015-02-01T11:58:01.1Z</time>
      </trkpt>
      <trkpt lat="45.71949" lon="6.06301">
        <ele>2466</ele>
        <time>2015-02-01T11:58:06.1Z</time>
      </trkpt>
      <trkpt lat="45.71954" lon="6.06301">
        <ele>2467</ele>
        <time>2015-02-01T11:58:11.1Z</time>
      </trkpt>
      <trkpt lat="45.7196" lon="6.06302">
        <ele>2466</ele>
        <time>2015-02-01T11:58:17.1Z</time>
      </trkpt>
      <trkpt lat="45.71961" lon="6.06302">
        <ele>2466</ele>
        <time>2015-02-01T11:58:22.1Z</time>
      </trkpt>
      <trkpt lat="45.71962" lon="6.06302">
        <ele>2466</ele>
        <time>2015-02-01T11:58:27.1Z</time>
      </trkpt>
      <trkpt lat="45.71962" lon="6.06302">
        <ele>2465</ele>
        <time>2015-02-01T11:58:36.1Z</time>
      </trkpt>
      <trkpt lat="45.71965" lon="6.06303">
        <ele>2466</ele>
        <time>2015-02-01T11:58:42.1Z</time>
      </trkpt>
      <trkpt lat="45.71967" lon="6.06301">
        <ele>2465</ele>
        <time>2015-02-01T11:58:48.1Z</time>
      </trkpt>
      <trkpt lat="45.71966" lon="6.06295">
        <ele>2466</ele>
        <time>2015-02-01T11:58:53.1Z</time>
      </trkpt>
      <trkpt lat="45.71964" lon="6.06289">
        <ele>2466</ele>
        <time>2015-02-01T11:58:58.1Z</time>
      </trkpt>
      <trkpt lat="45.71962" lon="6.06285">
        <ele>2465</ele>
        <time>2015-02-01T11:59:03.1Z</time>
      </trkpt>
      <trkpt lat="45.71962" lon="6.06285">
        <ele>2466</ele>
        <time>2015-02-01T11:59:08.1Z</time>
      </trkpt>
      <trkpt lat="45.71962" lon="6.06285">
        <ele>2467</ele>
        <time>2015-02-01T11:59:13.1Z</time>
      </trkpt>
      <trkpt lat="45.7196" lon="6.0628">
        <ele>2467</ele>
        <time>2015-02-01T11:59:18.1Z</time>
      </trkpt>
      <trkpt lat="45.71959" lon="6.06274">
        <ele>2467</ele>
        <time>2015-02-01T11:59:24.1Z</time>
      </trkpt>
      <trkpt lat="45.71957" lon="6.06269">
        <ele>2469</ele>
        <time>2015-02-01T11:59:29.1Z</time>
      </trkpt>
      <trkpt lat="45.71955" lon="6.06263">
        <ele>2470</ele>
        <time>2015-02-01T11:59:34.1Z</time>
      </trkpt>
      <trkpt lat="45.71953" lon="6.06259">
        <ele>2471</ele>
        <time>2015-02-01T11:59:39.1Z</time>
      </trkpt>
      <trkpt lat="45.71951" lon="6.06253">
        <ele>2472</ele>
        <time>2015-02-01T11:59:44.1Z</time>
      </trkpt>
      <trkpt lat="45.71949" lon="6.06248">
        <ele>2473</ele>
        <time>2015-02-01T11:59:50.1Z</time>
      </trkpt>
      <trkpt lat="45.71946" lon="6.06242">
        <ele>2474</ele>
        <time>2015-02-01T11:59:55.1Z</time>
      </trkpt>
      <trkpt lat="45.71942" lon="6.06237">
        <ele>2475</ele>
        <time>2015-02-01T12:00:01.1Z</time>
      </trkpt>
      <trkpt lat="45.71939" lon="6.06233">
        <ele>2476</ele>
        <time>2015-02-01T12:00:06.1Z</time>
      </trkpt>
      <trkpt lat="45.71936" lon="6.06228">
        <ele>2476</ele>
        <time>2015-02-01T12:00:11.1Z</time>
      </trkpt>
      <trkpt lat="45.71933" lon="6.06224">
        <ele>2478</ele>
        <time>2015-02-01T12:00:16.1Z</time>
      </trkpt>
      <trkpt lat="45.71931" lon="6.06222">
        <ele>2479</ele>
        <time>2015-02-01T12:00:21.1Z</time>
      </trkpt>
      <trkpt lat="45.7193" lon="6.06221">
        <ele>2480</ele>
        <time>2015-02-01T12:00:27.1Z</time>
      </trkpt>
      <trkpt lat="45.71932" lon="6.06218">
        <ele>2480</ele>
        <time>2015-02-01T12:00:33.1Z</time>
      </trkpt>
      <trkpt lat="45.71935" lon="6.06216">
        <ele>2480</ele>
        <time>2015-02-01T12:00:38.1Z</time>
      </trkpt>
      <trkpt lat="45.71937" lon="6.06214">
        <ele>2482</ele>
        <time>2015-02-01T12:00:44.1Z</time>
      </trkpt>
      <trkpt lat="45.71938" lon="6.06213">
        <ele>2482</ele>
        <time>2015-02-01T12:00:49.1Z</time>
      </trkpt>
      <trkpt lat="45.71936" lon="6.06209">
        <ele>2483</ele>
        <time>2015-02-01T12:00:55.1Z</time>
      </trkpt>
      <trkpt lat="45.71933" lon="6.06205">
        <ele>2484</ele>
        <time>2015-02-01T12:01:00.1Z</time>
      </trkpt>
      <trkpt lat="45.71931" lon="6.06202">
        <ele>2485</ele>
        <time>2015-02-01T12:01:06.1Z</time>
      </trkpt>
      <trkpt lat="45.7193" lon="6.06201">
        <ele>2486</ele>
        <time>2015-02-01T12:01:11.1Z</time>
      </trkpt>
      <trkpt lat="45.7193" lon="6.06202">
        <ele>2486</ele>
        <time>2015-02-01T12:01:16.1Z</time>
      </trkpt>
      <trkpt lat="45.71931" lon="6.06199">
        <ele>2486</ele>
        <time>2015-02-01T12:01:21.1Z</time>
      </trkpt>
      <trkpt lat="45.71935" lon="6.06197">
        <ele>2488</ele>
        <time>2015-02-01T12:01:26.1Z</time>
      </trkpt>
      <trkpt lat="45.71938" lon="6.06192">
        <ele>2488</ele>
        <time>2015-02-01T12:01:32.1Z</time>
      </trkpt>
      <trkpt lat="45.7194" lon="6.06189">
        <ele>2489</ele>
        <time>2015-02-01T12:01:37.1Z</time>
      </trkpt>
      <trkpt lat="45.71941" lon="6.06185">
        <ele>2490</ele>
        <time>2015-02-01T12:01:42.1Z</time>
      </trkpt>
      <trkpt lat="45.71942" lon="6.06183">
        <ele>2490</ele>
        <time>2015-02-01T12:01:47.1Z</time>
      </trkpt>
      <trkpt lat="45.71941" lon="6.06183">
        <ele>2490</ele>
        <time>2015-02-01T12:01:52.1Z</time>
      </trkpt>
      <trkpt lat="45.71941" lon="6.06182">
        <ele>2491</ele>
        <time>2015-02-01T12:01:58.1Z</time>
      </trkpt>
      <trkpt lat="45.71941" lon="6.06182">
        <ele>2490</ele>
        <time>2015-02-01T12:02:03.1Z</time>
      </trkpt>
      <trkpt lat="45.7194" lon="6.06183">
        <ele>2490</ele>
        <time>2015-02-01T12:02:08.1Z</time>
      </trkpt>
      <trkpt lat="45.71939" lon="6.06183">
        <ele>2490</ele>
        <time>2015-02-01T12:02:13.1Z</time>
      </trkpt>
      <trkpt lat="45.71938" lon="6.06183">
        <ele>2490</ele>
        <time>2015-02-01T12:02:19.1Z</time>
      </trkpt>
      <trkpt lat="45.71938" lon="6.06183">
        <ele>2490</ele>
        <time>2015-02-01T12:02:24.1Z</time>
      </trkpt>
      <trkpt lat="45.71938" lon="6.06181">
        <ele>2491</ele>
        <time>2015-02-01T12:02:29.1Z</time>
      </trkpt>
      <trkpt lat="45.71939" lon="6.0618">
        <ele>2492</ele>
        <time>2015-02-01T12:02:35.1Z</time>
      </trkpt>
      <trkpt lat="45.7194" lon="6.0618">
        <ele>2493</ele>
        <time>2015-02-01T12:02:40.1Z</time>
      </trkpt>
      <trkpt lat="45.71942" lon="6.06176">
        <ele>2492</ele>
        <time>2015-02-01T12:02:46.1Z</time>
      </trkpt>
      <trkpt lat="45.71941" lon="6.06175">
        <ele>2493</ele>
        <time>2015-02-01T12:02:52.1Z</time>
      </trkpt>
      <trkpt lat="45.71942" lon="6.06176">
        <ele>2493</ele>
        <time>2015-02-01T12:02:58.1Z</time>
      </trkpt>
      <trkpt lat="45.71942" lon="6.06176">
        <ele>2492</ele>
        <time>2015-02-01T12:03:03.1Z</time>
      </trkpt>
      <trkpt lat="45.71942" lon="6.06177">
        <ele>2493</ele>
        <time>2015-02-01T12:03:08.1Z</time>
      </trkpt>
      <trkpt lat="45.71942" lon="6.06179">
        <ele>2492</ele>
        <time>2015-02-01T12:03:14.1Z</time>
      </trkpt>
      <trkpt lat="45.71942" lon="6.0618">
        <ele>2492</ele>
        <time>2015-02-01T12:03:19.1Z</time>
      </trkpt>
      <trkpt lat="45.71943" lon="6.0618">
        <ele>2493</ele>
        <time>2015-02-01T12:03:24.1Z</time>
      </trkpt>
      <trkpt lat="45.71943" lon="6.0618">
        <ele>2493</ele>
        <time>2015-02-01T12:03:29.1Z</time>
      </trkpt>
      <trkpt lat="45.71943" lon="6.06181">
        <ele>2493</ele>
        <time>2015-02-01T12:03:35.1Z</time>
      </trkpt>
      <trkpt lat="45.71943" lon="6.0618">
        <ele>2493</ele>
        <time>2015-02-01T12:03:40.1Z</time>
      </trkpt>
      <trkpt lat="45.71942" lon="6.06181">
        <ele>2493</ele>
        <time>2015-02-01T12:03:45.1Z</time>
      </trkpt>
      <trkpt lat="45.71943" lon="6.06182">
        <ele>2493</ele>
        <time>2015-02-01T12:03:51.1Z</time>
      </trkpt>
      <trkpt lat="45.71943" lon="6.06183">
        <ele>2492</ele>
        <time>2015-02-01T12:03:58.1Z</time>
      </trkpt>
      <trkpt lat="45.71943" lon="6.06183">
        <ele>2493</ele>
        <time>2015-02-01T12:04:04.1Z</time>
      </trkpt>
      <trkpt lat="45.71941" lon="6.0618">
        <ele>2493</ele>
        <time>2015-02-01T12:04:10.1Z</time>
      </trkpt>
      <trkpt lat="45.71938" lon="6.06177">
        <ele>2493</ele>
        <time>2015-02-01T12:04:15.1Z</time>
      </trkpt>
      <trkpt lat="45.71934" lon="6.06174">
        <ele>2494</ele>
        <time>2015-02-01T12:04:21.1Z</time>
      </trkpt>
      <trkpt lat="45.71931" lon="6.06172">
        <ele>2495</ele>
        <time>2015-02-01T12:04:26.1Z</time>
      </trkpt>
      <trkpt lat="45.71929" lon="6.0617">
        <ele>2494</ele>
        <time>2015-02-01T12:04:31.1Z</time>
      </trkpt>
      <trkpt lat="45.71928" lon="6.06165">
        <ele>2495</ele>
        <time>2015-02-01T12:04:37.1Z</time>
      </trkpt>
      <trkpt lat="45.71928" lon="6.06161">
        <ele>2496</ele>
        <time>2015-02-01T12:04:42.1Z</time>
      </trkpt>
      <trkpt lat="45.71925" lon="6.06157">
        <ele>2497</ele>
        <time>2015-02-01T12:04:48.1Z</time>
      </trkpt>
      <trkpt lat="45.71925" lon="6.06155">
        <ele>2498</ele>
        <time>2015-02-01T12:04:53.1Z</time>
      </trkpt>
      <trkpt lat="45.71922" lon="6.06154">
        <ele>2498</ele>
        <time>2015-02-01T12:04:58.1Z</time>
      </trkpt>
      <trkpt lat="45.71917" lon="6.06155">
        <ele>2497</ele>
        <time>2015-02-01T12:05:03.1Z</time>
      </trkpt>
      <trkpt lat="45.71917" lon="6.06123">
        <ele>2502</ele>
        <time>2015-02-01T12:09:02.1Z</time>
      </trkpt>
      <trkpt lat="45.7192" lon="6.06117">
        <ele>2503</ele>
        <time>2015-02-01T12:09:07.1Z</time>
      </trkpt>
      <trkpt lat="45.71922" lon="6.06113">
        <ele>2504</ele>
        <time>2015-02-01T12:09:13.1Z</time>
      </trkpt>
      <trkpt lat="45.71923" lon="6.06108">
        <ele>2505</ele>
        <time>2015-02-01T12:09:18.1Z</time>
      </trkpt>
      <trkpt lat="45.71923" lon="6.06107">
        <ele>2505</ele>
        <time>2015-02-01T12:09:23.1Z</time>
      </trkpt>
      <trkpt lat="45.71921" lon="6.06107">
        <ele>2505</ele>
        <time>2015-02-01T12:09:28.1Z</time>
      </trkpt>
      <trkpt lat="45.71918" lon="6.06104">
        <ele>2505</ele>
        <time>2015-02-01T12:09:34.1Z</time>
      </trkpt>
      <trkpt lat="45.71915" lon="6.06098">
        <ele>2507</ele>
        <time>2015-02-01T12:09:39.1Z</time>
      </trkpt>
      <trkpt lat="45.71912" lon="6.06093">
        <ele>2508</ele>
        <time>2015-02-01T12:09:45.1Z</time>
      </trkpt>
      <trkpt lat="45.71909" lon="6.06086">
        <ele>2509</ele>
        <time>2015-02-01T12:09:50.1Z</time>
      </trkpt>
      <trkpt lat="45.71906" lon="6.06082">
        <ele>2510</ele>
        <time>2015-02-01T12:09:55.1Z</time>
      </trkpt>
      <trkpt lat="45.71902" lon="6.06078">
        <ele>2510</ele>
        <time>2015-02-01T12:10:01.1Z</time>
      </trkpt>
      <trkpt lat="45.71897" lon="6.06072">
        <ele>2511</ele>
        <time>2015-02-01T12:10:07.1Z</time>
      </trkpt>
      <trkpt lat="45.71894" lon="6.06066">
        <ele>2511</ele>
        <time>2015-02-01T12:10:12.1Z</time>
      </trkpt>
      <trkpt lat="45.71891" lon="6.06061">
        <ele>2511</ele>
        <time>2015-02-01T12:10:17.1Z</time>
      </trkpt>
      <trkpt lat="45.71888" lon="6.06055">
        <ele>2512</ele>
        <time>2015-02-01T12:10:23.1Z</time>
      </trkpt>
      <trkpt lat="45.71886" lon="6.06051">
        <ele>2513</ele>
        <time>2015-02-01T12:10:28.1Z</time>
      </trkpt>
      <trkpt lat="45.71882" lon="6.06045">
        <ele>2514</ele>
        <time>2015-02-01T12:10:34.1Z</time>
      </trkpt>
      <trkpt lat="45.7188" lon="6.06038">
        <ele>2515</ele>
        <time>2015-02-01T12:10:39.1Z</time>
      </trkpt>
      <trkpt lat="45.71876" lon="6.06032">
        <ele>2515</ele>
        <time>2015-02-01T12:10:45.1Z</time>
      </trkpt>
      <trkpt lat="45.71874" lon="6.06028">
        <ele>2516</ele>
        <time>2015-02-01T12:10:50.1Z</time>
      </trkpt>
      <trkpt lat="45.71872" lon="6.06025">
        <ele>2516</ele>
        <time>2015-02-01T12:10:55.1Z</time>
      </trkpt>
      <trkpt lat="45.71871" lon="6.0602">
        <ele>2517</ele>
        <time>2015-02-01T12:11:00.1Z</time>
      </trkpt>
      <trkpt lat="45.71871" lon="6.06013">
        <ele>2518</ele>
        <time>2015-02-01T12:11:05.1Z</time>
      </trkpt>
      <trkpt lat="45.71869" lon="6.06004">
        <ele>2518</ele>
        <time>2015-02-01T12:11:11.1Z</time>
      </trkpt>
      <trkpt lat="45.71868" lon="6.05997">
        <ele>2519</ele>
        <time>2015-02-01T12:11:16.1Z</time>
      </trkpt>
      <trkpt lat="45.71865" lon="6.0599">
        <ele>2520</ele>
        <time>2015-02-01T12:11:22.1Z</time>
      </trkpt>
      <trkpt lat="45.71864" lon="6.05983">
        <ele>2521</ele>
        <time>2015-02-01T12:11:27.1Z</time>
      </trkpt>
      <trkpt lat="45.71864" lon="6.05976">
        <ele>2522</ele>
        <time>2015-02-01T12:11:32.1Z</time>
      </trkpt>
      <trkpt lat="45.71861" lon="6.05968">
        <ele>2523</ele>
        <time>2015-02-01T12:11:38.1Z</time>
      </trkpt>
      <trkpt lat="45.71857" lon="6.05961">
        <ele>2523</ele>
        <time>2015-02-01T12:11:44.1Z</time>
      </trkpt>
      <trkpt lat="45.71856" lon="6.05953">
        <ele>2525</ele>
        <time>2015-02-01T12:11:49.1Z</time>
      </trkpt>
      <trkpt lat="45.71855" lon="6.05947">
        <ele>2526</ele>
        <time>2015-02-01T12:11:54.1Z</time>
      </trkpt>
      <trkpt lat="45.71854" lon="6.0594">
        <ele>2526</ele>
        <time>2015-02-01T12:12:00.1Z</time>
      </trkpt>
      <trkpt lat="45.71853" lon="6.05936">
        <ele>2528</ele>
        <time>2015-02-01T12:12:05.1Z</time>
      </trkpt>
      <trkpt lat="45.71852" lon="6.05934">
        <ele>2529</ele>
        <time>2015-02-01T12:12:11.1Z</time>
      </trkpt>
      <trkpt lat="45.71852" lon="6.05932">
        <ele>2529</ele>
        <time>2015-02-01T12:12:16.1Z</time>
      </trkpt>
      <trkpt lat="45.71852" lon="6.05931">
        <ele>2530</ele>
        <time>2015-02-01T12:12:21.1Z</time>
      </trkpt>
      <trkpt lat="45.71852" lon="6.05929">
        <ele>2530</ele>
        <time>2015-02-01T12:12:27.1Z</time>
      </trkpt>
      <trkpt lat="45.71852" lon="6.05929">
        <ele>2530</ele>
        <time>2015-02-01T12:12:32.1Z</time>
      </trkpt>
      <trkpt lat="45.71851" lon="6.05928">
        <ele>2530</ele>
        <time>2015-02-01T12:12:37.1Z</time>
      </trkpt>
      <trkpt lat="45.71851" lon="6.05928">
        <ele>2530</ele>
        <time>2015-02-01T12:12:42.1Z</time>
      </trkpt>
      <trkpt lat="45.71851" lon="6.05927">
        <ele>2529</ele>
        <time>2015-02-01T12:12:48.1Z</time>
      </trkpt>
      <trkpt lat="45.71851" lon="6.05926">
        <ele>2529</ele>
        <time>2015-02-01T12:12:54.1Z</time>
      </trkpt>
      <trkpt lat="45.71851" lon="6.05926">
        <ele>2530</ele>
        <time>2015-02-01T12:12:59.1Z</time>
      </trkpt>
      <trkpt lat="45.71851" lon="6.05925">
        <ele>2530</ele>
        <time>2015-02-01T12:13:05.1Z</time>
      </trkpt>
      <trkpt lat="45.71851" lon="6.05925">
        <ele>2529</ele>
        <time>2015-02-01T12:13:11.1Z</time>
      </trkpt>
      <trkpt lat="45.71851" lon="6.05923">
        <ele>2529</ele>
        <time>2015-02-01T12:13:17.1Z</time>
      </trkpt>
      <trkpt lat="45.71852" lon="6.05923">
        <ele>2529</ele>
        <time>2015-02-01T12:13:22.1Z</time>
      </trkpt>
      <trkpt lat="45.71852" lon="6.0592">
        <ele>2530</ele>
        <time>2015-02-01T12:13:28.1Z</time>
      </trkpt>
      <trkpt lat="45.71852" lon="6.05915">
        <ele>2530</ele>
        <time>2015-02-01T12:13:33.1Z</time>
      </trkpt>
      <trkpt lat="45.71851" lon="6.05912">
        <ele>2531</ele>
        <time>2015-02-01T12:13:38.1Z</time>
      </trkpt>
      <trkpt lat="45.7185" lon="6.05906">
        <ele>2532</ele>
        <time>2015-02-01T12:13:44.1Z</time>
      </trkpt>
      <trkpt lat="45.71849" lon="6.05903">
        <ele>2533</ele>
        <time>2015-02-01T12:13:50.1Z</time>
      </trkpt>
      <trkpt lat="45.71848" lon="6.05902">
        <ele>2532</ele>
        <time>2015-02-01T12:13:56.1Z</time>
      </trkpt>
      <trkpt lat="45.71847" lon="6.05901">
        <ele>2533</ele>
        <time>2015-02-01T12:14:02.1Z</time>
      </trkpt>
      <trkpt lat="45.71845" lon="6.05895">
        <ele>2533</ele>
        <time>2015-02-01T12:14:07.1Z</time>
      </trkpt>
      <trkpt lat="45.71845" lon="6.05888">
        <ele>2535</ele>
        <time>2015-02-01T12:14:12.1Z</time>
      </trkpt>
      <trkpt lat="45.71844" lon="6.05881">
        <ele>2536</ele>
        <time>2015-02-01T12:14:18.1Z</time>
      </trkpt>
      <trkpt lat="45.71844" lon="6.05875">
        <ele>2537</ele>
        <time>2015-02-01T12:14:24.1Z</time>
      </trkpt>
      <trkpt lat="45.71843" lon="6.05869">
        <ele>2538</ele>
        <time>2015-02-01T12:14:30.1Z</time>
      </trkpt>
      <trkpt lat="45.71842" lon="6.05865">
        <ele>2539</ele>
        <time>2015-02-01T12:14:35.1Z</time>
      </trkpt>
      <trkpt lat="45.71842" lon="6.0586">
        <ele>2539</ele>
        <time>2015-02-01T12:14:40.1Z</time>
      </trkpt>
      <trkpt lat="45.71841" lon="6.05853">
        <ele>2540</ele>
        <time>2015-02-01T12:14:46.1Z</time>
      </trkpt>
      <trkpt lat="45.71841" lon="6.05848">
        <ele>2542</ele>
        <time>2015-02-01T12:14:52.1Z</time>
      </trkpt>
      <trkpt lat="45.71842" lon="6.05843">
        <ele>2543</ele>
        <time>2015-02-01T12:14:57.1Z</time>
      </trkpt>
      <trkpt lat="45.71843" lon="6.05836">
        <ele>2544</ele>
        <time>2015-02-01T12:15:03.1Z</time>
      </trkpt>
      <trkpt lat="45.71843" lon="6.05829">
        <ele>2546</ele>
        <time>2015-02-01T12:15:09.1Z</time>
      </trkpt>
      <trkpt lat="45.71842" lon="6.05823">
        <ele>2546</ele>
        <time>2015-02-01T12:15:14.1Z</time>
      </trkpt>
      <trkpt lat="45.71842" lon="6.05818">
        <ele>2547</ele>
        <time>2015-02-01T12:15:20.1Z</time>
      </trkpt>
      <trkpt lat="45.71842" lon="6.05814">
        <ele>2548</ele>
        <time>2015-02-01T12:15:26.1Z</time>
      </trkpt>
      <trkpt lat="45.71842" lon="6.05808">
        <ele>2549</ele>
        <time>2015-02-01T12:15:32.1Z</time>
      </trkpt>
      <trkpt lat="45.71842" lon="6.05804">
        <ele>2550</ele>
        <time>2015-02-01T12:15:37.1Z</time>
      </trkpt>
      <trkpt lat="45.71842" lon="6.058">
        <ele>2551</ele>
        <time>2015-02-01T12:15:43.1Z</time>
      </trkpt>
      <trkpt lat="45.71843" lon="6.05794">
        <ele>2552</ele>
        <time>2015-02-01T12:15:49.1Z</time>
      </trkpt>
      <trkpt lat="45.71844" lon="6.05789">
        <ele>2553</ele>
        <time>2015-02-01T12:15:54.1Z</time>
      </trkpt>
      <trkpt lat="45.71844" lon="6.05784">
        <ele>2554</ele>
        <time>2015-02-01T12:15:59.1Z</time>
      </trkpt>
      <trkpt lat="45.71845" lon="6.05778">
        <ele>2555</ele>
        <time>2015-02-01T12:16:04.1Z</time>
      </trkpt>
      <trkpt lat="45.71847" lon="6.05772">
        <ele>2555</ele>
        <time>2015-02-01T12:16:10.1Z</time>
      </trkpt>
      <trkpt lat="45.71848" lon="6.05767">
        <ele>2556</ele>
        <time>2015-02-01T12:16:16.1Z</time>
      </trkpt>
      <trkpt lat="45.71849" lon="6.05765">
        <ele>2556</ele>
        <time>2015-02-01T12:16:22.1Z</time>
      </trkpt>
      <trkpt lat="45.7185" lon="6.05762">
        <ele>2558</ele>
        <time>2015-02-01T12:16:27.1Z</time>
      </trkpt>
      <trkpt lat="45.71851" lon="6.05758">
        <ele>2558</ele>
        <time>2015-02-01T12:16:32.1Z</time>
      </trkpt>
      <trkpt lat="45.71852" lon="6.05753">
        <ele>2560</ele>
        <time>2015-02-01T12:16:38.1Z</time>
      </trkpt>
      <trkpt lat="45.71852" lon="6.05749">
        <ele>2561</ele>
        <time>2015-02-01T12:16:43.1Z</time>
      </trkpt>
      <trkpt lat="45.71852" lon="6.05744">
        <ele>2561</ele>
        <time>2015-02-01T12:16:49.1Z</time>
      </trkpt>
      <trkpt lat="45.71851" lon="6.05741">
        <ele>2562</ele>
        <time>2015-02-01T12:16:54.1Z</time>
      </trkpt>
      <trkpt lat="45.71852" lon="6.05735">
        <ele>2563</ele>
        <time>2015-02-01T12:17:00.1Z</time>
      </trkpt>
      <trkpt lat="45.71853" lon="6.0573">
        <ele>2563</ele>
        <time>2015-02-01T12:17:05.1Z</time>
      </trkpt>
      <trkpt lat="45.71854" lon="6.05725">
        <ele>2564</ele>
        <time>2015-02-01T12:17:10.1Z</time>
      </trkpt>
      <trkpt lat="45.71852" lon="6.05721">
        <ele>2566</ele>
        <time>2015-02-01T12:17:16.1Z</time>
      </trkpt>
      <trkpt lat="45.7185" lon="6.05716">
        <ele>2567</ele>
        <time>2015-02-01T12:17:21.1Z</time>
      </trkpt>
      <trkpt lat="45.71849" lon="6.05711">
        <ele>2567</ele>
        <time>2015-02-01T12:17:26.1Z</time>
      </trkpt>
      <trkpt lat="45.71848" lon="6.05704">
        <ele>2569</ele>
        <time>2015-02-01T12:17:32.1Z</time>
      </trkpt>
      <trkpt lat="45.71846" lon="6.05699">
        <ele>2569</ele>
        <time>2015-02-01T12:17:37.1Z</time>
      </trkpt>
      <trkpt lat="45.71845" lon="6.05692">
        <ele>2569</ele>
        <time>2015-02-01T12:17:43.1Z</time>
      </trkpt>
      <trkpt lat="45.71845" lon="6.05687">
        <ele>2570</ele>
        <time>2015-02-01T12:17:48.1Z</time>
      </trkpt>
      <trkpt lat="45.71846" lon="6.05682">
        <ele>2571</ele>
        <time>2015-02-01T12:17:53.1Z</time>
      </trkpt>
      <trkpt lat="45.71846" lon="6.05676">
        <ele>2572</ele>
        <time>2015-02-01T12:17:59.1Z</time>
      </trkpt>
      <trkpt lat="45.71858" lon="6.0556">
        <ele>2584</ele>
        <time>2015-02-01T12:34:02.1Z</time>
      </trkpt>
      <trkpt lat="45.71854" lon="6.05555">
        <ele>2584</ele>
        <time>2015-02-01T12:34:07.1Z</time>
      </trkpt>
      <trkpt lat="45.7185" lon="6.05549">
        <ele>2585</ele>
        <time>2015-02-01T12:34:13.1Z</time>
      </trkpt>
      <trkpt lat="45.71846" lon="6.05545">
        <ele>2585</ele>
        <time>2015-02-01T12:34:18.1Z</time>
      </trkpt>
      <trkpt lat="45.71843" lon="6.05543">
        <ele>2584</ele>
        <time>2015-02-01T12:34:24.1Z</time>
      </trkpt>
      <trkpt lat="45.71841" lon="6.05541">
        <ele>2582</ele>
        <time>2015-02-01T12:34:29.1Z</time>
      </trkpt>
      <trkpt lat="45.71838" lon="6.05539">
        <ele>2581</ele>
        <time>2015-02-01T12:34:35.1Z</time>
      </trkpt>
      <trkpt lat="45.71839" lon="6.05534">
        <ele>2581</ele>
        <time>2015-02-01T12:34:41.1Z</time>
      </trkpt>
      <trkpt lat="45.71839" lon="6.05528">
        <ele>2583</ele>
        <time>2015-02-01T12:34:46.1Z</time>
      </trkpt>
      <trkpt lat="45.71839" lon="6.0552">
        <ele>2583</ele>
        <time>2015-02-01T12:34:52.1Z</time>
      </trkpt>
      <trkpt lat="45.71841" lon="6.05515">
        <ele>2584</ele>
        <time>2015-02-01T12:34:58.1Z</time>
      </trkpt>
      <trkpt lat="45.71841" lon="6.05511">
        <ele>2584</ele>
        <time>2015-02-01T12:35:03.1Z</time>
      </trkpt>
      <trkpt lat="45.71842" lon="6.05506">
        <ele>2585</ele>
        <time>2015-02-01T12:35:09.1Z</time>
      </trkpt>
      <trkpt lat="45.71843" lon="6.05501">
        <ele>2586</ele>
        <time>2015-02-01T12:35:14.1Z</time>
      </trkpt>
      <trkpt lat="45.71844" lon="6.05495">
        <ele>2587</ele>
        <time>2015-02-01T12:35:20.1Z</time>
      </trkpt>
      <trkpt lat="45.71844" lon="6.05488">
        <ele>2588</ele>
        <time>2015-02-01T12:35:26.1Z</time>
      </trkpt>
      <trkpt lat="45.71844" lon="6.05481">
        <ele>2589</ele>
        <time>2015-02-01T12:35:31.1Z</time>
      </trkpt>
      <trkpt lat="45.71844" lon="6.05474">
        <ele>2590</ele>
        <time>2015-02-01T12:35:36.1Z</time>
      </trkpt>
      <trkpt lat="45.71844" lon="6.05466">
        <ele>2591</ele>
        <time>2015-02-01T12:35:42.1Z</time>
      </trkpt>
      <trkpt lat="45.71843" lon="6.05458">
        <ele>2592</ele>
        <time>2015-02-01T12:35:48.1Z</time>
      </trkpt>
      <trkpt lat="45.71843" lon="6.05452">
        <ele>2594</ele>
        <time>2015-02-01T12:35:53.1Z</time>
      </trkpt>
      <trkpt lat="45.71843" lon="6.05442">
        <ele>2595</ele>
        <time>2015-02-01T12:35:59.1Z</time>
      </trkpt>
      <trkpt lat="45.71843" lon="6.05435">
        <ele>2596</ele>
        <time>2015-02-01T12:36:04.1Z</time>
      </trkpt>
      <trkpt lat="45.71844" lon="6.05429">
        <ele>2596</ele>
        <time>2015-02-01T12:36:10.1Z</time>
      </trkpt>
      <trkpt lat="45.71843" lon="6.05422">
        <ele>2597</ele>
        <time>2015-02-01T12:36:16.1Z</time>
      </trkpt>
      <trkpt lat="45.71843" lon="6.05417">
        <ele>2598</ele>
        <time>2015-02-01T12:36:21.1Z</time>
      </trkpt>
      <trkpt lat="45.71843" lon="6.05411">
        <ele>2599</ele>
        <time>2015-02-01T12:36:27.1Z</time>
      </trkpt>
      <trkpt lat="45.71845" lon="6.05405">
        <ele>2600</ele>
        <time>2015-02-01T12:36:32.1Z</time>
      </trkpt>
      <trkpt lat="45.71845" lon="6.05399">
        <ele>2600</ele>
        <time>2015-02-01T12:36:38.1Z</time>
      </trkpt>
      <trkpt lat="45.71845" lon="6.05394">
        <ele>2601</ele>
        <time>2015-02-01T12:36:44.1Z</time>
      </trkpt>
      <trkpt lat="45.71846" lon="6.05386">
        <ele>2602</ele>
        <time>2015-02-01T12:36:49.1Z</time>
      </trkpt>
      <trkpt lat="45.71844" lon="6.05379">
        <ele>2604</ele>
        <time>2015-02-01T12:36:55.1Z</time>
      </trkpt>
      <trkpt lat="45.71841" lon="6.05373">
        <ele>2604</ele>
        <time>2015-02-01T12:37:00.1Z</time>
      </trkpt>
      <trkpt lat="45.7184" lon="6.05364">
        <ele>2604</ele>
        <time>2015-02-01T12:37:06.1Z</time>
      </trkpt>
      <trkpt lat="45.71837" lon="6.05358">
        <ele>2605</ele>
        <time>2015-02-01T12:37:11.1Z</time>
      </trkpt>
      <trkpt lat="45.71836" lon="6.0535">
        <ele>2606</ele>
        <time>2015-02-01T12:37:17.1Z</time>
      </trkpt>
      <trkpt lat="45.71835" lon="6.05343">
        <ele>2606</ele>
        <time>2015-02-01T12:37:23.1Z</time>
      </trkpt>
      <trkpt lat="45.71834" lon="6.05337">
        <ele>2605</ele>
        <time>2015-02-01T12:37:28.1Z</time>
      </trkpt>
      <trkpt lat="45.71833" lon="6.05329">
        <ele>2606</ele>
        <time>2015-02-01T12:37:34.1Z</time>
      </trkpt>
      <trkpt lat="45.71833" lon="6.05322">
        <ele>2607</ele>
        <time>2015-02-01T12:37:39.1Z</time>
      </trkpt>
      <trkpt lat="45.71832" lon="6.05313">
        <ele>2607</ele>
        <time>2015-02-01T12:37:45.1Z</time>
      </trkpt>
      <trkpt lat="45.71832" lon="6.05304">
        <ele>2608</ele>
        <time>2015-02-01T12:37:50.1Z</time>
      </trkpt>
      <trkpt lat="45.71831" lon="6.05298">
        <ele>2608</ele>
        <time>2015-02-01T12:37:56.1Z</time>
      </trkpt>
      <trkpt lat="45.71831" lon="6.05289">
        <ele>2609</ele>
        <time>2015-02-01T12:38:01.1Z</time>
      </trkpt>
      <trkpt lat="45.7183" lon="6.05281">
        <ele>2610</ele>
        <time>2015-02-01T12:38:07.1Z</time>
      </trkpt>
      <trkpt lat="45.7183" lon="6.05274">
        <ele>2611</ele>
        <time>2015-02-01T12:38:12.1Z</time>
      </trkpt>
      <trkpt lat="45.7183" lon="6.05267">
        <ele>2612</ele>
        <time>2015-02-01T12:38:18.1Z</time>
      </trkpt>
      <trkpt lat="45.7183" lon="6.0526">
        <ele>2614</ele>
        <time>2015-02-01T12:38:24.1Z</time>
      </trkpt>
      <trkpt lat="45.7183" lon="6.05254">
        <ele>2614</ele>
        <time>2015-02-01T12:38:29.1Z</time>
      </trkpt>
      <trkpt lat="45.71829" lon="6.05248">
        <ele>2614</ele>
        <time>2015-02-01T12:38:34.1Z</time>
      </trkpt>
      <trkpt lat="45.71828" lon="6.0524">
        <ele>2615</ele>
        <time>2015-02-01T12:38:40.1Z</time>
      </trkpt>
      <trkpt lat="45.71825" lon="6.05234">
        <ele>2617</ele>
        <time>2015-02-01T12:38:46.1Z</time>
      </trkpt>
      <trkpt lat="45.71823" lon="6.05228">
        <ele>2618</ele>
        <time>2015-02-01T12:38:51.1Z</time>
      </trkpt>
      <trkpt lat="45.71823" lon="6.0522">
        <ele>2619</ele>
        <time>2015-02-01T12:38:57.1Z</time>
      </trkpt>
      <trkpt lat="45.71823" lon="6.05216">
        <ele>2620</ele>
        <time>2015-02-01T12:39:03.1Z</time>
      </trkpt>
      <trkpt lat="45.71821" lon="6.0521">
        <ele>2621</ele>
        <time>2015-02-01T12:39:08.1Z</time>
      </trkpt>
      <trkpt lat="45.7182" lon="6.05205">
        <ele>2622</ele>
        <time>2015-02-01T12:39:14.1Z</time>
      </trkpt>
      <trkpt lat="45.7182" lon="6.05198">
        <ele>2623</ele>
        <time>2015-02-01T12:39:20.1Z</time>
      </trkpt>
      <trkpt lat="45.71819" lon="6.05194">
        <ele>2624</ele>
        <time>2015-02-01T12:39:25.1Z</time>
      </trkpt>
      <trkpt lat="45.71819" lon="6.05188">
        <ele>2625</ele>
        <time>2015-02-01T12:39:31.1Z</time>
      </trkpt>
      <trkpt lat="45.71819" lon="6.05186">
        <ele>2625</ele>
        <time>2015-02-01T12:39:36.1Z</time>
      </trkpt>
      <trkpt lat="45.71817" lon="6.05184">
        <ele>2625</ele>
        <time>2015-02-01T12:39:42.1Z</time>
      </trkpt>
      <trkpt lat="45.71817" lon="6.0518">
        <ele>2627</ele>
        <time>2015-02-01T12:39:47.1Z</time>
      </trkpt>
      <trkpt lat="45.71817" lon="6.05174">
        <ele>2628</ele>
        <time>2015-02-01T12:39:53.1Z</time>
      </trkpt>
      <trkpt lat="45.71815" lon="6.05167">
        <ele>2629</ele>
        <time>2015-02-01T12:39:59.1Z</time>
      </trkpt>
      <trkpt lat="45.71814" lon="6.05161">
        <ele>2630</ele>
        <time>2015-02-01T12:40:04.1Z</time>
      </trkpt>
      <trkpt lat="45.71814" lon="6.05157">
        <ele>2630</ele>
        <time>2015-02-01T12:40:10.1Z</time>
      </trkpt>
      <trkpt lat="45.71813" lon="6.05156">
        <ele>2631</ele>
        <time>2015-02-01T12:40:15.1Z</time>
      </trkpt>
      <trkpt lat="45.71813" lon="6.05155">
        <ele>2631</ele>
        <time>2015-02-01T12:40:20.1Z</time>
      </trkpt>
      <trkpt lat="45.71814" lon="6.05155">
        <ele>2630</ele>
        <time>2015-02-01T12:40:26.1Z</time>
      </trkpt>
      <trkpt lat="45.71814" lon="6.05152">
        <ele>2629</ele>
        <time>2015-02-01T12:40:31.1Z</time>
      </trkpt>
      <trkpt lat="45.71813" lon="6.0515">
        <ele>2630</ele>
        <time>2015-02-01T12:40:36.1Z</time>
      </trkpt>
      <trkpt lat="45.71812" lon="6.05146">
        <ele>2630</ele>
        <time>2015-02-01T12:40:41.1Z</time>
      </trkpt>
      <trkpt lat="45.7181" lon="6.0514">
        <ele>2631</ele>
        <time>2015-02-01T12:40:47.1Z</time>
      </trkpt>
      <trkpt lat="45.71809" lon="6.05132">
        <ele>2631</ele>
        <time>2015-02-01T12:40:53.1Z</time>
      </trkpt>
      <trkpt lat="45.71809" lon="6.05127">
        <ele>2631</ele>
        <time>2015-02-01T12:40:58.1Z</time>
      </trkpt>
      <trkpt lat="45.71808" lon="6.05121">
        <ele>2631</ele>
        <time>2015-02-01T12:41:04.1Z</time>
      </trkpt>
      <trkpt lat="45.71807" lon="6.05115">
        <ele>2632</ele>
        <time>2015-02-01T12:41:09.1Z</time>
      </trkpt>
      <trkpt lat="45.71806" lon="6.05107">
        <ele>2633</ele>
        <time>2015-02-01T12:41:14.1Z</time>
      </trkpt>
      <trkpt lat="45.71805" lon="6.05098">
        <ele>2634</ele>
        <time>2015-02-01T12:41:20.1Z</time>
      </trkpt>
      <trkpt lat="45.71805" lon="6.0509">
        <ele>2634</ele>
        <time>2015-02-01T12:41:25.1Z</time>
      </trkpt>
      <trkpt lat="45.71803" lon="6.05081">
        <ele>2635</ele>
        <time>2015-02-01T12:41:31.1Z</time>
      </trkpt>
      <trkpt lat="45.71802" lon="6.05075">
        <ele>2635</ele>
        <time>2015-02-01T12:41:36.1Z</time>
      </trkpt>
      <trkpt lat="45.71801" lon="6.05067">
        <ele>2636</ele>
        <time>2015-02-01T12:41:42.1Z</time>
      </trkpt>
      <trkpt lat="45.71802" lon="6.0506">
        <ele>2637</ele>
        <time>2015-02-01T12:41:48.1Z</time>
      </trkpt>
      <trkpt lat="45.71803" lon="6.05054">
        <ele>2637</ele>
        <time>2015-02-01T12:41:53.1Z</time>
      </trkpt>
      <trkpt lat="45.71803" lon="6.05049">
        <ele>2639</ele>
        <time>2015-02-01T12:41:58.1Z</time>
      </trkpt>
      <trkpt lat="45.71804" lon="6.05044">
        <ele>2639</ele>
        <time>2015-02-01T12:42:03.1Z</time>
      </trkpt>
      <trkpt lat="45.71806" lon="6.05038">
        <ele>2640</ele>
        <time>2015-02-01T12:42:09.1Z</time>
      </trkpt>
      <trkpt lat="45.71807" lon="6.05033">
        <ele>2641</ele>
        <time>2015-02-01T12:42:14.1Z</time>
      </trkpt>
      <trkpt lat="45.71808" lon="6.05028">
        <ele>2642</ele>
        <time>2015-02-01T12:42:19.1Z</time>
      </trkpt>
      <trkpt lat="45.71808" lon="6.05024">
        <ele>2643</ele>
        <time>2015-02-01T12:42:25.1Z</time>
      </trkpt>
      <trkpt lat="45.71808" lon="6.05019">
        <ele>2644</ele>
        <time>2015-02-01T12:42:31.1Z</time>
      </trkpt>
      <trkpt lat="45.71809" lon="6.05013">
        <ele>2646</ele>
        <time>2015-02-01T12:42:37.1Z</time>
      </trkpt>
      <trkpt lat="45.7181" lon="6.05008">
        <ele>2647</ele>
        <time>2015-02-01T12:42:42.1Z</time>
      </trkpt>
      <trkpt lat="45.7181" lon="6.05003">
        <ele>2648</ele>
        <time>2015-02-01T12:42:47.1Z</time>
      </trkpt>
      <trkpt lat="45.71808" lon="6.04997">
        <ele>2650</ele>
        <time>2015-02-01T12:42:53.1Z</time>
      </trkpt>
      <trkpt lat="45.71809" lon="6.04992">
        <ele>2651</ele>
        <time>2015-02-01T12:42:59.1Z</time>
      </trkpt>
      <trkpt lat="45.71807" lon="6.04987">
        <ele>2651</ele>
        <time>2015-02-01T12:43:05.1Z</time>
      </trkpt>
      <trkpt lat="45.71807" lon="6.04983">
        <ele>2652</ele>
        <time>2015-02-01T12:43:10.1Z</time>
      </trkpt>
      <trkpt lat="45.71807" lon="6.04978">
        <ele>2654</ele>
        <time>2015-02-01T12:43:15.1Z</time>
      </trkpt>
      <trkpt lat="45.71807" lon="6.04972">
        <ele>2655</ele>
        <time>2015-02-01T12:43:21.1Z</time>
      </trkpt>
      <trkpt lat="45.71807" lon="6.04967">
        <ele>2656</ele>
        <time>2015-02-01T12:43:26.1Z</time>
      </trkpt>
      <trkpt lat="45.71804" lon="6.04962">
        <ele>2657</ele>
        <time>2015-02-01T12:43:32.1Z</time>
      </trkpt>
      <trkpt lat="45.71804" lon="6.04957">
        <ele>2658</ele>
        <time>2015-02-01T12:43:38.1Z</time>
      </trkpt>
      <trkpt lat="45.71802" lon="6.04953">
        <ele>2659</ele>
        <time>2015-02-01T12:43:43.1Z</time>
      </trkpt>
      <trkpt lat="45.71801" lon="6.04949">
        <ele>2660</ele>
        <time>2015-02-01T12:43:49.1Z</time>
      </trkpt>
      <trkpt lat="45.718" lon="6.04945">
        <ele>2661</ele>
        <time>2015-02-01T12:43:54.1Z</time>
      </trkpt>
      <trkpt lat="45.71798" lon="6.04939">
        <ele>2661</ele>
        <time>2015-02-01T12:44:00.1Z</time>
      </trkpt>
      <trkpt lat="45.71797" lon="6.04934">
        <ele>2662</ele>
        <time>2015-02-01T12:44:05.1Z</time>
      </trkpt>
      <trkpt lat="45.71795" lon="6.04928">
        <ele>2662</ele>
        <time>2015-02-01T12:44:11.1Z</time>
      </trkpt>
      <trkpt lat="45.71793" lon="6.04924">
        <ele>2664</ele>
        <time>2015-02-01T12:44:16.1Z</time>
      </trkpt>
      <trkpt lat="45.7179" lon="6.04921">
        <ele>2665</ele>
        <time>2015-02-01T12:44:21.1Z</time>
      </trkpt>
      <trkpt lat="45.71785" lon="6.04914">
        <ele>2665</ele>
        <time>2015-02-01T12:44:27.1Z</time>
      </trkpt>
      <trkpt lat="45.71784" lon="6.04907">
        <ele>2665</ele>
        <time>2015-02-01T12:44:33.1Z</time>
      </trkpt>
      <trkpt lat="45.71783" lon="6.04902">
        <ele>2666</ele>
        <time>2015-02-01T12:44:39.1Z</time>
      </trkpt>
      <trkpt lat="45.71782" lon="6.04895">
        <ele>2667</ele>
        <time>2015-02-01T12:44:45.1Z</time>
      </trkpt>
      <trkpt lat="45.71782" lon="6.04891">
        <ele>2668</ele>
        <time>2015-02-01T12:44:50.1Z</time>
      </trkpt>
      <trkpt lat="45.7178" lon="6.04884">
        <ele>2668</ele>
        <time>2015-02-01T12:44:56.1Z</time>
      </trkpt>
      <trkpt lat="45.71778" lon="6.0488">
        <ele>2669</ele>
        <time>2015-02-01T12:45:01.1Z</time>
      </trkpt>
      <trkpt lat="45.71776" lon="6.04874">
        <ele>2670</ele>
        <time>2015-02-01T12:45:07.1Z</time>
      </trkpt>
      <trkpt lat="45.71774" lon="6.04866">
        <ele>2671</ele>
        <time>2015-02-01T12:45:13.1Z</time>
      </trkpt>
      <trkpt lat="45.71773" lon="6.04861">
        <ele>2671</ele>
        <time>2015-02-01T12:45:18.1Z</time>
      </trkpt>
      <trkpt lat="45.71772" lon="6.04855">
        <ele>2672</ele>
        <time>2015-02-01T12:45:24.1Z</time>
      </trkpt>
      <trkpt lat="45.71773" lon="6.04847">
        <ele>2673</ele>
        <time>2015-02-01T12:45:30.1Z</time>
      </trkpt>
      <trkpt lat="45.71772" lon="6.04841">
        <ele>2675</ele>
        <time>2015-02-01T12:45:36.1Z</time>
      </trkpt>
      <trkpt lat="45.71771" lon="6.04836">
        <ele>2676</ele>
        <time>2015-02-01T12:45:41.1Z</time>
      </trkpt>
      <trkpt lat="45.71769" lon="6.0483">
        <ele>2676</ele>
        <time>2015-02-01T12:45:47.1Z</time>
      </trkpt>
      <trkpt lat="45.71766" lon="6.04826">
        <ele>2677</ele>
        <time>2015-02-01T12:45:52.1Z</time>
      </trkpt>
      <trkpt lat="45.71764" lon="6.04822">
        <ele>2678</ele>
        <time>2015-02-01T12:45:57.1Z</time>
      </trkpt>
      <trkpt lat="45.71761" lon="6.04817">
        <ele>2679</ele>
        <time>2015-02-01T12:46:03.1Z</time>
      </trkpt>
      <trkpt lat="45.71758" lon="6.04813">
        <ele>2680</ele>
        <time>2015-02-01T12:46:09.1Z</time>
      </trkpt>
      <trkpt lat="45.71756" lon="6.0481">
        <ele>2680</ele>
        <time>2015-02-01T12:46:14.1Z</time>
      </trkpt>
      <trkpt lat="45.71753" lon="6.04809">
        <ele>2680</ele>
        <time>2015-02-01T12:46:20.1Z</time>
      </trkpt>
      <trkpt lat="45.71751" lon="6.04809">
        <ele>2681</ele>
        <time>2015-02-01T12:46:26.1Z</time>
      </trkpt>
      <trkpt lat="45.71751" lon="6.04808">
        <ele>2680</ele>
        <time>2015-02-01T12:46:31.1Z</time>
      </trkpt>
      <trkpt lat="45.71751" lon="6.04806">
        <ele>2681</ele>
        <time>2015-02-01T12:46:36.1Z</time>
      </trkpt>
      <trkpt lat="45.71751" lon="6.04805">
        <ele>2680</ele>
        <time>2015-02-01T12:46:41.1Z</time>
      </trkpt>
      <trkpt lat="45.71751" lon="6.04804">
        <ele>2681</ele>
        <time>2015-02-01T12:46:47.1Z</time>
      </trkpt>
      <trkpt lat="45.71751" lon="6.04802">
        <ele>2681</ele>
        <time>2015-02-01T12:46:52.1Z</time>
      </trkpt>
      <trkpt lat="45.71751" lon="6.04801">
        <ele>2681</ele>
        <time>2015-02-01T12:46:58.1Z</time>
      </trkpt>
      <trkpt lat="45.71751" lon="6.048">
        <ele>2682</ele>
        <time>2015-02-01T12:47:03.1Z</time>
      </trkpt>
      <trkpt lat="45.71751" lon="6.04799">
        <ele>2681</ele>
        <time>2015-02-01T12:47:08.1Z</time>
      </trkpt>
      <trkpt lat="45.7175" lon="6.04797">
        <ele>2681</ele>
        <time>2015-02-01T12:47:14.1Z</time>
      </trkpt>
      <trkpt lat="45.7175" lon="6.04796">
        <ele>2681</ele>
        <time>2015-02-01T12:47:19.1Z</time>
      </trkpt>
      <trkpt lat="45.71749" lon="6.04796">
        <ele>2681</ele>
        <time>2015-02-01T12:47:24.1Z</time>
      </trkpt>
      <trkpt lat="45.71749" lon="6.04796">
        <ele>2680</ele>
        <time>2015-02-01T12:47:31.1Z</time>
      </trkpt>
      <trkpt lat="45.7175" lon="6.04797">
        <ele>2681</ele>
        <time>2015-02-01T12:47:37.1Z</time>
      </trkpt>
      <trkpt lat="45.7175" lon="6.04797">
        <ele>2681</ele>
        <time>2015-02-01T12:47:43.1Z</time>
      </trkpt>
      <trkpt lat="45.7175" lon="6.04797">
        <ele>2681</ele>
        <time>2015-02-01T12:47:50.1Z</time>
      </trkpt>
      <trkpt lat="45.7175" lon="6.04798">
        <ele>2681</ele>
        <time>2015-02-01T12:47:55.1Z</time>
      </trkpt>
      <trkpt lat="45.71751" lon="6.04798">
        <ele>2680</ele>
        <time>2015-02-01T12:48:01.1Z</time>
      </trkpt>
      <trkpt lat="45.71752" lon="6.04798">
        <ele>2681</ele>
        <time>2015-02-01T12:48:07.1Z</time>
      </trkpt>
      <trkpt lat="45.71753" lon="6.04798">
        <ele>2681</ele>
        <time>2015-02-01T12:48:12.1Z</time>
      </trkpt>
      <trkpt lat="45.71753" lon="6.04798">
        <ele>2681</ele>
        <time>2015-02-01T12:48:18.1Z</time>
      </trkpt>
      <trkpt lat="45.71753" lon="6.04799">
        <ele>2681</ele>
        <time>2015-02-01T12:48:23.1Z</time>
      </trkpt>
      <trkpt lat="45.71752" lon="6.048">
        <ele>2682</ele>
        <time>2015-02-01T12:48:29.1Z</time>
      </trkpt>
      <trkpt lat="45.71751" lon="6.04798">
        <ele>2682</ele>
        <time>2015-02-01T12:48:34.1Z</time>
      </trkpt>
      <trkpt lat="45.71751" lon="6.04798">
        <ele>2682</ele>
        <time>2015-02-01T12:48:40.1Z</time>
      </trkpt>
      <trkpt lat="45.71751" lon="6.04798">
        <ele>2682</ele>
        <time>2015-02-01T12:48:45.1Z</time>
      </trkpt>
      <trkpt lat="45.71749" lon="6.04791">
        <ele>2683</ele>
        <time>2015-02-01T12:48:51.1Z</time>
      </trkpt>
      <trkpt lat="45.71751" lon="6.04785">
        <ele>2684</ele>
        <time>2015-02-01T12:48:56.1Z</time>
      </trkpt>
      <trkpt lat="45.71749" lon="6.04781">
        <ele>2684</ele>
        <time>2015-02-01T12:49:01.1Z</time>
      </trkpt>
      <trkpt lat="45.71749" lon="6.04779">
        <ele>2685</ele>
        <time>2015-02-01T12:49:07.1Z</time>
      </trkpt>
      <trkpt lat="45.71748" lon="6.04778">
        <ele>2686</ele>
        <time>2015-02-01T12:49:12.1Z</time>
      </trkpt>
      <trkpt lat="45.71748" lon="6.04777">
        <ele>2686</ele>
        <time>2015-02-01T12:49:18.1Z</time>
      </trkpt>
      <trkpt lat="45.71748" lon="6.04776">
        <ele>2686</ele>
        <time>2015-02-01T12:49:23.1Z</time>
      </trkpt>
      <trkpt lat="45.71748" lon="6.04775">
        <ele>2686</ele>
        <time>2015-02-01T12:49:28.1Z</time>
      </trkpt>
      <trkpt lat="45.71748" lon="6.04774">
        <ele>2685</ele>
        <time>2015-02-01T12:49:33.1Z</time>
      </trkpt>
      <trkpt lat="45.71747" lon="6.04773">
        <ele>2685</ele>
        <time>2015-02-01T12:49:38.1Z</time>
      </trkpt>
      <trkpt lat="45.71747" lon="6.04773">
        <ele>2684</ele>
        <time>2015-02-01T12:49:44.1Z</time>
      </trkpt>
      <trkpt lat="45.71747" lon="6.04773">
        <ele>2685</ele>
        <time>2015-02-01T12:49:50.1Z</time>
      </trkpt>
      <trkpt lat="45.71747" lon="6.04773">
        <ele>2685</ele>
        <time>2015-02-01T12:49:57.1Z</time>
      </trkpt>
      <trkpt lat="45.71746" lon="6.04773">
        <ele>2685</ele>
        <time>2015-02-01T12:50:04.1Z</time>
      </trkpt>
      <trkpt lat="45.71747" lon="6.04774">
        <ele>2685</ele>
        <time>2015-02-01T12:50:09.1Z</time>
      </trkpt>
      <trkpt lat="45.71746" lon="6.04771">
        <ele>2685</ele>
        <time>2015-02-01T12:50:14.1Z</time>
      </trkpt>
      <trkpt lat="45.71746" lon="6.04768">
        <ele>2686</ele>
        <time>2015-02-01T12:50:20.1Z</time>
      </trkpt>
      <trkpt lat="45.71746" lon="6.04766">
        <ele>2687</ele>
        <time>2015-02-01T12:50:25.1Z</time>
      </trkpt>
      <trkpt lat="45.71744" lon="6.04763">
        <ele>2689</ele>
        <time>2015-02-01T12:50:31.1Z</time>
      </trkpt>
      <trkpt lat="45.71743" lon="6.0476">
        <ele>2689</ele>
        <time>2015-02-01T12:50:36.1Z</time>
      </trkpt>
      <trkpt lat="45.7174" lon="6.04757">
        <ele>2690</ele>
        <time>2015-02-01T12:50:41.1Z</time>
      </trkpt>
      <trkpt lat="45.71737" lon="6.04753">
        <ele>2691</ele>
        <time>2015-02-01T12:50:47.1Z</time>
      </trkpt>
      <trkpt lat="45.71735" lon="6.04746">
        <ele>2692</ele>
        <time>2015-02-01T12:50:52.1Z</time>
      </trkpt>
      <trkpt lat="45.71734" lon="6.0474">
        <ele>2693</ele>
        <time>2015-02-01T12:50:58.1Z</time>
      </trkpt>
      <trkpt lat="45.71733" lon="6.04731">
        <ele>2694</ele>
        <time>2015-02-01T12:51:04.1Z</time>
      </trkpt>
      <trkpt lat="45.71734" lon="6.04725">
        <ele>2695</ele>
        <time>2015-02-01T12:51:10.1Z</time>
      </trkpt>
      <trkpt lat="45.71735" lon="6.04717">
        <ele>2695</ele>
        <time>2015-02-01T12:51:16.1Z</time>
      </trkpt>
      <trkpt lat="45.71735" lon="6.04712">
        <ele>2696</ele>
        <time>2015-02-01T12:51:21.1Z</time>
      </trkpt>
      <trkpt lat="45.71738" lon="6.04705">
        <ele>2697</ele>
        <time>2015-02-01T12:51:27.1Z</time>
      </trkpt>
      <trkpt lat="45.7174" lon="6.04699">
        <ele>2698</ele>
        <time>2015-02-01T12:51:32.1Z</time>
      </trkpt>
      <trkpt lat="45.71741" lon="6.04692">
        <ele>2699</ele>
        <time>2015-02-01T12:51:38.1Z</time>
      </trkpt>
      <trkpt lat="45.71745" lon="6.04687">
        <ele>2700</ele>
        <time>2015-02-01T12:51:44.1Z</time>
      </trkpt>
      <trkpt lat="45.71744" lon="6.04685">
        <ele>2701</ele>
        <time>2015-02-01T12:51:49.1Z</time>
      </trkpt>
      <trkpt lat="45.71744" lon="6.04684">
        <ele>2701</ele>
        <time>2015-02-01T12:51:54.1Z</time>
      </trkpt>
      <trkpt lat="45.71748" lon="6.04679">
        <ele>2701</ele>
        <time>2015-02-01T12:52:00.1Z</time>
      </trkpt>
      <trkpt lat="45.71749" lon="6.04676">
        <ele>2702</ele>
        <time>2015-02-01T12:52:05.1Z</time>
      </trkpt>
      <trkpt lat="45.71752" lon="6.04674">
        <ele>2703</ele>
        <time>2015-02-01T12:52:11.1Z</time>
      </trkpt>
      <trkpt lat="45.71757" lon="6.04671">
        <ele>2704</ele>
        <time>2015-02-01T12:52:17.1Z</time>
      </trkpt>
      <trkpt lat="45.71761" lon="6.04669">
        <ele>2706</ele>
        <time>2015-02-01T12:52:22.1Z</time>
      </trkpt>
      <trkpt lat="45.71764" lon="6.04667">
        <ele>2707</ele>
        <time>2015-02-01T12:52:28.1Z</time>
      </trkpt>
      <trkpt lat="45.71769" lon="6.04666">
        <ele>2707</ele>
        <time>2015-02-01T12:52:34.1Z</time>
      </trkpt>
      <trkpt lat="45.71773" lon="6.04664">
        <ele>2708</ele>
        <time>2015-02-01T12:52:40.1Z</time>
      </trkpt>
      <trkpt lat="45.71776" lon="6.04663">
        <ele>2710</ele>
        <time>2015-02-01T12:52:45.1Z</time>
      </trkpt>
      <trkpt lat="45.71779" lon="6.04661">
        <ele>2710</ele>
        <time>2015-02-01T12:52:50.1Z</time>
      </trkpt>
      <trkpt lat="45.71782" lon="6.0466">
        <ele>2712</ele>
        <time>2015-02-01T12:52:56.1Z</time>
      </trkpt>
      <trkpt lat="45.71786" lon="6.04659">
        <ele>2713</ele>
        <time>2015-02-01T12:53:01.1Z</time>
      </trkpt>
      <trkpt lat="45.71791" lon="6.04659">
        <ele>2714</ele>
        <time>2015-02-01T12:53:07.1Z</time>
      </trkpt>
      <trkpt lat="45.71794" lon="6.0466">
        <ele>2714</ele>
        <time>2015-02-01T12:53:12.1Z</time>
      </trkpt>
      <trkpt lat="45.71797" lon="6.04659">
        <ele>2715</ele>
        <time>2015-02-01T12:53:18.1Z</time>
      </trkpt>
      <trkpt lat="45.71797" lon="6.04659">
        <ele>2716</ele>
        <time>2015-02-01T12:53:23.1Z</time>
      </trkpt>
      <trkpt lat="45.71799" lon="6.04659">
        <ele>2716</ele>
        <time>2015-02-01T12:53:28.1Z</time>
      </trkpt>
      <trkpt lat="45.71805" lon="6.0466">
        <ele>2717</ele>
        <time>2015-02-01T12:53:33.1Z</time>
      </trkpt>
      <trkpt lat="45.71812" lon="6.04662">
        <ele>2718</ele>
        <time>2015-02-01T12:53:39.1Z</time>
      </trkpt>
      <trkpt lat="45.71816" lon="6.04665">
        <ele>2719</ele>
        <time>2015-02-01T12:53:44.1Z</time>
      </trkpt>
      <trkpt lat="45.71819" lon="6.04671">
        <ele>2719</ele>
        <time>2015-02-01T12:53:50.1Z</time>
      </trkpt>
      <trkpt lat="45.71822" lon="6.04677">
        <ele>2720</ele>
        <time>2015-02-01T12:53:56.1Z</time>
      </trkpt>
      <trkpt lat="45.71825" lon="6.04681">
        <ele>2721</ele>
        <time>2015-02-01T12:54:01.1Z</time>
      </trkpt>
      <trkpt lat="45.71831" lon="6.04684">
        <ele>2722</ele>
        <time>2015-02-01T12:54:07.1Z</time>
      </trkpt>
      <trkpt lat="45.71837" lon="6.04686">
        <ele>2723</ele>
        <time>2015-02-01T12:54:12.1Z</time>
      </trkpt>
      <trkpt lat="45.71842" lon="6.04689">
        <ele>2724</ele>
        <time>2015-02-01T12:54:18.1Z</time>
      </trkpt>
      <trkpt lat="45.71845" lon="6.04692">
        <ele>2726</ele>
        <time>2015-02-01T12:54:23.1Z</time>
      </trkpt>
      <trkpt lat="45.71848" lon="6.04696">
        <ele>2728</ele>
        <time>2015-02-01T12:54:28.1Z</time>
      </trkpt>
      <trkpt lat="45.71851" lon="6.04701">
        <ele>2729</ele>
        <time>2015-02-01T12:54:33.1Z</time>
      </trkpt>
      <trkpt lat="45.71852" lon="6.04708">
        <ele>2730</ele>
        <time>2015-02-01T12:54:39.1Z</time>
      </trkpt>
      <trkpt lat="45.71856" lon="6.04713">
        <ele>2731</ele>
        <time>2015-02-01T12:54:45.1Z</time>
      </trkpt>
      <trkpt lat="45.71859" lon="6.04717">
        <ele>2731</ele>
        <time>2015-02-01T12:54:50.1Z</time>
      </trkpt>
      <trkpt lat="45.71863" lon="6.04722">
        <ele>2733</ele>
        <time>2015-02-01T12:54:56.1Z</time>
      </trkpt>
      <trkpt lat="45.71866" lon="6.04726">
        <ele>2734</ele>
        <time>2015-02-01T12:55:01.1Z</time>
      </trkpt>
      <trkpt lat="45.7187" lon="6.04729">
        <ele>2735</ele>
        <time>2015-02-01T12:55:07.1Z</time>
      </trkpt>
      <trkpt lat="45.71872" lon="6.04731">
        <ele>2736</ele>
        <time>2015-02-01T12:55:12.1Z</time>
      </trkpt>
      <trkpt lat="45.71873" lon="6.04731">
        <ele>2737</ele>
        <time>2015-02-01T12:55:18.1Z</time>
      </trkpt>
      <trkpt lat="45.71876" lon="6.04731">
        <ele>2737</ele>
        <time>2015-02-01T12:55:23.1Z</time>
      </trkpt>
      <trkpt lat="45.7188" lon="6.04727">
        <ele>2738</ele>
        <time>2015-02-01T12:55:29.1Z</time>
      </trkpt>
      <trkpt lat="45.71882" lon="6.04724">
        <ele>2740</ele>
        <time>2015-02-01T12:55:35.1Z</time>
      </trkpt>
      <trkpt lat="45.71884" lon="6.04719">
        <ele>2741</ele>
        <time>2015-02-01T12:55:40.1Z</time>
      </trkpt>
      <trkpt lat="45.71885" lon="6.04716">
        <ele>2743</ele>
        <time>2015-02-01T12:55:45.1Z</time>
      </trkpt>
      <trkpt lat="45.71886" lon="6.04712">
        <ele>2744</ele>
        <time>2015-02-01T12:55:50.1Z</time>
      </trkpt>
      <trkpt lat="45.71888" lon="6.04708">
        <ele>2744</ele>
        <time>2015-02-01T12:55:56.1Z</time>
      </trkpt>
      <trkpt lat="45.71889" lon="6.04705">
        <ele>2746</ele>
        <time>2015-02-01T12:56:01.1Z</time>
      </trkpt>
      <trkpt lat="45.71889" lon="6.04699">
        <ele>2748</ele>
        <time>2015-02-01T12:56:07.1Z</time>
      </trkpt>
      <trkpt lat="45.7189" lon="6.04695">
        <ele>2748</ele>
        <time>2015-02-01T12:56:12.1Z</time>
      </trkpt>
      <trkpt lat="45.7189" lon="6.04688">
        <ele>2749</ele>
        <time>2015-02-01T12:56:18.1Z</time>
      </trkpt>
      <trkpt lat="45.71891" lon="6.0468">
        <ele>2751</ele>
        <time>2015-02-01T12:56:24.1Z</time>
      </trkpt>
      <trkpt lat="45.71891" lon="6.04676">
        <ele>2752</ele>
        <time>2015-02-01T12:56:29.1Z</time>
      </trkpt>
      <trkpt lat="45.71892" lon="6.0467">
        <ele>2753</ele>
        <time>2015-02-01T12:56:35.1Z</time>
      </trkpt>
      <trkpt lat="45.71892" lon="6.04668">
        <ele>2754</ele>
        <time>2015-02-01T12:56:41.1Z</time>
      </trkpt>
      <trkpt lat="45.7189" lon="6.04664">
        <ele>2755</ele>
        <time>2015-02-01T12:56:47.1Z</time>
      </trkpt>
      <trkpt lat="45.7189" lon="6.04657">
        <ele>2756</ele>
        <time>2015-02-01T12:56:53.1Z</time>
      </trkpt>
      <trkpt lat="45.7189" lon="6.04654">
        <ele>2758</ele>
        <time>2015-02-01T12:56:58.1Z</time>
      </trkpt>
      <trkpt lat="45.7189" lon="6.04646">
        <ele>2759</ele>
        <time>2015-02-01T12:57:04.1Z</time>
      </trkpt>
      <trkpt lat="45.7189" lon="6.04639">
        <ele>2761</ele>
        <time>2015-02-01T12:57:10.1Z</time>
      </trkpt>
      <trkpt lat="45.71892" lon="6.04633">
        <ele>2762</ele>
        <time>2015-02-01T12:57:16.1Z</time>
      </trkpt>
      <trkpt lat="45.71892" lon="6.04626">
        <ele>2762</ele>
        <time>2015-02-01T12:57:22.1Z</time>
      </trkpt>
      <trkpt lat="45.71891" lon="6.04618">
        <ele>2764</ele>
        <time>2015-02-01T12:57:28.1Z</time>
      </trkpt>
      <trkpt lat="45.71891" lon="6.04612">
        <ele>2766</ele>
        <time>2015-02-01T12:57:34.1Z</time>
      </trkpt>
      <trkpt lat="45.71891" lon="6.0461">
        <ele>2766</ele>
        <time>2015-02-01T12:57:40.1Z</time>
      </trkpt>
      <trkpt lat="45.71891" lon="6.04609">
        <ele>2766</ele>
        <time>2015-02-01T12:57:45.1Z</time>
      </trkpt>
      <trkpt lat="45.71891" lon="6.04608">
        <ele>2767</ele>
        <time>2015-02-01T12:57:50.1Z</time>
      </trkpt>
      <trkpt lat="45.71889" lon="6.04605">
        <ele>2768</ele>
        <time>2015-02-01T12:57:56.1Z</time>
      </trkpt>
      <trkpt lat="45.71891" lon="6.04599">
        <ele>2769</ele>
        <time>2015-02-01T12:58:02.1Z</time>
      </trkpt>
      <trkpt lat="45.71892" lon="6.04598">
        <ele>2771</ele>
        <time>2015-02-01T12:58:07.1Z</time>
      </trkpt>
      <trkpt lat="45.71893" lon="6.04597">
        <ele>2771</ele>
        <time>2015-02-01T12:58:13.1Z</time>
      </trkpt>
      <trkpt lat="45.71893" lon="6.04597">
        <ele>2771</ele>
        <time>2015-02-01T12:58:18.1Z</time>
      </trkpt>
      <trkpt lat="45.71893" lon="6.04596">
        <ele>2771</ele>
        <time>2015-02-01T12:58:27.1Z</time>
      </trkpt>
      <trkpt lat="45.71893" lon="6.04596">
        <ele>2771</ele>
        <time>2015-02-01T12:58:33.1Z</time>
      </trkpt>
      <trkpt lat="45.71893" lon="6.04596">
        <ele>2770</ele>
        <time>2015-02-01T12:58:38.1Z</time>
      </trkpt>
      <trkpt lat="45.71893" lon="6.04595">
        <ele>2770</ele>
        <time>2015-02-01T12:58:43.1Z</time>
      </trkpt>
      <trkpt lat="45.71893" lon="6.04591">
        <ele>2771</ele>
        <time>2015-02-01T12:58:49.1Z</time>
      </trkpt>
      <trkpt lat="45.71892" lon="6.04585">
        <ele>2772</ele>
        <time>2015-02-01T12:58:55.1Z</time>
      </trkpt>
      <trkpt lat="45.71893" lon="6.04579">
        <ele>2774</ele>
        <time>2015-02-01T12:59:01.1Z</time>
      </trkpt>
      <trkpt lat="45.71893" lon="6.04575">
        <ele>2775</ele>
        <time>2015-02-01T12:59:06.1Z</time>
      </trkpt>
      <trkpt lat="45.71893" lon="6.0457">
        <ele>2776</ele>
        <time>2015-02-01T12:59:12.1Z</time>
      </trkpt>
      <trkpt lat="45.71893" lon="6.04565">
        <ele>2777</ele>
        <time>2015-02-01T12:59:17.1Z</time>
      </trkpt>
      <trkpt lat="45.71893" lon="6.0456">
        <ele>2778</ele>
        <time>2015-02-01T12:59:23.1Z</time>
      </trkpt>
      <trkpt lat="45.71893" lon="6.04556">
        <ele>2779</ele>
        <time>2015-02-01T12:59:28.1Z</time>
      </trkpt>
      <trkpt lat="45.71893" lon="6.04551">
        <ele>2780</ele>
        <time>2015-02-01T12:59:34.1Z</time>
      </trkpt>
      <trkpt lat="45.71892" lon="6.04546">
        <ele>2782</ele>
        <time>2015-02-01T12:59:40.1Z</time>
      </trkpt>
      <trkpt lat="45.71891" lon="6.04542">
        <ele>2784</ele>
        <time>2015-02-01T12:59:46.1Z</time>
      </trkpt>
      <trkpt lat="45.7189" lon="6.04537">
        <ele>2786</ele>
        <time>2015-02-01T12:59:52.1Z</time>
      </trkpt>
      <trkpt lat="45.7189" lon="6.04534">
        <ele>2786</ele>
        <time>2015-02-01T12:59:58.1Z</time>
      </trkpt>
      <trkpt lat="45.7189" lon="6.04531">
        <ele>2788</ele>
        <time>2015-02-01T13:00:03.1Z</time>
      </trkpt>
      <trkpt lat="45.71888" lon="6.04524">
        <ele>2789</ele>
        <time>2015-02-01T13:00:09.1Z</time>
      </trkpt>
      <trkpt lat="45.71889" lon="6.04519">
        <ele>2789</ele>
        <time>2015-02-01T13:00:14.1Z</time>
      </trkpt>
      <trkpt lat="45.71891" lon="6.04515">
        <ele>2790</ele>
        <time>2015-02-01T13:00:19.1Z</time>
      </trkpt>
      <trkpt lat="45.71891" lon="6.04514">
        <ele>2790</ele>
        <time>2015-02-01T13:00:24.1Z</time>
      </trkpt>
      <trkpt lat="45.71893" lon="6.04511">
        <ele>2791</ele>
        <time>2015-02-01T13:00:30.1Z</time>
      </trkpt>
      <trkpt lat="45.71894" lon="6.04507">
        <ele>2792</ele>
        <time>2015-02-01T13:00:37.1Z</time>
      </trkpt>
      <trkpt lat="45.71894" lon="6.04504">
        <ele>2792</ele>
        <time>2015-02-01T13:00:43.1Z</time>
      </trkpt>
      <trkpt lat="45.71896" lon="6.04501">
        <ele>2793</ele>
        <time>2015-02-01T13:00:48.1Z</time>
      </trkpt>
      <trkpt lat="45.71897" lon="6.04497">
        <ele>2795</ele>
        <time>2015-02-01T13:00:54.1Z</time>
      </trkpt>
      <trkpt lat="45.719" lon="6.04494">
        <ele>2795</ele>
        <time>2015-02-01T13:01:00.1Z</time>
      </trkpt>
      <trkpt lat="45.71904" lon="6.0449">
        <ele>2796</ele>
        <time>2015-02-01T13:01:06.1Z</time>
      </trkpt>
      <trkpt lat="45.71906" lon="6.04487">
        <ele>2797</ele>
        <time>2015-02-01T13:01:11.1Z</time>
      </trkpt>
      <trkpt lat="45.71909" lon="6.04484">
        <ele>2798</ele>
        <time>2015-02-01T13:01:17.1Z</time>
      </trkpt>
      <trkpt lat="45.71914" lon="6.04479">
        <ele>2799</ele>
        <time>2015-02-01T13:01:23.1Z</time>
      </trkpt>
      <trkpt lat="45.71918" lon="6.04475">
        <ele>2800</ele>
        <time>2015-02-01T13:01:29.1Z</time>
      </trkpt>
      <trkpt lat="45.71921" lon="6.0447">
        <ele>2800</ele>
        <time>2015-02-01T13:01:34.1Z</time>
      </trkpt>
      <trkpt lat="45.71923" lon="6.04466">
        <ele>2801</ele>
        <time>2015-02-01T13:01:39.1Z</time>
      </trkpt>
      <trkpt lat="45.71926" lon="6.0446">
        <ele>2801</ele>
        <time>2015-02-01T13:01:45.1Z</time>
      </trkpt>
      <trkpt lat="45.71928" lon="6.04455">
        <ele>2802</ele>
        <time>2015-02-01T13:01:50.1Z</time>
      </trkpt>
      <trkpt lat="45.71928" lon="6.04451">
        <ele>2802</ele>
        <time>2015-02-01T13:01:55.1Z</time>
      </trkpt>
      <trkpt lat="45.71928" lon="6.04446">
        <ele>2804</ele>
        <time>2015-02-01T13:02:00.1Z</time>
      </trkpt>
      <trkpt lat="45.71929" lon="6.0444">
        <ele>2806</ele>
        <time>2015-02-01T13:02:06.1Z</time>
      </trkpt>
      <trkpt lat="45.7193" lon="6.04435">
        <ele>2808</ele>
        <time>2015-02-01T13:02:11.1Z</time>
      </trkpt>
      <trkpt lat="45.71929" lon="6.04427">
        <ele>2809</ele>
        <time>2015-02-01T13:02:17.1Z</time>
      </trkpt>
      <trkpt lat="45.7193" lon="6.0442">
        <ele>2809</ele>
        <time>2015-02-01T13:02:22.1Z</time>
      </trkpt>
      <trkpt lat="45.71931" lon="6.04413">
        <ele>2810</ele>
        <time>2015-02-01T13:02:28.1Z</time>
      </trkpt>
      <trkpt lat="45.71932" lon="6.0441">
        <ele>2811</ele>
        <time>2015-02-01T13:02:33.1Z</time>
      </trkpt>
      <trkpt lat="45.71934" lon="6.04405">
        <ele>2812</ele>
        <time>2015-02-01T13:02:39.1Z</time>
      </trkpt>
      <trkpt lat="45.71936" lon="6.04404">
        <ele>2812</ele>
        <time>2015-02-01T13:02:44.1Z</time>
      </trkpt>
      <trkpt lat="45.7194" lon="6.04401">
        <ele>2813</ele>
        <time>2015-02-01T13:02:50.1Z</time>
      </trkpt>
      <trkpt lat="45.71944" lon="6.04397">
        <ele>2813</ele>
        <time>2015-02-01T13:02:55.1Z</time>
      </trkpt>
      <trkpt lat="45.71948" lon="6.04392">
        <ele>2815</ele>
        <time>2015-02-01T13:03:01.1Z</time>
      </trkpt>
      <trkpt lat="45.71951" lon="6.04388">
        <ele>2815</ele>
        <time>2015-02-01T13:03:06.1Z</time>
      </trkpt>
      <trkpt lat="45.71955" lon="6.04382">
        <ele>2816</ele>
        <time>2015-02-01T13:03:12.1Z</time>
      </trkpt>
      <trkpt lat="45.71958" lon="6.04376">
        <ele>2817</ele>
        <time>2015-02-01T13:03:18.1Z</time>
      </trkpt>
      <trkpt lat="45.71958" lon="6.04372">
        <ele>2819</ele>
        <time>2015-02-01T13:03:23.1Z</time>
      </trkpt>
      <trkpt lat="45.71959" lon="6.04367">
        <ele>2820</ele>
        <time>2015-02-01T13:03:29.1Z</time>
      </trkpt>
      <trkpt lat="45.7196" lon="6.04364">
        <ele>2821</ele>
        <time>2015-02-01T13:03:35.1Z</time>
      </trkpt>
      <trkpt lat="45.71962" lon="6.04359">
        <ele>2822</ele>
        <time>2015-02-01T13:03:40.1Z</time>
      </trkpt>
      <trkpt lat="45.71964" lon="6.04356">
        <ele>2823</ele>
        <time>2015-02-01T13:03:45.1Z</time>
      </trkpt>
      <trkpt lat="45.71965" lon="6.04352">
        <ele>2824</ele>
        <time>2015-02-01T13:03:50.1Z</time>
      </trkpt>
      <trkpt lat="45.71968" lon="6.04347">
        <ele>2825</ele>
        <time>2015-02-01T13:03:56.1Z</time>
      </trkpt>
      <trkpt lat="45.7197" lon="6.04341">
        <ele>2827</ele>
        <time>2015-02-01T13:04:01.1Z</time>
      </trkpt>
      <trkpt lat="45.71972" lon="6.04333">
        <ele>2828</ele>
        <time>2015-02-01T13:04:07.1Z</time>
      </trkpt>
      <trkpt lat="45.71973" lon="6.04328">
        <ele>2829</ele>
        <time>2015-02-01T13:04:12.1Z</time>
      </trkpt>
      <trkpt lat="45.71977" lon="6.04321">
        <ele>2829</ele>
        <time>2015-02-01T13:04:18.1Z</time>
      </trkpt>
      <trkpt lat="45.71982" lon="6.04313">
        <ele>2829</ele>
        <time>2015-02-01T13:04:24.1Z</time>
      </trkpt>
      <trkpt lat="45.71985" lon="6.04307">
        <ele>2829</ele>
        <time>2015-02-01T13:04:30.1Z</time>
      </trkpt>
      <trkpt lat="45.71988" lon="6.043">
        <ele>2828</ele>
        <time>2015-02-01T13:04:36.1Z</time>
      </trkpt>
      <trkpt lat="45.71992" lon="6.04292">
        <ele>2829</ele>
        <time>2015-02-01T13:04:42.1Z</time>
      </trkpt>
      <trkpt lat="45.71994" lon="6.04286">
        <ele>2830</ele>
        <time>2015-02-01T13:04:47.1Z</time>
      </trkpt>
      <trkpt lat="45.71995" lon="6.04278">
        <ele>2832</ele>
        <time>2015-02-01T13:04:53.1Z</time>
      </trkpt>
      <trkpt lat="45.71996" lon="6.04273">
        <ele>2833</ele>
        <time>2015-02-01T13:04:59.1Z</time>
      </trkpt>
      <trkpt lat="45.71997" lon="6.04267">
        <ele>2834</ele>
        <time>2015-02-01T13:05:05.1Z</time>
      </trkpt>
      <trkpt lat="45.71999" lon="6.04264">
        <ele>2834</ele>
        <time>2015-02-01T13:05:10.1Z</time>
      </trkpt>
      <trkpt lat="45.72004" lon="6.04259">
        <ele>2834</ele>
        <time>2015-02-01T13:05:16.1Z</time>
      </trkpt>
      <trkpt lat="45.72008" lon="6.04251">
        <ele>2834</ele>
        <time>2015-02-01T13:05:22.1Z</time>
      </trkpt>
      <trkpt lat="45.72012" lon="6.04246">
        <ele>2834</ele>
        <time>2015-02-01T13:05:28.1Z</time>
      </trkpt>
      <trkpt lat="45.72014" lon="6.04243">
        <ele>2835</ele>
        <time>2015-02-01T13:05:34.1Z</time>
      </trkpt>
      <trkpt lat="45.72016" lon="6.04239">
        <ele>2834</ele>
        <time>2015-02-01T13:05:40.1Z</time>
      </trkpt>
      <trkpt lat="45.72017" lon="6.04237">
        <ele>2834</ele>
        <time>2015-02-01T13:05:45.1Z</time>
      </trkpt>
      <trkpt lat="45.72017" lon="6.04236">
        <ele>2834</ele>
        <time>2015-02-01T13:05:51.1Z</time>
      </trkpt>
      <trkpt lat="45.72017" lon="6.04235">
        <ele>2835</ele>
        <time>2015-02-01T13:05:57.1Z</time>
      </trkpt>
      <trkpt lat="45.72017" lon="6.04235">
        <ele>2834</ele>
        <time>2015-02-01T13:06:03.1Z</time>
      </trkpt>
      <trkpt lat="45.72018" lon="6.04234">
        <ele>2834</ele>
        <time>2015-02-01T13:06:08.1Z</time>
      </trkpt>
      <trkpt lat="45.72018" lon="6.04234">
        <ele>2834</ele>
        <time>2015-02-01T13:06:13.1Z</time>
      </trkpt>
      <trkpt lat="45.72019" lon="6.04234">
        <ele>2834</ele>
        <time>2015-02-01T13:06:20.1Z</time>
      </trkpt>
      <trkpt lat="45.7202" lon="6.04233">
        <ele>2834</ele>
        <time>2015-02-01T13:06:26.1Z</time>
      </trkpt>
      <trkpt lat="45.7202" lon="6.04233">
        <ele>2835</ele>
        <time>2015-02-01T13:06:32.1Z</time>
      </trkpt>
      <trkpt lat="45.7202" lon="6.04234">
        <ele>2835</ele>
        <time>2015-02-01T13:06:37.1Z</time>
      </trkpt>
      <trkpt lat="45.7202" lon="6.04235">
        <ele>2834</ele>
        <time>2015-02-01T13:06:42.1Z</time>
      </trkpt>
      <trkpt lat="45.7202" lon="6.04236">
        <ele>2834</ele>
        <time>2015-02-01T13:06:48.1Z</time>
      </trkpt>
      <trkpt lat="45.7202" lon="6.04236">
        <ele>2834</ele>
        <time>2015-02-01T13:06:56.1Z</time>
      </trkpt>
      <trkpt lat="45.7202" lon="6.04236">
        <ele>2835</ele>
        <time>2015-02-01T13:07:01.1Z</time>
      </trkpt>
      <trkpt lat="45.72019" lon="6.04237">
        <ele>2835</ele>
        <time>2015-02-01T13:07:07.1Z</time>
      </trkpt>
      <trkpt lat="45.72019" lon="6.04237">
        <ele>2834</ele>
        <time>2015-02-01T13:07:12.1Z</time>
      </trkpt>
      <trkpt lat="45.72019" lon="6.04232">
        <ele>2834</ele>
        <time>2015-02-01T13:07:18.1Z</time>
      </trkpt>
      <trkpt lat="45.72021" lon="6.04226">
        <ele>2834</ele>
        <time>2015-02-01T13:07:23.1Z</time>
      </trkpt>
      <trkpt lat="45.72024" lon="6.04221">
        <ele>2836</ele>
        <time>2015-02-01T13:07:28.1Z</time>
      </trkpt>
      <trkpt lat="45.72026" lon="6.04214">
        <ele>2837</ele>
        <time>2015-02-01T13:07:34.1Z</time>
      </trkpt>
      <trkpt lat="45.72027" lon="6.04205">
        <ele>2838</ele>
        <time>2015-02-01T13:07:40.1Z</time>
      </trkpt>
      <trkpt lat="45.72026" lon="6.04196">
        <ele>2839</ele>
        <time>2015-02-01T13:07:45.1Z</time>
      </trkpt>
      <trkpt lat="45.72027" lon="6.04189">
        <ele>2841</ele>
        <time>2015-02-01T13:07:51.1Z</time>
      </trkpt>
      <trkpt lat="45.72028" lon="6.04181">
        <ele>2843</ele>
        <time>2015-02-01T13:07:56.1Z</time>
      </trkpt>
      <trkpt lat="45.72029" lon="6.04177">
        <ele>2843</ele>
        <time>2015-02-01T13:08:01.1Z</time>
      </trkpt>
      <trkpt lat="45.7203" lon="6.04169">
        <ele>2843</ele>
        <time>2015-02-01T13:08:07.1Z</time>
      </trkpt>
      <trkpt lat="45.72032" lon="6.04163">
        <ele>2844</ele>
        <time>2015-02-01T13:08:13.1Z</time>
      </trkpt>
      <trkpt lat="45.72033" lon="6.04157">
        <ele>2845</ele>
        <time>2015-02-01T13:08:18.1Z</time>
      </trkpt>
      <trkpt lat="45.72035" lon="6.04152">
        <ele>2846</ele>
        <time>2015-02-01T13:08:24.1Z</time>
      </trkpt>
      <trkpt lat="45.72036" lon="6.04149">
        <ele>2847</ele>
        <time>2015-02-01T13:08:29.1Z</time>
      </trkpt>
      <trkpt lat="45.72036" lon="6.04144">
        <ele>2849</ele>
        <time>2015-02-01T13:08:35.1Z</time>
      </trkpt>
      <trkpt lat="45.72037" lon="6.04141">
        <ele>2850</ele>
        <time>2015-02-01T13:08:40.1Z</time>
      </trkpt>
      <trkpt lat="45.72038" lon="6.04139">
        <ele>2850</ele>
        <time>2015-02-01T13:08:45.1Z</time>
      </trkpt>
      <trkpt lat="45.7204" lon="6.04135">
        <ele>2850</ele>
        <time>2015-02-01T13:08:51.1Z</time>
      </trkpt>
      <trkpt lat="45.72042" lon="6.0413">
        <ele>2851</ele>
        <time>2015-02-01T13:08:57.1Z</time>
      </trkpt>
      <trkpt lat="45.72046" lon="6.04121">
        <ele>2851</ele>
        <time>2015-02-01T13:09:03.1Z</time>
      </trkpt>
      <trkpt lat="45.72051" lon="6.04113">
        <ele>2850</ele>
        <time>2015-02-01T13:09:09.1Z</time>
      </trkpt>
      <trkpt lat="45.72054" lon="6.04104">
        <ele>2851</ele>
        <time>2015-02-01T13:09:14.1Z</time>
      </trkpt>
      <trkpt lat="45.72057" lon="6.04093">
        <ele>2852</ele>
        <time>2015-02-01T13:09:19.1Z</time>
      </trkpt>
      <trkpt lat="45.72061" lon="6.04082">
        <ele>2852</ele>
        <time>2015-02-01T13:09:25.1Z</time>
      </trkpt>
      <trkpt lat="45.72065" lon="6.04073">
        <ele>2853</ele>
        <time>2015-02-01T13:09:31.1Z</time>
      </trkpt>
      <trkpt lat="45.72067" lon="6.0407">
        <ele>2853</ele>
        <time>2015-02-01T13:09:37.1Z</time>
      </trkpt>
      <trkpt lat="45.7207" lon="6.04064">
        <ele>2854</ele>
        <time>2015-02-01T13:09:43.1Z</time>
      </trkpt>
      <trkpt lat="45.7207" lon="6.04058">
        <ele>2855</ele>
        <time>2015-02-01T13:09:48.1Z</time>
      </trkpt>
      <trkpt lat="45.72071" lon="6.04053">
        <ele>2856</ele>
        <time>2015-02-01T13:09:54.1Z</time>
      </trkpt>
      <trkpt lat="45.72072" lon="6.0405">
        <ele>2856</ele>
        <time>2015-02-01T13:09:59.1Z</time>
      </trkpt>
      <trkpt lat="45.72074" lon="6.04046">
        <ele>2856</ele>
        <time>2015-02-01T13:10:05.1Z</time>
      </trkpt>
      <trkpt lat="45.72075" lon="6.04042">
        <ele>2856</ele>
        <time>2015-02-01T13:10:10.1Z</time>
      </trkpt>
      <trkpt lat="45.72076" lon="6.04038">
        <ele>2856</ele>
        <time>2015-02-01T13:10:15.1Z</time>
      </trkpt>
      <trkpt lat="45.72077" lon="6.04032">
        <ele>2856</ele>
        <time>2015-02-01T13:10:21.1Z</time>
      </trkpt>
      <trkpt lat="45.72079" lon="6.04027">
        <ele>2857</ele>
        <time>2015-02-01T13:10:26.1Z</time>
      </trkpt>
      <trkpt lat="45.72083" lon="6.0402">
        <ele>2857</ele>
        <time>2015-02-01T13:10:32.1Z</time>
      </trkpt>
      <trkpt lat="45.72085" lon="6.04012">
        <ele>2858</ele>
        <time>2015-02-01T13:10:38.1Z</time>
      </trkpt>
      <trkpt lat="45.72087" lon="6.04003">
        <ele>2858</ele>
        <time>2015-02-01T13:10:44.1Z</time>
      </trkpt>
      <trkpt lat="45.7209" lon="6.03997">
        <ele>2859</ele>
        <time>2015-02-01T13:10:49.1Z</time>
      </trkpt>
      <trkpt lat="45.72092" lon="6.03989">
        <ele>2859</ele>
        <time>2015-02-01T13:10:55.1Z</time>
      </trkpt>
      <trkpt lat="45.72094" lon="6.03981">
        <ele>2861</ele>
        <time>2015-02-01T13:11:00.1Z</time>
      </trkpt>
      <trkpt lat="45.72097" lon="6.03972">
        <ele>2861</ele>
        <time>2015-02-01T13:11:06.1Z</time>
      </trkpt>
      <trkpt lat="45.72097" lon="6.03965">
        <ele>2863</ele>
        <time>2015-02-01T13:11:12.1Z</time>
      </trkpt>
      <trkpt lat="45.72098" lon="6.03954">
        <ele>2864</ele>
        <time>2015-02-01T13:11:18.1Z</time>
      </trkpt>
      <trkpt lat="45.721" lon="6.03944">
        <ele>2865</ele>
        <time>2015-02-01T13:11:24.1Z</time>
      </trkpt>
      <trkpt lat="45.72101" lon="6.03936">
        <ele>2867</ele>
        <time>2015-02-01T13:11:29.1Z</time>
      </trkpt>
      <trkpt lat="45.72102" lon="6.03929">
        <ele>2868</ele>
        <time>2015-02-01T13:11:34.1Z</time>
      </trkpt>
      <trkpt lat="45.72106" lon="6.03922">
        <ele>2870</ele>
        <time>2015-02-01T13:11:39.1Z</time>
      </trkpt>
      <trkpt lat="45.72109" lon="6.03918">
        <ele>2871</ele>
        <time>2015-02-01T13:11:44.1Z</time>
      </trkpt>
      <trkpt lat="45.72113" lon="6.03909">
        <ele>2873</ele>
        <time>2015-02-01T13:11:50.1Z</time>
      </trkpt>
      <trkpt lat="45.72115" lon="6.03899">
        <ele>2874</ele>
        <time>2015-02-01T13:11:55.1Z</time>
      </trkpt>
      <trkpt lat="45.72118" lon="6.03888">
        <ele>2874</ele>
        <time>2015-02-01T13:12:00.1Z</time>
      </trkpt>
      <trkpt lat="45.72118" lon="6.03882">
        <ele>2873</ele>
        <time>2015-02-01T13:12:06.1Z</time>
      </trkpt>
      <trkpt lat="45.72114" lon="6.03879">
        <ele>2873</ele>
        <time>2015-02-01T13:12:11.1Z</time>
      </trkpt>
      <trkpt lat="45.72112" lon="6.03876">
        <ele>2874</ele>
        <time>2015-02-01T13:12:17.1Z</time>
      </trkpt>
      <trkpt lat="45.72109" lon="6.03872">
        <ele>2875</ele>
        <time>2015-02-01T13:12:22.1Z</time>
      </trkpt>
      <trkpt lat="45.72107" lon="6.03869">
        <ele>2876</ele>
        <time>2015-02-01T13:12:27.1Z</time>
      </trkpt>
      <trkpt lat="45.72105" lon="6.03865">
        <ele>2876</ele>
        <time>2015-02-01T13:12:33.1Z</time>
      </trkpt>
      <trkpt lat="45.72101" lon="6.03857">
        <ele>2876</ele>
        <time>2015-02-01T13:12:38.1Z</time>
      </trkpt>
      <trkpt lat="45.72095" lon="6.03845">
        <ele>2875</ele>
        <time>2015-02-01T13:12:44.1Z</time>
      </trkpt>
      <trkpt lat="45.72088" lon="6.03838">
        <ele>2875</ele>
        <time>2015-02-01T13:12:49.1Z</time>
      </trkpt>
      <trkpt lat="45.72079" lon="6.03832">
        <ele>2875</ele>
        <time>2015-02-01T13:12:55.1Z</time>
      </trkpt>
      <trkpt lat="45.72068" lon="6.03829">
        <ele>2875</ele>
        <time>2015-02-01T13:13:01.1Z</time>
      </trkpt>
      <trkpt lat="45.72062" lon="6.03825">
        <ele>2875</ele>
        <time>2015-02-01T13:13:06.1Z</time>
      </trkpt>
      <trkpt lat="45.72061" lon="6.03823">
        <ele>2877</ele>
        <time>2015-02-01T13:13:12.1Z</time>
      </trkpt>
      <trkpt lat="45.72056" lon="6.03817">
        <ele>2877</ele>
        <time>2015-02-01T13:13:17.1Z</time>
      </trkpt>
      <trkpt lat="45.72052" lon="6.03811">
        <ele>2878</ele>
        <time>2015-02-01T13:13:22.1Z</time>
      </trkpt>
      <trkpt lat="45.72047" lon="6.03803">
        <ele>2879</ele>
        <time>2015-02-01T13:13:28.1Z</time>
      </trkpt>
      <trkpt lat="45.72042" lon="6.03796">
        <ele>2880</ele>
        <time>2015-02-01T13:13:34.1Z</time>
      </trkpt>
      <trkpt lat="45.72037" lon="6.03794">
        <ele>2880</ele>
        <time>2015-02-01T13:13:39.1Z</time>
      </trkpt>
      <trkpt lat="45.72033" lon="6.0379">
        <ele>2880</ele>
        <time>2015-02-01T13:13:45.1Z</time>
      </trkpt>
      <trkpt lat="45.72031" lon="6.03789">
        <ele>2880</ele>
        <time>2015-02-01T13:13:50.1Z</time>
      </trkpt>
      <trkpt lat="45.7203" lon="6.03788">
        <ele>2880</ele>
        <time>2015-02-01T13:13:55.1Z</time>
      </trkpt>
      <trkpt lat="45.72026" lon="6.03785">
        <ele>2880</ele>
        <time>2015-02-01T13:14:01.1Z</time>
      </trkpt>
      <trkpt lat="45.7202" lon="6.03779">
        <ele>2880</ele>
        <time>2015-02-01T13:14:06.1Z</time>
      </trkpt>
      <trkpt lat="45.72015" lon="6.03775">
        <ele>2881</ele>
        <time>2015-02-01T13:14:12.1Z</time>
      </trkpt>
      <trkpt lat="45.72012" lon="6.03772">
        <ele>2882</ele>
        <time>2015-02-01T13:14:17.1Z</time>
      </trkpt>
      <trkpt lat="45.72007" lon="6.03769">
        <ele>2884</ele>
        <time>2015-02-01T13:14:23.1Z</time>
      </trkpt>
      <trkpt lat="45.72004" lon="6.03766">
        <ele>2886</ele>
        <time>2015-02-01T13:14:28.1Z</time>
      </trkpt>
      <trkpt lat="45.72001" lon="6.03763">
        <ele>2887</ele>
        <time>2015-02-01T13:14:33.1Z</time>
      </trkpt>
      <trkpt lat="45.72001" lon="6.03762">
        <ele>2886</ele>
        <time>2015-02-01T13:14:39.1Z</time>
      </trkpt>
      <trkpt lat="45.72001" lon="6.03763">
        <ele>2886</ele>
        <time>2015-02-01T13:14:44.1Z</time>
      </trkpt>
      <trkpt lat="45.72001" lon="6.03762">
        <ele>2887</ele>
        <time>2015-02-01T13:14:51.1Z</time>
      </trkpt>
      <trkpt lat="45.72001" lon="6.03761">
        <ele>2888</ele>
        <time>2015-02-01T13:14:56.1Z</time>
      </trkpt>
      <trkpt lat="45.72001" lon="6.03761">
        <ele>2888</ele>
        <time>2015-02-01T13:15:03.1Z</time>
      </trkpt>
      <trkpt lat="45.72002" lon="6.03761">
        <ele>2888</ele>
        <time>2015-02-01T13:15:10.1Z</time>
      </trkpt>
      <trkpt lat="45.72001" lon="6.03761">
        <ele>2888</ele>
        <time>2015-02-01T13:15:16.1Z</time>
      </trkpt>
      <trkpt lat="45.72001" lon="6.03761">
        <ele>2888</ele>
        <time>2015-02-01T13:15:24.1Z</time>
      </trkpt>
      <trkpt lat="45.72001" lon="6.03761">
        <ele>2889</ele>
        <time>2015-02-01T13:15:30.1Z</time>
      </trkpt>
      <trkpt lat="45.71986" lon="6.03752">
        <ele>2889</ele>
        <time>2015-02-01T13:17:18.1Z</time>
      </trkpt>
      <trkpt lat="45.71987" lon="6.03751">
        <ele>2888</ele>
        <time>2015-02-01T13:17:23.1Z</time>
      </trkpt>
      <trkpt lat="45.71993" lon="6.03743">
        <ele>2887</ele>
        <time>2015-02-01T13:17:29.1Z</time>
      </trkpt>
      <trkpt lat="45.72001" lon="6.03727">
        <ele>2884</ele>
        <time>2015-02-01T13:17:34.1Z</time>
      </trkpt>
      <trkpt lat="45.72004" lon="6.03706">
        <ele>2879</ele>
        <time>2015-02-01T13:17:40.1Z</time>
      </trkpt>
      <trkpt lat="45.72005" lon="6.03699">
        <ele>2880</ele>
        <time>2015-02-01T13:17:46.1Z</time>
      </trkpt>
      <trkpt lat="45.72005" lon="6.03698">
        <ele>2882</ele>
        <time>2015-02-01T13:17:51.1Z</time>
      </trkpt>
      <trkpt lat="45.72006" lon="6.03698">
        <ele>2882</ele>
        <time>2015-02-01T13:17:56.1Z</time>
      </trkpt>
      <trkpt lat="45.72006" lon="6.03698">
        <ele>2882</ele>
        <time>2015-02-01T13:18:01.1Z</time>
      </trkpt>
      <trkpt lat="45.72006" lon="6.03698">
        <ele>2880</ele>
        <time>2015-02-01T13:18:08.1Z</time>
      </trkpt>
      <trkpt lat="45.72007" lon="6.03698">
        <ele>2879</ele>
        <time>2015-02-01T13:18:16.1Z</time>
      </trkpt>
      <trkpt lat="45.72006" lon="6.03699">
        <ele>2880</ele>
        <time>2015-02-01T13:18:23.1Z</time>
      </trkpt>
      <trkpt lat="45.72006" lon="6.03698">
        <ele>2881</ele>
        <time>2015-02-01T13:18:28.1Z</time>
      </trkpt>
      <trkpt lat="45.72006" lon="6.03699">
        <ele>2882</ele>
        <time>2015-02-01T13:18:34.1Z</time>
      </trkpt>
      <trkpt lat="45.72006" lon="6.03695">
        <ele>2883</ele>
        <time>2015-02-01T13:18:40.1Z</time>
      </trkpt>
      <trkpt lat="45.72007" lon="6.03689">
        <ele>2883</ele>
        <time>2015-02-01T13:18:45.1Z</time>
      </trkpt>
      <trkpt lat="45.72008" lon="6.03683">
        <ele>2883</ele>
        <time>2015-02-01T13:18:50.1Z</time>
      </trkpt>
      <trkpt lat="45.72009" lon="6.03678">
        <ele>2884</ele>
        <time>2015-02-01T13:18:55.1Z</time>
      </trkpt>
      <trkpt lat="45.72008" lon="6.03675">
        <ele>2885</ele>
        <time>2015-02-01T13:19:01.1Z</time>
      </trkpt>
      <trkpt lat="45.72009" lon="6.03669">
        <ele>2886</ele>
        <time>2015-02-01T13:19:06.1Z</time>
      </trkpt>
      <trkpt lat="45.7201" lon="6.03662">
        <ele>2886</ele>
        <time>2015-02-01T13:19:11.1Z</time>
      </trkpt>
      <trkpt lat="45.7201" lon="6.03654">
        <ele>2888</ele>
        <time>2015-02-01T13:19:17.1Z</time>
      </trkpt>
      <trkpt lat="45.72011" lon="6.03648">
        <ele>2889</ele>
        <time>2015-02-01T13:19:22.1Z</time>
      </trkpt>
      <trkpt lat="45.72012" lon="6.03641">
        <ele>2890</ele>
        <time>2015-02-01T13:19:27.1Z</time>
      </trkpt>
      <trkpt lat="45.72012" lon="6.03635">
        <ele>2892</ele>
        <time>2015-02-01T13:19:33.1Z</time>
      </trkpt>
      <trkpt lat="45.72013" lon="6.03629">
        <ele>2893</ele>
        <time>2015-02-01T13:19:38.1Z</time>
      </trkpt>
      <trkpt lat="45.72014" lon="6.03624">
        <ele>2895</ele>
        <time>2015-02-01T13:19:43.1Z</time>
      </trkpt>
      <trkpt lat="45.72013" lon="6.0362">
        <ele>2896</ele>
        <time>2015-02-01T13:19:49.1Z</time>
      </trkpt>
      <trkpt lat="45.72012" lon="6.03616">
        <ele>2897</ele>
        <time>2015-02-01T13:19:55.1Z</time>
      </trkpt>
      <trkpt lat="45.72011" lon="6.03612">
        <ele>2898</ele>
        <time>2015-02-01T13:20:00.1Z</time>
      </trkpt>
      <trkpt lat="45.7201" lon="6.0361">
        <ele>2898</ele>
        <time>2015-02-01T13:20:05.1Z</time>
      </trkpt>
      <trkpt lat="45.72009" lon="6.03609">
        <ele>2898</ele>
        <time>2015-02-01T13:20:10.1Z</time>
      </trkpt>
      <trkpt lat="45.72007" lon="6.03606">
        <ele>2899</ele>
        <time>2015-02-01T13:20:16.1Z</time>
      </trkpt>
      <trkpt lat="45.72008" lon="6.036">
        <ele>2900</ele>
        <time>2015-02-01T13:20:22.1Z</time>
      </trkpt>
      <trkpt lat="45.7201" lon="6.03593">
        <ele>2901</ele>
        <time>2015-02-01T13:20:28.1Z</time>
      </trkpt>
      <trkpt lat="45.72011" lon="6.03587">
        <ele>2903</ele>
        <time>2015-02-01T13:20:34.1Z</time>
      </trkpt>
      <trkpt lat="45.72012" lon="6.03582">
        <ele>2905</ele>
        <time>2015-02-01T13:20:39.1Z</time>
      </trkpt>
      <trkpt lat="45.72013" lon="6.03576">
        <ele>2907</ele>
        <time>2015-02-01T13:20:44.1Z</time>
      </trkpt>
      <trkpt lat="45.72014" lon="6.03572">
        <ele>2909</ele>
        <time>2015-02-01T13:20:49.1Z</time>
      </trkpt>
      <trkpt lat="45.72015" lon="6.03567">
        <ele>2909</ele>
        <time>2015-02-01T13:20:55.1Z</time>
      </trkpt>
      <trkpt lat="45.72016" lon="6.03563">
        <ele>2908</ele>
        <time>2015-02-01T13:21:00.1Z</time>
      </trkpt>
      <trkpt lat="45.72017" lon="6.03559">
        <ele>2909</ele>
        <time>2015-02-01T13:21:05.1Z</time>
      </trkpt>
      <trkpt lat="45.72019" lon="6.03556">
        <ele>2910</ele>
        <time>2015-02-01T13:21:10.1Z</time>
      </trkpt>
      <trkpt lat="45.72019" lon="6.03554">
        <ele>2910</ele>
        <time>2015-02-01T13:21:16.1Z</time>
      </trkpt>
      <trkpt lat="45.72017" lon="6.03551">
        <ele>2910</ele>
        <time>2015-02-01T13:21:21.1Z</time>
      </trkpt>
      <trkpt lat="45.72015" lon="6.03547">
        <ele>2911</ele>
        <time>2015-02-01T13:21:27.1Z</time>
      </trkpt>
      <trkpt lat="45.72014" lon="6.03545">
        <ele>2912</ele>
        <time>2015-02-01T13:21:32.1Z</time>
      </trkpt>
      <trkpt lat="45.72013" lon="6.03542">
        <ele>2913</ele>
        <time>2015-02-01T13:21:37.1Z</time>
      </trkpt>
      <trkpt lat="45.72012" lon="6.03537">
        <ele>2915</ele>
        <time>2015-02-01T13:21:43.1Z</time>
      </trkpt>
      <trkpt lat="45.72012" lon="6.03534">
        <ele>2916</ele>
        <time>2015-02-01T13:21:48.1Z</time>
      </trkpt>
      <trkpt lat="45.72015" lon="6.0353">
        <ele>2917</ele>
        <time>2015-02-01T13:21:54.1Z</time>
      </trkpt>
      <trkpt lat="45.72017" lon="6.03526">
        <ele>2918</ele>
        <time>2015-02-01T13:21:59.1Z</time>
      </trkpt>
      <trkpt lat="45.72018" lon="6.03523">
        <ele>2919</ele>
        <time>2015-02-01T13:22:04.1Z</time>
      </trkpt>
      <trkpt lat="45.7202" lon="6.03519">
        <ele>2921</ele>
        <time>2015-02-01T13:22:10.1Z</time>
      </trkpt>
      <trkpt lat="45.7202" lon="6.03515">
        <ele>2921</ele>
        <time>2015-02-01T13:22:16.1Z</time>
      </trkpt>
      <trkpt lat="45.72019" lon="6.0351">
        <ele>2922</ele>
        <time>2015-02-01T13:22:22.1Z</time>
      </trkpt>
      <trkpt lat="45.72019" lon="6.03508">
        <ele>2923</ele>
        <time>2015-02-01T13:22:27.1Z</time>
      </trkpt>
      <trkpt lat="45.72018" lon="6.03507">
        <ele>2924</ele>
        <time>2015-02-01T13:22:32.1Z</time>
      </trkpt>
      <trkpt lat="45.72018" lon="6.03506">
        <ele>2924</ele>
        <time>2015-02-01T13:22:38.1Z</time>
      </trkpt>
      <trkpt lat="45.72018" lon="6.03506">
        <ele>2925</ele>
        <time>2015-02-01T13:22:44.1Z</time>
      </trkpt>
      <trkpt lat="45.72017" lon="6.03507">
        <ele>2924</ele>
        <time>2015-02-01T13:22:49.1Z</time>
      </trkpt>
      <trkpt lat="45.72016" lon="6.03507">
        <ele>2924</ele>
        <time>2015-02-01T13:22:54.1Z</time>
      </trkpt>
      <trkpt lat="45.72015" lon="6.03504">
        <ele>2924</ele>
        <time>2015-02-01T13:22:59.1Z</time>
      </trkpt>
      <trkpt lat="45.72015" lon="6.03503">
        <ele>2925</ele>
        <time>2015-02-01T13:23:05.1Z</time>
      </trkpt>
      <trkpt lat="45.72014" lon="6.03502">
        <ele>2925</ele>
        <time>2015-02-01T13:23:10.1Z</time>
      </trkpt>
      <trkpt lat="45.72013" lon="6.03498">
        <ele>2926</ele>
        <time>2015-02-01T13:23:15.1Z</time>
      </trkpt>
      <trkpt lat="45.72014" lon="6.03494">
        <ele>2926</ele>
        <time>2015-02-01T13:23:20.1Z</time>
      </trkpt>
      <trkpt lat="45.72014" lon="6.03491">
        <ele>2927</ele>
        <time>2015-02-01T13:23:25.1Z</time>
      </trkpt>
      <trkpt lat="45.72016" lon="6.03486">
        <ele>2929</ele>
        <time>2015-02-01T13:23:31.1Z</time>
      </trkpt>
      <trkpt lat="45.72017" lon="6.03482">
        <ele>2929</ele>
        <time>2015-02-01T13:23:36.1Z</time>
      </trkpt>
      <trkpt lat="45.72018" lon="6.03477">
        <ele>2930</ele>
        <time>2015-02-01T13:23:42.1Z</time>
      </trkpt>
      <trkpt lat="45.72019" lon="6.03472">
        <ele>2932</ele>
        <time>2015-02-01T13:23:47.1Z</time>
      </trkpt>
      <trkpt lat="45.72019" lon="6.03469">
        <ele>2934</ele>
        <time>2015-02-01T13:23:52.1Z</time>
      </trkpt>
      <trkpt lat="45.72019" lon="6.03468">
        <ele>2934</ele>
        <time>2015-02-01T13:23:59.1Z</time>
      </trkpt>
      <trkpt lat="45.72018" lon="6.03468">
        <ele>2935</ele>
        <time>2015-02-01T13:24:04.1Z</time>
      </trkpt>
      <trkpt lat="45.72018" lon="6.03467">
        <ele>2935</ele>
        <time>2015-02-01T13:24:09.1Z</time>
      </trkpt>
      <trkpt lat="45.72018" lon="6.03467">
        <ele>2935</ele>
        <time>2015-02-01T13:24:14.1Z</time>
      </trkpt>
      <trkpt lat="45.72018" lon="6.03468">
        <ele>2935</ele>
        <time>2015-02-01T13:24:20.1Z</time>
      </trkpt>
      <trkpt lat="45.72018" lon="6.03467">
        <ele>2934</ele>
        <time>2015-02-01T13:24:25.1Z</time>
      </trkpt>
      <trkpt lat="45.72017" lon="6.03468">
        <ele>2933</ele>
        <time>2015-02-01T13:24:31.1Z</time>
      </trkpt>
      <trkpt lat="45.72017" lon="6.03467">
        <ele>2933</ele>
        <time>2015-02-01T13:24:36.1Z</time>
      </trkpt>
      <trkpt lat="45.72017" lon="6.03465">
        <ele>2933</ele>
        <time>2015-02-01T13:24:42.1Z</time>
      </trkpt>
      <trkpt lat="45.72019" lon="6.0346">
        <ele>2934</ele>
        <time>2015-02-01T13:24:48.1Z</time>
      </trkpt>
      <trkpt lat="45.7202" lon="6.03454">
        <ele>2935</ele>
        <time>2015-02-01T13:24:54.1Z</time>
      </trkpt>
      <trkpt lat="45.72021" lon="6.03451">
        <ele>2936</ele>
        <time>2015-02-01T13:24:59.1Z</time>
      </trkpt>
      <trkpt lat="45.72023" lon="6.03447">
        <ele>2936</ele>
        <time>2015-02-01T13:25:04.1Z</time>
      </trkpt>
      <trkpt lat="45.72024" lon="6.03441">
        <ele>2937</ele>
        <time>2015-02-01T13:25:10.1Z</time>
      </trkpt>
      <trkpt lat="45.72025" lon="6.03438">
        <ele>2938</ele>
        <time>2015-02-01T13:25:15.1Z</time>
      </trkpt>
      <trkpt lat="45.72025" lon="6.03434">
        <ele>2939</ele>
        <time>2015-02-01T13:25:21.1Z</time>
      </trkpt>
      <trkpt lat="45.72026" lon="6.03428">
        <ele>2943</ele>
        <time>2015-02-01T13:25:27.1Z</time>
      </trkpt>
      <trkpt lat="45.72027" lon="6.03423">
        <ele>2945</ele>
        <time>2015-02-01T13:25:33.1Z</time>
      </trkpt>
      <trkpt lat="45.72029" lon="6.03416">
        <ele>2946</ele>
        <time>2015-02-01T13:25:39.1Z</time>
      </trkpt>
      <trkpt lat="45.7203" lon="6.0341">
        <ele>2947</ele>
        <time>2015-02-01T13:25:45.1Z</time>
      </trkpt>
      <trkpt lat="45.72031" lon="6.03406">
        <ele>2948</ele>
        <time>2015-02-01T13:25:50.1Z</time>
      </trkpt>
      <trkpt lat="45.72033" lon="6.03402">
        <ele>2948</ele>
        <time>2015-02-01T13:25:55.1Z</time>
      </trkpt>
      <trkpt lat="45.72035" lon="6.03397">
        <ele>2948</ele>
        <time>2015-02-01T13:26:01.1Z</time>
      </trkpt>
      <trkpt lat="45.72037" lon="6.03392">
        <ele>2947</ele>
        <time>2015-02-01T13:26:07.1Z</time>
      </trkpt>
      <trkpt lat="45.72038" lon="6.03388">
        <ele>2948</ele>
        <time>2015-02-01T13:26:12.1Z</time>
      </trkpt>
      <trkpt lat="45.72039" lon="6.03383">
        <ele>2949</ele>
        <time>2015-02-01T13:26:18.1Z</time>
      </trkpt>
      <trkpt lat="45.72041" lon="6.03377">
        <ele>2950</ele>
        <time>2015-02-01T13:26:24.1Z</time>
      </trkpt>
      <trkpt lat="45.72042" lon="6.03372">
        <ele>2950</ele>
        <time>2015-02-01T13:26:29.1Z</time>
      </trkpt>
      <trkpt lat="45.72042" lon="6.03367">
        <ele>2950</ele>
        <time>2015-02-01T13:26:35.1Z</time>
      </trkpt>
      <trkpt lat="45.72042" lon="6.03363">
        <ele>2951</ele>
        <time>2015-02-01T13:26:40.1Z</time>
      </trkpt>
      <trkpt lat="45.72041" lon="6.03358">
        <ele>2952</ele>
        <time>2015-02-01T13:26:46.1Z</time>
      </trkpt>
      <trkpt lat="45.72041" lon="6.03354">
        <ele>2954</ele>
        <time>2015-02-01T13:26:51.1Z</time>
      </trkpt>
      <trkpt lat="45.72042" lon="6.0335">
        <ele>2955</ele>
        <time>2015-02-01T13:26:56.1Z</time>
      </trkpt>
      <trkpt lat="45.72042" lon="6.03345">
        <ele>2956</ele>
        <time>2015-02-01T13:27:01.1Z</time>
      </trkpt>
      <trkpt lat="45.72043" lon="6.03339">
        <ele>2956</ele>
        <time>2015-02-01T13:27:07.1Z</time>
      </trkpt>
      <trkpt lat="45.72045" lon="6.03333">
        <ele>2956</ele>
        <time>2015-02-01T13:27:13.1Z</time>
      </trkpt>
      <trkpt lat="45.72045" lon="6.0333">
        <ele>2957</ele>
        <time>2015-02-01T13:27:18.1Z</time>
      </trkpt>
      <trkpt lat="45.72046" lon="6.03326">
        <ele>2958</ele>
        <time>2015-02-01T13:27:23.1Z</time>
      </trkpt>
      <trkpt lat="45.72045" lon="6.03327">
        <ele>2959</ele>
        <time>2015-02-01T13:27:29.1Z</time>
      </trkpt>
      <trkpt lat="45.72045" lon="6.03327">
        <ele>2959</ele>
        <time>2015-02-01T13:27:38.1Z</time>
      </trkpt>
      <trkpt lat="45.72045" lon="6.03327">
        <ele>2959</ele>
        <time>2015-02-01T13:27:43.1Z</time>
      </trkpt>
      <trkpt lat="45.72046" lon="6.03327">
        <ele>2958</ele>
        <time>2015-02-01T13:27:49.1Z</time>
      </trkpt>
      <trkpt lat="45.72045" lon="6.03327">
        <ele>2959</ele>
        <time>2015-02-01T13:27:54.1Z</time>
      </trkpt>
      <trkpt lat="45.72045" lon="6.03323">
        <ele>2960</ele>
        <time>2015-02-01T13:28:00.1Z</time>
      </trkpt>
      <trkpt lat="45.72044" lon="6.03314">
        <ele>2961</ele>
        <time>2015-02-01T13:28:06.1Z</time>
      </trkpt>
      <trkpt lat="45.72045" lon="6.03309">
        <ele>2961</ele>
        <time>2015-02-01T13:28:11.1Z</time>
      </trkpt>
      <trkpt lat="45.72045" lon="6.03302">
        <ele>2962</ele>
        <time>2015-02-01T13:28:17.1Z</time>
      </trkpt>
      <trkpt lat="45.72045" lon="6.03295">
        <ele>2962</ele>
        <time>2015-02-01T13:28:23.1Z</time>
      </trkpt>
      <trkpt lat="45.72045" lon="6.0329">
        <ele>2964</ele>
        <time>2015-02-01T13:28:29.1Z</time>
      </trkpt>
      <trkpt lat="45.72044" lon="6.03286">
        <ele>2964</ele>
        <time>2015-02-01T13:28:34.1Z</time>
      </trkpt>
      <trkpt lat="45.72044" lon="6.03286">
        <ele>2965</ele>
        <time>2015-02-01T13:28:40.1Z</time>
      </trkpt>
      <trkpt lat="45.72044" lon="6.03287">
        <ele>2965</ele>
        <time>2015-02-01T13:28:45.1Z</time>
      </trkpt>
      <trkpt lat="45.72044" lon="6.03287">
        <ele>2966</ele>
        <time>2015-02-01T13:28:50.1Z</time>
      </trkpt>
      <trkpt lat="45.72043" lon="6.03288">
        <ele>2965</ele>
        <time>2015-02-01T13:28:55.1Z</time>
      </trkpt>
      <trkpt lat="45.72044" lon="6.03289">
        <ele>2965</ele>
        <time>2015-02-01T13:29:00.1Z</time>
      </trkpt>
      <trkpt lat="45.72044" lon="6.03289">
        <ele>2965</ele>
        <time>2015-02-01T13:29:06.1Z</time>
      </trkpt>
      <trkpt lat="45.72044" lon="6.03289">
        <ele>2966</ele>
        <time>2015-02-01T13:29:12.1Z</time>
      </trkpt>
      <trkpt lat="45.72045" lon="6.03289">
        <ele>2966</ele>
        <time>2015-02-01T13:29:18.1Z</time>
      </trkpt>
      <trkpt lat="45.72045" lon="6.03289">
        <ele>2966</ele>
        <time>2015-02-01T13:29:23.1Z</time>
      </trkpt>
      <trkpt lat="45.72045" lon="6.03289">
        <ele>2965</ele>
        <time>2015-02-01T13:29:28.1Z</time>
      </trkpt>
      <trkpt lat="45.72046" lon="6.03289">
        <ele>2965</ele>
        <time>2015-02-01T13:29:34.1Z</time>
      </trkpt>
      <trkpt lat="45.72047" lon="6.03289">
        <ele>2965</ele>
        <time>2015-02-01T13:29:41.1Z</time>
      </trkpt>
      <trkpt lat="45.72046" lon="6.0329">
        <ele>2965</ele>
        <time>2015-02-01T13:29:46.1Z</time>
      </trkpt>
      <trkpt lat="45.72047" lon="6.03289">
        <ele>2965</ele>
        <time>2015-02-01T13:29:52.1Z</time>
      </trkpt>
      <trkpt lat="45.72047" lon="6.03289">
        <ele>2965</ele>
        <time>2015-02-01T13:30:00.1Z</time>
      </trkpt>
      <trkpt lat="45.72047" lon="6.03289">
        <ele>2965</ele>
        <time>2015-02-01T13:30:05.1Z</time>
      </trkpt>
      <trkpt lat="45.72047" lon="6.03289">
        <ele>2965</ele>
        <time>2015-02-01T13:30:12.1Z</time>
      </trkpt>
      <trkpt lat="45.72047" lon="6.03289">
        <ele>2965</ele>
        <time>2015-02-01T13:30:17.1Z</time>
      </trkpt>
      <trkpt lat="45.72045" lon="6.03288">
        <ele>2965</ele>
        <time>2015-02-01T13:30:23.1Z</time>
      </trkpt>
      <trkpt lat="45.72043" lon="6.03283">
        <ele>2966</ele>
        <time>2015-02-01T13:30:29.1Z</time>
      </trkpt>
      <trkpt lat="45.72039" lon="6.03278">
        <ele>2967</ele>
        <time>2015-02-01T13:30:35.1Z</time>
      </trkpt>
      <trkpt lat="45.72036" lon="6.03274">
        <ele>2968</ele>
        <time>2015-02-01T13:30:40.1Z</time>
      </trkpt>
      <trkpt lat="45.72033" lon="6.03269">
        <ele>2969</ele>
        <time>2015-02-01T13:30:46.1Z</time>
      </trkpt>
      <trkpt lat="45.72029" lon="6.03265">
        <ele>2969</ele>
        <time>2015-02-01T13:30:51.1Z</time>
      </trkpt>
      <trkpt lat="45.72025" lon="6.03262">
        <ele>2971</ele>
        <time>2015-02-01T13:30:57.1Z</time>
      </trkpt>
      <trkpt lat="45.72021" lon="6.0326">
        <ele>2971</ele>
        <time>2015-02-01T13:31:03.1Z</time>
      </trkpt>
      <trkpt lat="45.72018" lon="6.03259">
        <ele>2972</ele>
        <time>2015-02-01T13:31:10.1Z</time>
      </trkpt>
      <trkpt lat="45.72015" lon="6.03258">
        <ele>2972</ele>
        <time>2015-02-01T13:31:15.1Z</time>
      </trkpt>
      <trkpt lat="45.72013" lon="6.03257">
        <ele>2972</ele>
        <time>2015-02-01T13:31:21.1Z</time>
      </trkpt>
      <trkpt lat="45.72008" lon="6.03255">
        <ele>2972</ele>
        <time>2015-02-01T13:31:26.1Z</time>
      </trkpt>
      <trkpt lat="45.72006" lon="6.03253">
        <ele>2972</ele>
        <time>2015-02-01T13:31:32.1Z</time>
      </trkpt>
      <trkpt lat="45.72006" lon="6.03251">
        <ele>2972</ele>
        <time>2015-02-01T13:31:37.1Z</time>
      </trkpt>
      <trkpt lat="45.72004" lon="6.03249">
        <ele>2973</ele>
        <time>2015-02-01T13:31:43.1Z</time>
      </trkpt>
      <trkpt lat="45.72002" lon="6.03243">
        <ele>2973</ele>
        <time>2015-02-01T13:31:49.1Z</time>
      </trkpt>
      <trkpt lat="45.72" lon="6.03237">
        <ele>2973</ele>
        <time>2015-02-01T13:31:54.1Z</time>
      </trkpt>
      <trkpt lat="45.71999" lon="6.03233">
        <ele>2973</ele>
        <time>2015-02-01T13:32:00.1Z</time>
      </trkpt>
      <trkpt lat="45.71997" lon="6.03231">
        <ele>2974</ele>
        <time>2015-02-01T13:32:05.1Z</time>
      </trkpt>
      <trkpt lat="45.71995" lon="6.03227">
        <ele>2974</ele>
        <time>2015-02-01T13:32:11.1Z</time>
      </trkpt>
      <trkpt lat="45.71994" lon="6.03224">
        <ele>2975</ele>
        <time>2015-02-01T13:32:17.1Z</time>
      </trkpt>
      <trkpt lat="45.71994" lon="6.03223">
        <ele>2976</ele>
        <time>2015-02-01T13:32:23.1Z</time>
      </trkpt>
      <trkpt lat="45.71994" lon="6.03223">
        <ele>2976</ele>
        <time>2015-02-01T13:32:28.1Z</time>
      </trkpt>
      <trkpt lat="45.71994" lon="6.03223">
        <ele>2976</ele>
        <time>2015-02-01T13:32:33.1Z</time>
      </trkpt>
      <trkpt lat="45.71994" lon="6.03223">
        <ele>2976</ele>
        <time>2015-02-01T13:32:40.1Z</time>
      </trkpt>
      <trkpt lat="45.71994" lon="6.03221">
        <ele>2976</ele>
        <time>2015-02-01T13:32:46.1Z</time>
      </trkpt>
      <trkpt lat="45.71994" lon="6.0322">
        <ele>2976</ele>
        <time>2015-02-01T13:32:51.1Z</time>
      </trkpt>
      <trkpt lat="45.71994" lon="6.0322">
        <ele>2976</ele>
        <time>2015-02-01T13:32:56.1Z</time>
      </trkpt>
      <trkpt lat="45.71994" lon="6.0322">
        <ele>2976</ele>
        <time>2015-02-01T13:33:02.1Z</time>
      </trkpt>
      <trkpt lat="45.71994" lon="6.0322">
        <ele>2976</ele>
        <time>2015-02-01T13:33:08.1Z</time>
      </trkpt>
      <trkpt lat="45.71994" lon="6.03219">
        <ele>2976</ele>
        <time>2015-02-01T13:33:14.1Z</time>
      </trkpt>
      <trkpt lat="45.71995" lon="6.03219">
        <ele>2976</ele>
        <time>2015-02-01T13:33:19.1Z</time>
      </trkpt>
      <trkpt lat="45.71995" lon="6.03219">
        <ele>2975</ele>
        <time>2015-02-01T13:33:24.1Z</time>
      </trkpt>
      <trkpt lat="45.71994" lon="6.0322">
        <ele>2976</ele>
        <time>2015-02-01T13:33:30.1Z</time>
      </trkpt>
      <trkpt lat="45.71993" lon="6.03221">
        <ele>2975</ele>
        <time>2015-02-01T13:33:37.1Z</time>
      </trkpt>
      <trkpt lat="45.71992" lon="6.03222">
        <ele>2975</ele>
        <time>2015-02-01T13:33:42.1Z</time>
      </trkpt>
      <trkpt lat="45.71993" lon="6.03222">
        <ele>2975</ele>
        <time>2015-02-01T13:33:48.1Z</time>
      </trkpt>
      <trkpt lat="45.71992" lon="6.03222">
        <ele>2975</ele>
        <time>2015-02-01T13:33:53.1Z</time>
      </trkpt>
      <trkpt lat="45.71991" lon="6.03223">
        <ele>2975</ele>
        <time>2015-02-01T13:34:00.1Z</time>
      </trkpt>
      <trkpt lat="45.71991" lon="6.03223">
        <ele>2975</ele>
        <time>2015-02-01T13:34:07.1Z</time>
      </trkpt>
      <trkpt lat="45.71991" lon="6.03223">
        <ele>2975</ele>
        <time>2015-02-01T13:34:14.1Z</time>
      </trkpt>
      <trkpt lat="45.71991" lon="6.03224">
        <ele>2975</ele>
        <time>2015-02-01T13:34:19.1Z</time>
      </trkpt>
      <trkpt lat="45.7199" lon="6.03225">
        <ele>2976</ele>
        <time>2015-02-01T13:34:24.1Z</time>
      </trkpt>
      <trkpt lat="45.7199" lon="6.03225">
        <ele>2977</ele>
        <time>2015-02-01T13:34:30.1Z</time>
      </trkpt>
      <trkpt lat="45.71991" lon="6.03226">
        <ele>2976</ele>
        <time>2015-02-01T13:34:35.1Z</time>
      </trkpt>
      <trkpt lat="45.71991" lon="6.03225">
        <ele>2976</ele>
        <time>2015-02-01T13:34:40.1Z</time>
      </trkpt>
      <trkpt lat="45.71991" lon="6.03225">
        <ele>2976</ele>
        <time>2015-02-01T13:34:46.1Z</time>
      </trkpt>
      <trkpt lat="45.71991" lon="6.03225">
        <ele>2976</ele>
        <time>2015-02-01T13:34:52.1Z</time>
      </trkpt>
      <trkpt lat="45.71991" lon="6.03224">
        <ele>2976</ele>
        <time>2015-02-01T13:34:57.1Z</time>
      </trkpt>
      <trkpt lat="45.71991" lon="6.03224">
        <ele>2976</ele>
        <time>2015-02-01T13:35:02.1Z</time>
      </trkpt>
      <trkpt lat="45.71991" lon="6.03224">
        <ele>2976</ele>
        <time>2015-02-01T13:35:08.1Z</time>
      </trkpt>
      <trkpt lat="45.71991" lon="6.03224">
        <ele>2975</ele>
        <time>2015-02-01T13:35:14.1Z</time>
      </trkpt>
      <trkpt lat="45.71991" lon="6.03224">
        <ele>2975</ele>
        <time>2015-02-01T13:35:19.1Z</time>
      </trkpt>
      <trkpt lat="45.71991" lon="6.03224">
        <ele>2975</ele>
        <time>2015-02-01T13:35:24.1Z</time>
      </trkpt>
      <trkpt lat="45.71991" lon="6.03224">
        <ele>2975</ele>
        <time>2015-02-01T13:35:30.1Z</time>
      </trkpt>
      <trkpt lat="45.71991" lon="6.03224">
        <ele>2975</ele>
        <time>2015-02-01T13:35:40.1Z</time>
      </trkpt>
      <trkpt lat="45.7199" lon="6.03224">
        <ele>2975</ele>
        <time>2015-02-01T13:35:45.1Z</time>
      </trkpt>
      <trkpt lat="45.71989" lon="6.03225">
        <ele>2974</ele>
        <time>2015-02-01T13:35:51.1Z</time>
      </trkpt>
      <trkpt lat="45.71989" lon="6.03224">
        <ele>2974</ele>
        <time>2015-02-01T13:35:57.1Z</time>
      </trkpt>
      <trkpt lat="45.71989" lon="6.03223">
        <ele>2975</ele>
        <time>2015-02-01T13:36:04.1Z</time>
      </trkpt>
      <trkpt lat="45.71989" lon="6.03223">
        <ele>2974</ele>
        <time>2015-02-01T13:36:10.1Z</time>
      </trkpt>
      <trkpt lat="45.71989" lon="6.03223">
        <ele>2974</ele>
        <time>2015-02-01T13:36:15.1Z</time>
      </trkpt>
      <trkpt lat="45.71989" lon="6.03223">
        <ele>2974</ele>
        <time>2015-02-01T13:36:22.1Z</time>
      </trkpt>
      <trkpt lat="45.71989" lon="6.03223">
        <ele>2974</ele>
        <time>2015-02-01T13:36:27.1Z</time>
      </trkpt>
      <trkpt lat="45.71989" lon="6.03223">
        <ele>2974</ele>
        <time>2015-02-01T13:36:33.1Z</time>
      </trkpt>
      <trkpt lat="45.71989" lon="6.03223">
        <ele>2975</ele>
        <time>2015-02-01T13:36:44.1Z</time>
      </trkpt>
      <trkpt lat="45.71989" lon="6.03223">
        <ele>2974</ele>
        <time>2015-02-01T13:36:50.1Z</time>
      </trkpt>
      <trkpt lat="45.71989" lon="6.03223">
        <ele>2974</ele>
        <time>2015-02-01T13:36:56.1Z</time>
      </trkpt>
      <trkpt lat="45.7199" lon="6.03223">
        <ele>2974</ele>
        <time>2015-02-01T13:37:02.1Z</time>
      </trkpt>
      <trkpt lat="45.71991" lon="6.03223">
        <ele>2974</ele>
        <time>2015-02-01T13:37:08.1Z</time>
      </trkpt>
      <trkpt lat="45.71991" lon="6.03223">
        <ele>2974</ele>
        <time>2015-02-01T13:37:14.1Z</time>
      </trkpt>
      <trkpt lat="45.71991" lon="6.03223">
        <ele>2974</ele>
        <time>2015-02-01T13:37:19.1Z</time>
      </trkpt>
      <trkpt lat="45.71991" lon="6.03223">
        <ele>2974</ele>
        <time>2015-02-01T13:37:25.1Z</time>
      </trkpt>
      <trkpt lat="45.71991" lon="6.03223">
        <ele>2973</ele>
        <time>2015-02-01T13:37:32.1Z</time>
      </trkpt>
      <trkpt lat="45.71991" lon="6.03224">
        <ele>2973</ele>
        <time>2015-02-01T13:37:38.1Z</time>
      </trkpt>
      <trkpt lat="45.71991" lon="6.03224">
        <ele>2973</ele>
        <time>2015-02-01T13:37:44.1Z</time>
      </trkpt>
      <trkpt lat="45.71992" lon="6.03224">
        <ele>2974</ele>
        <time>2015-02-01T13:37:49.1Z</time>
      </trkpt>
      <trkpt lat="45.71992" lon="6.03224">
        <ele>2975</ele>
        <time>2015-02-01T13:37:55.1Z</time>
      </trkpt>
      <trkpt lat="45.71992" lon="6.03224">
        <ele>2975</ele>
        <time>2015-02-01T13:38:01.1Z</time>
      </trkpt>
      <trkpt lat="45.71992" lon="6.03224">
        <ele>2974</ele>
        <time>2015-02-01T13:38:08.1Z</time>
      </trkpt>
      <trkpt lat="45.71992" lon="6.03224">
        <ele>2975</ele>
        <time>2015-02-01T13:38:14.1Z</time>
      </trkpt>
      <trkpt lat="45.71991" lon="6.03224">
        <ele>2975</ele>
        <time>2015-02-01T13:38:22.1Z</time>
      </trkpt>
      <trkpt lat="45.71991" lon="6.03224">
        <ele>2975</ele>
        <time>2015-02-01T13:38:27.1Z</time>
      </trkpt>
      <trkpt lat="45.71991" lon="6.03224">
        <ele>2975</ele>
        <time>2015-02-01T13:38:32.1Z</time>
      </trkpt>
      <trkpt lat="45.71991" lon="6.03223">
        <ele>2975</ele>
        <time>2015-02-01T13:38:37.1Z</time>
      </trkpt>
      <trkpt lat="45.71992" lon="6.03223">
        <ele>2975</ele>
        <time>2015-02-01T13:38:43.1Z</time>
      </trkpt>
      <trkpt lat="45.71992" lon="6.03222">
        <ele>2975</ele>
        <time>2015-02-01T13:38:48.1Z</time>
      </trkpt>
      <trkpt lat="45.71992" lon="6.03222">
        <ele>2975</ele>
        <time>2015-02-01T13:38:55.1Z</time>
      </trkpt>
      <trkpt lat="45.71991" lon="6.03222">
        <ele>2976</ele>
        <time>2015-02-01T13:39:01.1Z</time>
      </trkpt>
      <trkpt lat="45.71992" lon="6.03222">
        <ele>2976</ele>
        <time>2015-02-01T13:39:06.1Z</time>
      </trkpt>
      <trkpt lat="45.71993" lon="6.03222">
        <ele>2976</ele>
        <time>2015-02-01T13:39:11.1Z</time>
      </trkpt>
      <trkpt lat="45.71993" lon="6.03223">
        <ele>2975</ele>
        <time>2015-02-01T13:39:16.1Z</time>
      </trkpt>
      <trkpt lat="45.71993" lon="6.03223">
        <ele>2975</ele>
        <time>2015-02-01T13:39:22.1Z</time>
      </trkpt>
      <trkpt lat="45.71993" lon="6.03223">
        <ele>2975</ele>
        <time>2015-02-01T13:39:28.1Z</time>
      </trkpt>
      <trkpt lat="45.71994" lon="6.03223">
        <ele>2975</ele>
        <time>2015-02-01T13:39:36.1Z</time>
      </trkpt>
      <trkpt lat="45.71994" lon="6.03223">
        <ele>2976</ele>
        <time>2015-02-01T13:39:44.1Z</time>
      </trkpt>
      <trkpt lat="45.71993" lon="6.03224">
        <ele>2975</ele>
        <time>2015-02-01T13:39:50.1Z</time>
      </trkpt>
      <trkpt lat="45.71992" lon="6.03224">
        <ele>2975</ele>
        <time>2015-02-01T13:39:56.1Z</time>
      </trkpt>
      <trkpt lat="45.71992" lon="6.03224">
        <ele>2975</ele>
        <time>2015-02-01T13:40:01.1Z</time>
      </trkpt>
      <trkpt lat="45.71992" lon="6.03223">
        <ele>2975</ele>
        <time>2015-02-01T13:40:07.1Z</time>
      </trkpt>
      <trkpt lat="45.71991" lon="6.03223">
        <ele>2974</ele>
        <time>2015-02-01T13:40:13.1Z</time>
      </trkpt>
      <trkpt lat="45.71991" lon="6.03222">
        <ele>2974</ele>
        <time>2015-02-01T13:40:19.1Z</time>
      </trkpt>
      <trkpt lat="45.7199" lon="6.03222">
        <ele>2975</ele>
        <time>2015-02-01T13:40:26.1Z</time>
      </trkpt>
      <trkpt lat="45.7199" lon="6.03222">
        <ele>2975</ele>
        <time>2015-02-01T13:40:32.1Z</time>
      </trkpt>
      <trkpt lat="45.71989" lon="6.03222">
        <ele>2975</ele>
        <time>2015-02-01T13:40:38.1Z</time>
      </trkpt>
      <trkpt lat="45.71989" lon="6.03222">
        <ele>2975</ele>
        <time>2015-02-01T13:40:43.1Z</time>
      </trkpt>
      <trkpt lat="45.71989" lon="6.03222">
        <ele>2975</ele>
        <time>2015-02-01T13:40:50.1Z</time>
      </trkpt>
      <trkpt lat="45.71989" lon="6.03222">
        <ele>2975</ele>
        <time>2015-02-01T13:40:57.1Z</time>
      </trkpt>
      <trkpt lat="45.71989" lon="6.03222">
        <ele>2975</ele>
        <time>2015-02-01T13:41:04.1Z</time>
      </trkpt>
      <trkpt lat="45.71989" lon="6.03221">
        <ele>2975</ele>
        <time>2015-02-01T13:41:09.1Z</time>
      </trkpt>
      <trkpt lat="45.7199" lon="6.0322">
        <ele>2974</ele>
        <time>2015-02-01T13:41:15.1Z</time>
      </trkpt>
      <trkpt lat="45.71989" lon="6.0322">
        <ele>2974</ele>
        <time>2015-02-01T13:41:20.1Z</time>
      </trkpt>
      <trkpt lat="45.71989" lon="6.03219">
        <ele>2974</ele>
        <time>2015-02-01T13:41:26.1Z</time>
      </trkpt>
      <trkpt lat="45.71989" lon="6.03219">
        <ele>2974</ele>
        <time>2015-02-01T13:41:31.1Z</time>
      </trkpt>
      <trkpt lat="45.71989" lon="6.03219">
        <ele>2974</ele>
        <time>2015-02-01T13:41:38.1Z</time>
      </trkpt>
      <trkpt lat="45.71989" lon="6.03219">
        <ele>2973</ele>
        <time>2015-02-01T13:41:44.1Z</time>
      </trkpt>
      <trkpt lat="45.71989" lon="6.0322">
        <ele>2973</ele>
        <time>2015-02-01T13:41:49.1Z</time>
      </trkpt>
      <trkpt lat="45.71989" lon="6.0322">
        <ele>2973</ele>
        <time>2015-02-01T13:41:55.1Z</time>
      </trkpt>
      <trkpt lat="45.71989" lon="6.0322">
        <ele>2974</ele>
        <time>2015-02-01T13:42:00.1Z</time>
      </trkpt>
      <trkpt lat="45.71989" lon="6.0322">
        <ele>2974</ele>
        <time>2015-02-01T13:42:06.1Z</time>
      </trkpt>
      <trkpt lat="45.71989" lon="6.03221">
        <ele>2974</ele>
        <time>2015-02-01T13:42:12.1Z</time>
      </trkpt>
      <trkpt lat="45.71989" lon="6.0322">
        <ele>2973</ele>
        <time>2015-02-01T13:42:18.1Z</time>
      </trkpt>
      <trkpt lat="45.71989" lon="6.0322">
        <ele>2973</ele>
        <time>2015-02-01T13:42:23.1Z</time>
      </trkpt>
      <trkpt lat="45.71989" lon="6.0322">
        <ele>2974</ele>
        <time>2015-02-01T13:42:29.1Z</time>
      </trkpt>
      <trkpt lat="45.7199" lon="6.0322">
        <ele>2974</ele>
        <time>2015-02-01T13:42:36.1Z</time>
      </trkpt>
      <trkpt lat="45.7199" lon="6.0322">
        <ele>2973</ele>
        <time>2015-02-01T13:42:41.1Z</time>
      </trkpt>
      <trkpt lat="45.7199" lon="6.0322">
        <ele>2973</ele>
        <time>2015-02-01T13:42:47.1Z</time>
      </trkpt>
      <trkpt lat="45.7199" lon="6.0322">
        <ele>2974</ele>
        <time>2015-02-01T13:42:54.1Z</time>
      </trkpt>
      <trkpt lat="45.7199" lon="6.03219">
        <ele>2974</ele>
        <time>2015-02-01T13:42:59.1Z</time>
      </trkpt>
      <trkpt lat="45.7199" lon="6.03219">
        <ele>2975</ele>
        <time>2015-02-01T13:43:05.1Z</time>
      </trkpt>
      <trkpt lat="45.71989" lon="6.0322">
        <ele>2973</ele>
        <time>2015-02-01T13:43:11.1Z</time>
      </trkpt>
      <trkpt lat="45.71989" lon="6.0322">
        <ele>2973</ele>
        <time>2015-02-01T13:43:19.1Z</time>
      </trkpt>
      <trkpt lat="45.71988" lon="6.0322">
        <ele>2973</ele>
        <time>2015-02-01T13:43:24.1Z</time>
      </trkpt>
      <trkpt lat="45.71988" lon="6.0322">
        <ele>2975</ele>
        <time>2015-02-01T13:43:33.1Z</time>
      </trkpt>
      <trkpt lat="45.71988" lon="6.0322">
        <ele>2974</ele>
        <time>2015-02-01T13:43:40.1Z</time>
      </trkpt>
      <trkpt lat="45.71988" lon="6.03221">
        <ele>2973</ele>
        <time>2015-02-01T13:43:46.1Z</time>
      </trkpt>
      <trkpt lat="45.71988" lon="6.0322">
        <ele>2974</ele>
        <time>2015-02-01T13:43:52.1Z</time>
      </trkpt>
      <trkpt lat="45.71988" lon="6.0322">
        <ele>2974</ele>
        <time>2015-02-01T13:43:57.1Z</time>
      </trkpt>
      <trkpt lat="45.71988" lon="6.03221">
        <ele>2973</ele>
        <time>2015-02-01T13:44:07.1Z</time>
      </trkpt>
      <trkpt lat="45.71989" lon="6.03221">
        <ele>2973</ele>
        <time>2015-02-01T13:44:12.1Z</time>
      </trkpt>
      <trkpt lat="45.71989" lon="6.03222">
        <ele>2973</ele>
        <time>2015-02-01T13:44:17.1Z</time>
      </trkpt>
      <trkpt lat="45.7199" lon="6.03222">
        <ele>2973</ele>
        <time>2015-02-01T13:44:22.1Z</time>
      </trkpt>
      <trkpt lat="45.7199" lon="6.03222">
        <ele>2974</ele>
        <time>2015-02-01T13:44:28.1Z</time>
      </trkpt>
      <trkpt lat="45.71991" lon="6.03222">
        <ele>2974</ele>
        <time>2015-02-01T13:44:33.1Z</time>
      </trkpt>
      <trkpt lat="45.71991" lon="6.03222">
        <ele>2974</ele>
        <time>2015-02-01T13:44:39.1Z</time>
      </trkpt>
      <trkpt lat="45.71992" lon="6.03221">
        <ele>2974</ele>
        <time>2015-02-01T13:44:45.1Z</time>
      </trkpt>
      <trkpt lat="45.71991" lon="6.03222">
        <ele>2974</ele>
        <time>2015-02-01T13:44:51.1Z</time>
      </trkpt>
      <trkpt lat="45.7199" lon="6.03221">
        <ele>2974</ele>
        <time>2015-02-01T13:44:59.1Z</time>
      </trkpt>
      <trkpt lat="45.7199" lon="6.03219">
        <ele>2975</ele>
        <time>2015-02-01T13:45:05.1Z</time>
      </trkpt>
      <trkpt lat="45.7199" lon="6.0322">
        <ele>2975</ele>
        <time>2015-02-01T13:45:12.1Z</time>
      </trkpt>
      <trkpt lat="45.7199" lon="6.0322">
        <ele>2974</ele>
        <time>2015-02-01T13:45:18.1Z</time>
      </trkpt>
      <trkpt lat="45.7199" lon="6.03221">
        <ele>2974</ele>
        <time>2015-02-01T13:45:23.1Z</time>
      </trkpt>
      <trkpt lat="45.71989" lon="6.0322">
        <ele>2974</ele>
        <time>2015-02-01T13:45:31.1Z</time>
      </trkpt>
      <trkpt lat="45.71989" lon="6.03221">
        <ele>2973</ele>
        <time>2015-02-01T13:45:37.1Z</time>
      </trkpt>
      <trkpt lat="45.71989" lon="6.03221">
        <ele>2973</ele>
        <time>2015-02-01T13:45:42.1Z</time>
      </trkpt>
      <trkpt lat="45.71988" lon="6.03221">
        <ele>2973</ele>
        <time>2015-02-01T13:45:50.1Z</time>
      </trkpt>
      <trkpt lat="45.71987" lon="6.03221">
        <ele>2973</ele>
        <time>2015-02-01T13:45:55.1Z</time>
      </trkpt>
      <trkpt lat="45.71987" lon="6.03221">
        <ele>2973</ele>
        <time>2015-02-01T13:46:00.1Z</time>
      </trkpt>
      <trkpt lat="45.71988" lon="6.03221">
        <ele>2973</ele>
        <time>2015-02-01T13:46:05.1Z</time>
      </trkpt>
      <trkpt lat="45.71989" lon="6.03222">
        <ele>2972</ele>
        <time>2015-02-01T13:46:12.1Z</time>
      </trkpt>
      <trkpt lat="45.7199" lon="6.03222">
        <ele>2972</ele>
        <time>2015-02-01T13:46:17.1Z</time>
      </trkpt>
      <trkpt lat="45.71991" lon="6.03222">
        <ele>2972</ele>
        <time>2015-02-01T13:46:23.1Z</time>
      </trkpt>
      <trkpt lat="45.71991" lon="6.03221">
        <ele>2973</ele>
        <time>2015-02-01T13:46:29.1Z</time>
      </trkpt>
      <trkpt lat="45.71991" lon="6.03221">
        <ele>2973</ele>
        <time>2015-02-01T13:46:34.1Z</time>
      </trkpt>
      <trkpt lat="45.7199" lon="6.03221">
        <ele>2973</ele>
        <time>2015-02-01T13:46:41.1Z</time>
      </trkpt>
      <trkpt lat="45.7199" lon="6.03221">
        <ele>2973</ele>
        <time>2015-02-01T13:46:47.1Z</time>
      </trkpt>
      <trkpt lat="45.71989" lon="6.0322">
        <ele>2972</ele>
        <time>2015-02-01T13:46:53.1Z</time>
      </trkpt>
      <trkpt lat="45.7199" lon="6.0322">
        <ele>2973</ele>
        <time>2015-02-01T13:47:00.1Z</time>
      </trkpt>
      <trkpt lat="45.7199" lon="6.0322">
        <ele>2973</ele>
        <time>2015-02-01T13:47:05.1Z</time>
      </trkpt>
      <trkpt lat="45.71991" lon="6.0322">
        <ele>2973</ele>
        <time>2015-02-01T13:47:14.1Z</time>
      </trkpt>
      <trkpt lat="45.7199" lon="6.03221">
        <ele>2973</ele>
        <time>2015-02-01T13:47:19.1Z</time>
      </trkpt>
      <trkpt lat="45.7199" lon="6.03221">
        <ele>2973</ele>
        <time>2015-02-01T13:47:26.1Z</time>
      </trkpt>
      <trkpt lat="45.71991" lon="6.03221">
        <ele>2974</ele>
        <time>2015-02-01T13:47:31.1Z</time>
      </trkpt>
      <trkpt lat="45.71991" lon="6.03221">
        <ele>2973</ele>
        <time>2015-02-01T13:47:37.1Z</time>
      </trkpt>
      <trkpt lat="45.71992" lon="6.03222">
        <ele>2974</ele>
        <time>2015-02-01T13:47:42.1Z</time>
      </trkpt>
      <trkpt lat="45.71992" lon="6.03221">
        <ele>2974</ele>
        <time>2015-02-01T13:47:50.1Z</time>
      </trkpt>
      <trkpt lat="45.71992" lon="6.03221">
        <ele>2974</ele>
        <time>2015-02-01T13:47:57.1Z</time>
      </trkpt>
      <trkpt lat="45.71991" lon="6.03221">
        <ele>2974</ele>
        <time>2015-02-01T13:48:02.1Z</time>
      </trkpt>
      <trkpt lat="45.7199" lon="6.03221">
        <ele>2974</ele>
        <time>2015-02-01T13:48:07.1Z</time>
      </trkpt>
      <trkpt lat="45.7199" lon="6.03221">
        <ele>2974</ele>
        <time>2015-02-01T13:48:13.1Z</time>
      </trkpt>
      <trkpt lat="45.7199" lon="6.03222">
        <ele>2975</ele>
        <time>2015-02-01T13:48:18.1Z</time>
      </trkpt>
      <trkpt lat="45.7199" lon="6.03222">
        <ele>2974</ele>
        <time>2015-02-01T13:48:25.1Z</time>
      </trkpt>
      <trkpt lat="45.7199" lon="6.03222">
        <ele>2974</ele>
        <time>2015-02-01T13:48:31.1Z</time>
      </trkpt>
      <trkpt lat="45.71991" lon="6.03222">
        <ele>2973</ele>
        <time>2015-02-01T13:48:36.1Z</time>
      </trkpt>
      <trkpt lat="45.71991" lon="6.03222">
        <ele>2973</ele>
        <time>2015-02-01T13:48:41.1Z</time>
      </trkpt>
      <trkpt lat="45.71991" lon="6.03223">
        <ele>2974</ele>
        <time>2015-02-01T13:48:46.1Z</time>
      </trkpt>
      <trkpt lat="45.71992" lon="6.03223">
        <ele>2973</ele>
        <time>2015-02-01T13:48:52.1Z</time>
      </trkpt>
      <trkpt lat="45.71993" lon="6.03223">
        <ele>2973</ele>
        <time>2015-02-01T13:48:58.1Z</time>
      </trkpt>
      <trkpt lat="45.71993" lon="6.03223">
        <ele>2973</ele>
        <time>2015-02-01T13:49:04.1Z</time>
      </trkpt>
      <trkpt lat="45.71993" lon="6.03223">
        <ele>2973</ele>
        <time>2015-02-01T13:49:09.1Z</time>
      </trkpt>
      <trkpt lat="45.71994" lon="6.03224">
        <ele>2973</ele>
        <time>2015-02-01T13:49:17.1Z</time>
      </trkpt>
      <trkpt lat="45.71993" lon="6.03223">
        <ele>2973</ele>
        <time>2015-02-01T13:49:22.1Z</time>
      </trkpt>
      <trkpt lat="45.71993" lon="6.03223">
        <ele>2973</ele>
        <time>2015-02-01T13:49:27.1Z</time>
      </trkpt>
      <trkpt lat="45.71994" lon="6.03223">
        <ele>2973</ele>
        <time>2015-02-01T13:49:34.1Z</time>
      </trkpt>
      <trkpt lat="45.71994" lon="6.03223">
        <ele>2973</ele>
        <time>2015-02-01T13:49:40.1Z</time>
      </trkpt>
      <trkpt lat="45.71993" lon="6.03223">
        <ele>2974</ele>
        <time>2015-02-01T13:49:45.1Z</time>
      </trkpt>
      <trkpt lat="45.71993" lon="6.03222">
        <ele>2974</ele>
        <time>2015-02-01T13:49:51.1Z</time>
      </trkpt>
      <trkpt lat="45.71993" lon="6.03222">
        <ele>2973</ele>
        <time>2015-02-01T13:49:57.1Z</time>
      </trkpt>
      <trkpt lat="45.71993" lon="6.03222">
        <ele>2973</ele>
        <time>2015-02-01T13:50:04.1Z</time>
      </trkpt>
      <trkpt lat="45.71993" lon="6.03223">
        <ele>2973</ele>
        <time>2015-02-01T13:50:09.1Z</time>
      </trkpt>
      <trkpt lat="45.71993" lon="6.03223">
        <ele>2973</ele>
        <time>2015-02-01T13:50:14.1Z</time>
      </trkpt>
      <trkpt lat="45.71992" lon="6.03223">
        <ele>2973</ele>
        <time>2015-02-01T13:50:19.1Z</time>
      </trkpt>
      <trkpt lat="45.71992" lon="6.03222">
        <ele>2973</ele>
        <time>2015-02-01T13:50:27.1Z</time>
      </trkpt>
      <trkpt lat="45.71992" lon="6.03222">
        <ele>2973</ele>
        <time>2015-02-01T13:50:33.1Z</time>
      </trkpt>
      <trkpt lat="45.71992" lon="6.03221">
        <ele>2974</ele>
        <time>2015-02-01T13:50:39.1Z</time>
      </trkpt>
      <trkpt lat="45.71991" lon="6.03221">
        <ele>2973</ele>
        <time>2015-02-01T13:50:44.1Z</time>
      </trkpt>
      <trkpt lat="45.71991" lon="6.0322">
        <ele>2973</ele>
        <time>2015-02-01T13:50:51.1Z</time>
      </trkpt>
      <trkpt lat="45.71991" lon="6.0322">
        <ele>2973</ele>
        <time>2015-02-01T13:50:56.1Z</time>
      </trkpt>
      <trkpt lat="45.71991" lon="6.03219">
        <ele>2973</ele>
        <time>2015-02-01T13:51:02.1Z</time>
      </trkpt>
      <trkpt lat="45.71991" lon="6.03219">
        <ele>2973</ele>
        <time>2015-02-01T13:51:08.1Z</time>
      </trkpt>
      <trkpt lat="45.71991" lon="6.0322">
        <ele>2973</ele>
        <time>2015-02-01T13:51:13.1Z</time>
      </trkpt>
      <trkpt lat="45.7199" lon="6.0322">
        <ele>2973</ele>
        <time>2015-02-01T13:51:18.1Z</time>
      </trkpt>
      <trkpt lat="45.71989" lon="6.0322">
        <ele>2973</ele>
        <time>2015-02-01T13:51:25.1Z</time>
      </trkpt>
      <trkpt lat="45.7199" lon="6.03221">
        <ele>2973</ele>
        <time>2015-02-01T13:51:30.1Z</time>
      </trkpt>
      <trkpt lat="45.7199" lon="6.03221">
        <ele>2973</ele>
        <time>2015-02-01T13:51:36.1Z</time>
      </trkpt>
      <trkpt lat="45.71992" lon="6.03222">
        <ele>2972</ele>
        <time>2015-02-01T13:51:42.1Z</time>
      </trkpt>
      <trkpt lat="45.71992" lon="6.03222">
        <ele>2972</ele>
        <time>2015-02-01T13:51:48.1Z</time>
      </trkpt>
      <trkpt lat="45.71991" lon="6.03223">
        <ele>2972</ele>
        <time>2015-02-01T13:51:53.1Z</time>
      </trkpt>
      <trkpt lat="45.71992" lon="6.03223">
        <ele>2973</ele>
        <time>2015-02-01T13:52:02.1Z</time>
      </trkpt>
      <trkpt lat="45.71992" lon="6.03223">
        <ele>2970</ele>
        <time>2015-02-01T13:52:08.1Z</time>
      </trkpt>
      <trkpt lat="45.7199" lon="6.03223">
        <ele>2970</ele>
        <time>2015-02-01T13:52:14.1Z</time>
      </trkpt>
      <trkpt lat="45.71994" lon="6.03223">
        <ele>2972</ele>
        <time>2015-02-01T13:52:19.1Z</time>
      </trkpt>
      <trkpt lat="45.71995" lon="6.03221">
        <ele>2973</ele>
        <time>2015-02-01T13:52:25.1Z</time>
      </trkpt>
      <trkpt lat="45.71993" lon="6.0322">
        <ele>2973</ele>
        <time>2015-02-01T13:52:31.1Z</time>
      </trkpt>
      <trkpt lat="45.71992" lon="6.03219">
        <ele>2973</ele>
        <time>2015-02-01T13:52:37.1Z</time>
      </trkpt>
      <trkpt lat="45.71992" lon="6.0322">
        <ele>2973</ele>
        <time>2015-02-01T13:52:42.1Z</time>
      </trkpt>
      <trkpt lat="45.71992" lon="6.03219">
        <ele>2973</ele>
        <time>2015-02-01T13:52:47.1Z</time>
      </trkpt>
      <trkpt lat="45.71991" lon="6.0322">
        <ele>2973</ele>
        <time>2015-02-01T13:52:53.1Z</time>
      </trkpt>
      <trkpt lat="45.71991" lon="6.03219">
        <ele>2973</ele>
        <time>2015-02-01T13:52:58.1Z</time>
      </trkpt>
      <trkpt lat="45.71991" lon="6.0322">
        <ele>2973</ele>
        <time>2015-02-01T13:53:03.1Z</time>
      </trkpt>
      <trkpt lat="45.71991" lon="6.03221">
        <ele>2972</ele>
        <time>2015-02-01T13:53:09.1Z</time>
      </trkpt>
      <trkpt lat="45.7199" lon="6.03221">
        <ele>2972</ele>
        <time>2015-02-01T13:53:14.1Z</time>
      </trkpt>
      <trkpt lat="45.71991" lon="6.03221">
        <ele>2973</ele>
        <time>2015-02-01T13:53:19.1Z</time>
      </trkpt>
      <trkpt lat="45.71991" lon="6.03221">
        <ele>2973</ele>
        <time>2015-02-01T13:53:24.1Z</time>
      </trkpt>
      <trkpt lat="45.71992" lon="6.03222">
        <ele>2972</ele>
        <time>2015-02-01T13:53:30.1Z</time>
      </trkpt>
      <trkpt lat="45.71992" lon="6.03222">
        <ele>2972</ele>
        <time>2015-02-01T13:53:35.1Z</time>
      </trkpt>
      <trkpt lat="45.71993" lon="6.03223">
        <ele>2972</ele>
        <time>2015-02-01T13:53:40.1Z</time>
      </trkpt>
      <trkpt lat="45.71992" lon="6.03223">
        <ele>2972</ele>
        <time>2015-02-01T13:53:45.1Z</time>
      </trkpt>
      <trkpt lat="45.71992" lon="6.03223">
        <ele>2972</ele>
        <time>2015-02-01T13:53:50.1Z</time>
      </trkpt>
      <trkpt lat="45.71993" lon="6.03224">
        <ele>2972</ele>
        <time>2015-02-01T13:53:57.1Z</time>
      </trkpt>
      <trkpt lat="45.71992" lon="6.03224">
        <ele>2972</ele>
        <time>2015-02-01T13:54:02.1Z</time>
      </trkpt>
      <trkpt lat="45.71992" lon="6.03224">
        <ele>2972</ele>
        <time>2015-02-01T13:54:08.1Z</time>
      </trkpt>
      <trkpt lat="45.71992" lon="6.03224">
        <ele>2971</ele>
        <time>2015-02-01T13:54:13.1Z</time>
      </trkpt>
      <trkpt lat="45.71992" lon="6.03224">
        <ele>2971</ele>
        <time>2015-02-01T13:54:20.1Z</time>
      </trkpt>
      <trkpt lat="45.71993" lon="6.03223">
        <ele>2971</ele>
        <time>2015-02-01T13:54:27.1Z</time>
      </trkpt>
      <trkpt lat="45.71993" lon="6.03223">
        <ele>2971</ele>
        <time>2015-02-01T13:54:32.1Z</time>
      </trkpt>
      <trkpt lat="45.71992" lon="6.03224">
        <ele>2971</ele>
        <time>2015-02-01T13:54:39.1Z</time>
      </trkpt>
      <trkpt lat="45.71992" lon="6.03224">
        <ele>2971</ele>
        <time>2015-02-01T13:54:46.1Z</time>
      </trkpt>
      <trkpt lat="45.71991" lon="6.03223">
        <ele>2971</ele>
        <time>2015-02-01T13:54:51.1Z</time>
      </trkpt>
      <trkpt lat="45.71991" lon="6.03221">
        <ele>2971</ele>
        <time>2015-02-01T13:54:57.1Z</time>
      </trkpt>
      <trkpt lat="45.71991" lon="6.0322">
        <ele>2971</ele>
        <time>2015-02-01T13:55:02.1Z</time>
      </trkpt>
      <trkpt lat="45.71992" lon="6.03219">
        <ele>2971</ele>
        <time>2015-02-01T13:55:07.1Z</time>
      </trkpt>
      <trkpt lat="45.71991" lon="6.03219">
        <ele>2971</ele>
        <time>2015-02-01T13:55:13.1Z</time>
      </trkpt>
      <trkpt lat="45.71992" lon="6.03219">
        <ele>2971</ele>
        <time>2015-02-01T13:55:19.1Z</time>
      </trkpt>
      <trkpt lat="45.71993" lon="6.0322">
        <ele>2971</ele>
        <time>2015-02-01T13:55:24.1Z</time>
      </trkpt>
      <trkpt lat="45.71993" lon="6.03227">
        <ele>2971</ele>
        <time>2015-02-01T13:55:29.1Z</time>
      </trkpt>
      <trkpt lat="45.71992" lon="6.03264">
        <ele>2968</ele>
        <time>2015-02-01T13:55:35.1Z</time>
      </trkpt>
      <trkpt lat="45.71985" lon="6.03291">
        <ele>2962</ele>
        <time>2015-02-01T13:55:41.1Z</time>
      </trkpt>
      <trkpt lat="45.71979" lon="6.03333">
        <ele>2951</ele>
        <time>2015-02-01T13:55:46.1Z</time>
      </trkpt>
      <trkpt lat="45.71963" lon="6.03363">
        <ele>2940</ele>
        <time>2015-02-01T13:55:52.1Z</time>
      </trkpt>
      <trkpt lat="45.71947" lon="6.03403">
        <ele>2927</ele>
        <time>2015-02-01T13:55:57.1Z</time>
      </trkpt>
      <trkpt lat="45.71939" lon="6.03453">
        <ele>2912</ele>
        <time>2015-02-01T13:56:03.1Z</time>
      </trkpt>
      <trkpt lat="45.71938" lon="6.03455">
        <ele>2908</ele>
        <time>2015-02-01T13:56:08.1Z</time>
      </trkpt>
      <trkpt lat="45.71937" lon="6.03457">
        <ele>2908</ele>
        <time>2015-02-01T13:56:13.1Z</time>
      </trkpt>
      <trkpt lat="45.71936" lon="6.03459">
        <ele>2908</ele>
        <time>2015-02-01T13:56:19.1Z</time>
      </trkpt>
      <trkpt lat="45.71936" lon="6.03461">
        <ele>2909</ele>
        <time>2015-02-01T13:56:24.1Z</time>
      </trkpt>
      <trkpt lat="45.71923" lon="6.03467">
        <ele>2907</ele>
        <time>2015-02-01T13:56:29.1Z</time>
      </trkpt>
      <trkpt lat="45.71896" lon="6.03484">
        <ele>2901</ele>
        <time>2015-02-01T13:56:35.1Z</time>
      </trkpt>
      <trkpt lat="45.71867" lon="6.035">
        <ele>2888</ele>
        <time>2015-02-01T13:56:41.1Z</time>
      </trkpt>
      <trkpt lat="45.71843" lon="6.03528">
        <ele>2877</ele>
        <time>2015-02-01T13:56:47.1Z</time>
      </trkpt>
      <trkpt lat="45.71826" lon="6.03559">
        <ele>2870</ele>
        <time>2015-02-01T13:56:52.1Z</time>
      </trkpt>
      <trkpt lat="45.71813" lon="6.03585">
        <ele>2861</ele>
        <time>2015-02-01T13:56:59.1Z</time>
      </trkpt>
      <trkpt lat="45.71812" lon="6.03585">
        <ele>2859</ele>
        <time>2015-02-01T13:57:04.1Z</time>
      </trkpt>
      <trkpt lat="45.71812" lon="6.03586">
        <ele>2859</ele>
        <time>2015-02-01T13:57:09.1Z</time>
      </trkpt>
      <trkpt lat="45.71812" lon="6.03585">
        <ele>2859</ele>
        <time>2015-02-01T13:57:14.1Z</time>
      </trkpt>
      <trkpt lat="45.71811" lon="6.03585">
        <ele>2859</ele>
        <time>2015-02-01T13:57:21.1Z</time>
      </trkpt>
      <trkpt lat="45.71811" lon="6.03587">
        <ele>2859</ele>
        <time>2015-02-01T13:57:27.1Z</time>
      </trkpt>
      <trkpt lat="45.71805" lon="6.03593">
        <ele>2860</ele>
        <time>2015-02-01T13:57:32.1Z</time>
      </trkpt>
      <trkpt lat="45.71803" lon="6.03596">
        <ele>2858</ele>
        <time>2015-02-01T13:57:37.1Z</time>
      </trkpt>
      <trkpt lat="45.71801" lon="6.036">
        <ele>2858</ele>
        <time>2015-02-01T13:57:43.1Z</time>
      </trkpt>
      <trkpt lat="45.71792" lon="6.03612">
        <ele>2856</ele>
        <time>2015-02-01T13:57:48.1Z</time>
      </trkpt>
      <trkpt lat="45.71774" lon="6.03635">
        <ele>2849</ele>
        <time>2015-02-01T13:57:53.1Z</time>
      </trkpt>
      <trkpt lat="45.71768" lon="6.03639">
        <ele>2842</ele>
        <time>2015-02-01T13:58:00.1Z</time>
      </trkpt>
      <trkpt lat="45.71767" lon="6.0364">
        <ele>2841</ele>
        <time>2015-02-01T13:58:06.1Z</time>
      </trkpt>
      <trkpt lat="45.71767" lon="6.0364">
        <ele>2842</ele>
        <time>2015-02-01T13:58:11.1Z</time>
      </trkpt>
      <trkpt lat="45.71767" lon="6.0364">
        <ele>2841</ele>
        <time>2015-02-01T13:58:17.1Z</time>
      </trkpt>
      <trkpt lat="45.71767" lon="6.0364">
        <ele>2841</ele>
        <time>2015-02-01T13:58:23.1Z</time>
      </trkpt>
      <trkpt lat="45.71767" lon="6.03641">
        <ele>2841</ele>
        <time>2015-02-01T13:58:29.1Z</time>
      </trkpt>
      <trkpt lat="45.71769" lon="6.03642">
        <ele>2841</ele>
        <time>2015-02-01T13:58:35.1Z</time>
      </trkpt>
      <trkpt lat="45.71769" lon="6.03641">
        <ele>2842</ele>
        <time>2015-02-01T13:58:40.1Z</time>
      </trkpt>
      <trkpt lat="45.71769" lon="6.0364">
        <ele>2842</ele>
        <time>2015-02-01T13:58:48.1Z</time>
      </trkpt>
      <trkpt lat="45.71769" lon="6.03641">
        <ele>2841</ele>
        <time>2015-02-01T13:58:54.1Z</time>
      </trkpt>
      <trkpt lat="45.71771" lon="6.03641">
        <ele>2842</ele>
        <time>2015-02-01T13:58:59.1Z</time>
      </trkpt>
      <trkpt lat="45.71772" lon="6.03641">
        <ele>2842</ele>
        <time>2015-02-01T13:59:04.1Z</time>
      </trkpt>
      <trkpt lat="45.71772" lon="6.03641">
        <ele>2842</ele>
        <time>2015-02-01T13:59:10.1Z</time>
      </trkpt>
      <trkpt lat="45.71772" lon="6.03641">
        <ele>2842</ele>
        <time>2015-02-01T13:59:16.1Z</time>
      </trkpt>
      <trkpt lat="45.71772" lon="6.03642">
        <ele>2842</ele>
        <time>2015-02-01T13:59:21.1Z</time>
      </trkpt>
      <trkpt lat="45.71772" lon="6.03642">
        <ele>2842</ele>
        <time>2015-02-01T13:59:26.1Z</time>
      </trkpt>
      <trkpt lat="45.71772" lon="6.0364">
        <ele>2841</ele>
        <time>2015-02-01T13:59:32.1Z</time>
      </trkpt>
      <trkpt lat="45.71772" lon="6.0364">
        <ele>2841</ele>
        <time>2015-02-01T13:59:37.1Z</time>
      </trkpt>
      <trkpt lat="45.71772" lon="6.03641">
        <ele>2842</ele>
        <time>2015-02-01T13:59:46.1Z</time>
      </trkpt>
      <trkpt lat="45.7177" lon="6.03642">
        <ele>2842</ele>
        <time>2015-02-01T13:59:52.1Z</time>
      </trkpt>
      <trkpt lat="45.71746" lon="6.03659">
        <ele>2839</ele>
        <time>2015-02-01T13:59:57.1Z</time>
      </trkpt>
      <trkpt lat="45.71724" lon="6.03663">
        <ele>2833</ele>
        <time>2015-02-01T14:00:02.1Z</time>
      </trkpt>
      <trkpt lat="45.71702" lon="6.03664">
        <ele>2828</ele>
        <time>2015-02-01T14:00:08.1Z</time>
      </trkpt>
      <trkpt lat="45.71683" lon="6.03667">
        <ele>2824</ele>
        <time>2015-02-01T14:00:13.1Z</time>
      </trkpt>
      <trkpt lat="45.71681" lon="6.03667">
        <ele>2823</ele>
        <time>2015-02-01T14:00:18.1Z</time>
      </trkpt>
      <trkpt lat="45.7168" lon="6.03667">
        <ele>2823</ele>
        <time>2015-02-01T14:00:24.1Z</time>
      </trkpt>
      <trkpt lat="45.71679" lon="6.03668">
        <ele>2823</ele>
        <time>2015-02-01T14:00:29.1Z</time>
      </trkpt>
      <trkpt lat="45.71677" lon="6.03667">
        <ele>2822</ele>
        <time>2015-02-01T14:00:34.1Z</time>
      </trkpt>
      <trkpt lat="45.71674" lon="6.03666">
        <ele>2822</ele>
        <time>2015-02-01T14:00:40.1Z</time>
      </trkpt>
      <trkpt lat="45.71667" lon="6.03665">
        <ele>2822</ele>
        <time>2015-02-01T14:00:46.1Z</time>
      </trkpt>
      <trkpt lat="45.71663" lon="6.03665">
        <ele>2822</ele>
        <time>2015-02-01T14:00:51.1Z</time>
      </trkpt>
      <trkpt lat="45.71658" lon="6.03667">
        <ele>2822</ele>
        <time>2015-02-01T14:00:57.1Z</time>
      </trkpt>
      <trkpt lat="45.71657" lon="6.03668">
        <ele>2821</ele>
        <time>2015-02-01T14:01:03.1Z</time>
      </trkpt>
      <trkpt lat="45.71658" lon="6.03668">
        <ele>2821</ele>
        <time>2015-02-01T14:01:08.1Z</time>
      </trkpt>
      <trkpt lat="45.71657" lon="6.03668">
        <ele>2821</ele>
        <time>2015-02-01T14:01:13.1Z</time>
      </trkpt>
      <trkpt lat="45.71657" lon="6.03672">
        <ele>2821</ele>
        <time>2015-02-01T14:01:19.1Z</time>
      </trkpt>
      <trkpt lat="45.71655" lon="6.03688">
        <ele>2819</ele>
        <time>2015-02-01T14:01:25.1Z</time>
      </trkpt>
      <trkpt lat="45.71651" lon="6.03696">
        <ele>2818</ele>
        <time>2015-02-01T14:01:30.1Z</time>
      </trkpt>
      <trkpt lat="45.71648" lon="6.03708">
        <ele>2817</ele>
        <time>2015-02-01T14:01:35.1Z</time>
      </trkpt>
      <trkpt lat="45.71646" lon="6.03717">
        <ele>2816</ele>
        <time>2015-02-01T14:01:41.1Z</time>
      </trkpt>
      <trkpt lat="45.71647" lon="6.03717">
        <ele>2815</ele>
        <time>2015-02-01T14:01:47.1Z</time>
      </trkpt>
      <trkpt lat="45.71648" lon="6.03719">
        <ele>2815</ele>
        <time>2015-02-01T14:01:54.1Z</time>
      </trkpt>
      <trkpt lat="45.71648" lon="6.03719">
        <ele>2816</ele>
        <time>2015-02-01T14:02:00.1Z</time>
      </trkpt>
      <trkpt lat="45.71648" lon="6.03722">
        <ele>2815</ele>
        <time>2015-02-01T14:02:06.1Z</time>
      </trkpt>
      <trkpt lat="45.71647" lon="6.03727">
        <ele>2816</ele>
        <time>2015-02-01T14:02:11.1Z</time>
      </trkpt>
      <trkpt lat="45.71645" lon="6.03731">
        <ele>2816</ele>
        <time>2015-02-01T14:02:17.1Z</time>
      </trkpt>
      <trkpt lat="45.71646" lon="6.03736">
        <ele>2816</ele>
        <time>2015-02-01T14:02:22.1Z</time>
      </trkpt>
      <trkpt lat="45.71647" lon="6.03739">
        <ele>2816</ele>
        <time>2015-02-01T14:02:27.1Z</time>
      </trkpt>
      <trkpt lat="45.71647" lon="6.03739">
        <ele>2815</ele>
        <time>2015-02-01T14:02:33.1Z</time>
      </trkpt>
      <trkpt lat="45.71647" lon="6.03739">
        <ele>2815</ele>
        <time>2015-02-01T14:02:39.1Z</time>
      </trkpt>
      <trkpt lat="45.71647" lon="6.03738">
        <ele>2816</ele>
        <time>2015-02-01T14:02:46.1Z</time>
      </trkpt>
      <trkpt lat="45.71647" lon="6.03737">
        <ele>2816</ele>
        <time>2015-02-01T14:02:52.1Z</time>
      </trkpt>
      <trkpt lat="45.71646" lon="6.03738">
        <ele>2816</ele>
        <time>2015-02-01T14:02:57.1Z</time>
      </trkpt>
      <trkpt lat="45.71646" lon="6.03743">
        <ele>2816</ele>
        <time>2015-02-01T14:03:03.1Z</time>
      </trkpt>
      <trkpt lat="45.71645" lon="6.03792">
        <ele>2812</ele>
        <time>2015-02-01T14:03:09.1Z</time>
      </trkpt>
      <trkpt lat="45.71642" lon="6.0385">
        <ele>2807</ele>
        <time>2015-02-01T14:03:15.1Z</time>
      </trkpt>
      <trkpt lat="45.71642" lon="6.03876">
        <ele>2803</ele>
        <time>2015-02-01T14:03:21.1Z</time>
      </trkpt>
      <trkpt lat="45.71642" lon="6.03892">
        <ele>2803</ele>
        <time>2015-02-01T14:03:27.1Z</time>
      </trkpt>
      <trkpt lat="45.71642" lon="6.03899">
        <ele>2802</ele>
        <time>2015-02-01T14:03:33.1Z</time>
      </trkpt>
      <trkpt lat="45.71642" lon="6.03905">
        <ele>2802</ele>
        <time>2015-02-01T14:03:39.1Z</time>
      </trkpt>
      <trkpt lat="45.71641" lon="6.0391">
        <ele>2802</ele>
        <time>2015-02-01T14:03:44.1Z</time>
      </trkpt>
      <trkpt lat="45.71638" lon="6.03915">
        <ele>2801</ele>
        <time>2015-02-01T14:03:49.1Z</time>
      </trkpt>
      <trkpt lat="45.71636" lon="6.0392">
        <ele>2802</ele>
        <time>2015-02-01T14:03:55.1Z</time>
      </trkpt>
      <trkpt lat="45.71635" lon="6.03926">
        <ele>2802</ele>
        <time>2015-02-01T14:04:00.1Z</time>
      </trkpt>
      <trkpt lat="45.7163" lon="6.0393">
        <ele>2802</ele>
        <time>2015-02-01T14:04:06.1Z</time>
      </trkpt>
      <trkpt lat="45.71627" lon="6.03932">
        <ele>2802</ele>
        <time>2015-02-01T14:04:11.1Z</time>
      </trkpt>
      <trkpt lat="45.71626" lon="6.03936">
        <ele>2802</ele>
        <time>2015-02-01T14:04:17.1Z</time>
      </trkpt>
      <trkpt lat="45.71625" lon="6.0394">
        <ele>2802</ele>
        <time>2015-02-01T14:04:22.1Z</time>
      </trkpt>
      <trkpt lat="45.71623" lon="6.03945">
        <ele>2803</ele>
        <time>2015-02-01T14:04:27.1Z</time>
      </trkpt>
      <trkpt lat="45.71618" lon="6.03954">
        <ele>2803</ele>
        <time>2015-02-01T14:04:32.1Z</time>
      </trkpt>
      <trkpt lat="45.71616" lon="6.03962">
        <ele>2802</ele>
        <time>2015-02-01T14:04:37.1Z</time>
      </trkpt>
      <trkpt lat="45.71615" lon="6.03966">
        <ele>2802</ele>
        <time>2015-02-01T14:04:42.1Z</time>
      </trkpt>
      <trkpt lat="45.71615" lon="6.03969">
        <ele>2802</ele>
        <time>2015-02-01T14:04:47.1Z</time>
      </trkpt>
      <trkpt lat="45.71613" lon="6.03975">
        <ele>2802</ele>
        <time>2015-02-01T14:04:53.1Z</time>
      </trkpt>
      <trkpt lat="45.71602" lon="6.03997">
        <ele>2799</ele>
        <time>2015-02-01T14:04:58.1Z</time>
      </trkpt>
      <trkpt lat="45.71603" lon="6.04032">
        <ele>2794</ele>
        <time>2015-02-01T14:05:03.1Z</time>
      </trkpt>
      <trkpt lat="45.71602" lon="6.04074">
        <ele>2787</ele>
        <time>2015-02-01T14:05:09.1Z</time>
      </trkpt>
      <trkpt lat="45.71603" lon="6.04117">
        <ele>2779</ele>
        <time>2015-02-01T14:05:15.1Z</time>
      </trkpt>
      <trkpt lat="45.71611" lon="6.0415">
        <ele>2776</ele>
        <time>2015-02-01T14:05:21.1Z</time>
      </trkpt>
      <trkpt lat="45.71618" lon="6.0417">
        <ele>2772</ele>
        <time>2015-02-01T14:05:26.1Z</time>
      </trkpt>
      <trkpt lat="45.71625" lon="6.04196">
        <ele>2769</ele>
        <time>2015-02-01T14:05:31.1Z</time>
      </trkpt>
      <trkpt lat="45.71627" lon="6.04227">
        <ele>2762</ele>
        <time>2015-02-01T14:05:37.1Z</time>
      </trkpt>
      <trkpt lat="45.71635" lon="6.0426">
        <ele>2756</ele>
        <time>2015-02-01T14:05:43.1Z</time>
      </trkpt>
      <trkpt lat="45.71639" lon="6.04295">
        <ele>2754</ele>
        <time>2015-02-01T14:05:48.1Z</time>
      </trkpt>
      <trkpt lat="45.71644" lon="6.04319">
        <ele>2751</ele>
        <time>2015-02-01T14:05:53.1Z</time>
      </trkpt>
      <trkpt lat="45.71646" lon="6.04348">
        <ele>2749</ele>
        <time>2015-02-01T14:05:58.1Z</time>
      </trkpt>
      <trkpt lat="45.71653" lon="6.0439">
        <ele>2744</ele>
        <time>2015-02-01T14:06:04.1Z</time>
      </trkpt>
      <trkpt lat="45.71655" lon="6.04432">
        <ele>2740</ele>
        <time>2015-02-01T14:06:10.1Z</time>
      </trkpt>
      <trkpt lat="45.71665" lon="6.04469">
        <ele>2735</ele>
        <time>2015-02-01T14:06:16.1Z</time>
      </trkpt>
      <trkpt lat="45.71675" lon="6.04497">
        <ele>2732</ele>
        <time>2015-02-01T14:06:21.1Z</time>
      </trkpt>
      <trkpt lat="45.7169" lon="6.04525">
        <ele>2729</ele>
        <time>2015-02-01T14:06:26.1Z</time>
      </trkpt>
      <trkpt lat="45.71701" lon="6.0455">
        <ele>2725</ele>
        <time>2015-02-01T14:06:32.1Z</time>
      </trkpt>
      <trkpt lat="45.7171" lon="6.04578">
        <ele>2722</ele>
        <time>2015-02-01T14:06:37.1Z</time>
      </trkpt>
      <trkpt lat="45.71724" lon="6.04608">
        <ele>2716</ele>
        <time>2015-02-01T14:06:43.1Z</time>
      </trkpt>
      <trkpt lat="45.7173" lon="6.04641">
        <ele>2709</ele>
        <time>2015-02-01T14:06:49.1Z</time>
      </trkpt>
      <trkpt lat="45.71733" lon="6.04676">
        <ele>2704</ele>
        <time>2015-02-01T14:06:55.1Z</time>
      </trkpt>
      <trkpt lat="45.71734" lon="6.04685">
        <ele>2700</ele>
        <time>2015-02-01T14:07:00.1Z</time>
      </trkpt>
      <trkpt lat="45.71735" lon="6.0469">
        <ele>2700</ele>
        <time>2015-02-01T14:07:06.1Z</time>
      </trkpt>
      <trkpt lat="45.71735" lon="6.04693">
        <ele>2700</ele>
        <time>2015-02-01T14:07:11.1Z</time>
      </trkpt>
      <trkpt lat="45.71735" lon="6.04696">
        <ele>2700</ele>
        <time>2015-02-01T14:07:16.1Z</time>
      </trkpt>
      <trkpt lat="45.71736" lon="6.04698">
        <ele>2700</ele>
        <time>2015-02-01T14:07:22.1Z</time>
      </trkpt>
      <trkpt lat="45.71737" lon="6.04701">
        <ele>2700</ele>
        <time>2015-02-01T14:07:27.1Z</time>
      </trkpt>
      <trkpt lat="45.71738" lon="6.04703">
        <ele>2699</ele>
        <time>2015-02-01T14:07:33.1Z</time>
      </trkpt>
      <trkpt lat="45.71738" lon="6.04705">
        <ele>2700</ele>
        <time>2015-02-01T14:07:38.1Z</time>
      </trkpt>
      <trkpt lat="45.71738" lon="6.04706">
        <ele>2700</ele>
        <time>2015-02-01T14:07:43.1Z</time>
      </trkpt>
      <trkpt lat="45.71738" lon="6.04708">
        <ele>2700</ele>
        <time>2015-02-01T14:07:49.1Z</time>
      </trkpt>
      <trkpt lat="45.71738" lon="6.04708">
        <ele>2700</ele>
        <time>2015-02-01T14:07:54.1Z</time>
      </trkpt>
      <trkpt lat="45.71737" lon="6.04708">
        <ele>2700</ele>
        <time>2015-02-01T14:08:00.1Z</time>
      </trkpt>
      <trkpt lat="45.71736" lon="6.04706">
        <ele>2700</ele>
        <time>2015-02-01T14:08:06.1Z</time>
      </trkpt>
      <trkpt lat="45.71736" lon="6.04706">
        <ele>2700</ele>
        <time>2015-02-01T14:08:12.1Z</time>
      </trkpt>
      <trkpt lat="45.71736" lon="6.04705">
        <ele>2701</ele>
        <time>2015-02-01T14:08:17.1Z</time>
      </trkpt>
      <trkpt lat="45.71736" lon="6.04705">
        <ele>2700</ele>
        <time>2015-02-01T14:08:24.1Z</time>
      </trkpt>
      <trkpt lat="45.71736" lon="6.04705">
        <ele>2700</ele>
        <time>2015-02-01T14:08:29.1Z</time>
      </trkpt>
      <trkpt lat="45.71736" lon="6.04704">
        <ele>2699</ele>
        <time>2015-02-01T14:08:34.1Z</time>
      </trkpt>
      <trkpt lat="45.71735" lon="6.04703">
        <ele>2700</ele>
        <time>2015-02-01T14:08:40.1Z</time>
      </trkpt>
      <trkpt lat="45.71735" lon="6.04702">
        <ele>2700</ele>
        <time>2015-02-01T14:08:45.1Z</time>
      </trkpt>
      <trkpt lat="45.71735" lon="6.04702">
        <ele>2700</ele>
        <time>2015-02-01T14:08:51.1Z</time>
      </trkpt>
      <trkpt lat="45.71735" lon="6.04701">
        <ele>2701</ele>
        <time>2015-02-01T14:08:56.1Z</time>
      </trkpt>
      <trkpt lat="45.71736" lon="6.047">
        <ele>2701</ele>
        <time>2015-02-01T14:09:02.1Z</time>
      </trkpt>
      <trkpt lat="45.71736" lon="6.04701">
        <ele>2700</ele>
        <time>2015-02-01T14:09:07.1Z</time>
      </trkpt>
      <trkpt lat="45.71736" lon="6.04702">
        <ele>2700</ele>
        <time>2015-02-01T14:09:13.1Z</time>
      </trkpt>
      <trkpt lat="45.71736" lon="6.04705">
        <ele>2701</ele>
        <time>2015-02-01T14:09:19.1Z</time>
      </trkpt>
      <trkpt lat="45.71733" lon="6.04728">
        <ele>2699</ele>
        <time>2015-02-01T14:09:25.1Z</time>
      </trkpt>
      <trkpt lat="45.71737" lon="6.04739">
        <ele>2697</ele>
        <time>2015-02-01T14:09:30.1Z</time>
      </trkpt>
      <trkpt lat="45.71746" lon="6.0477">
        <ele>2692</ele>
        <time>2015-02-01T14:09:35.1Z</time>
      </trkpt>
      <trkpt lat="45.71756" lon="6.04795">
        <ele>2686</ele>
        <time>2015-02-01T14:09:40.1Z</time>
      </trkpt>
      <trkpt lat="45.71767" lon="6.04833">
        <ele>2679</ele>
        <time>2015-02-01T14:09:46.1Z</time>
      </trkpt>
      <trkpt lat="45.71776" lon="6.04863">
        <ele>2673</ele>
        <time>2015-02-01T14:09:52.1Z</time>
      </trkpt>
      <trkpt lat="45.71788" lon="6.04905">
        <ele>2668</ele>
        <time>2015-02-01T14:09:57.1Z</time>
      </trkpt>
      <trkpt lat="45.71802" lon="6.04946">
        <ele>2662</ele>
        <time>2015-02-01T14:10:03.1Z</time>
      </trkpt>
      <trkpt lat="45.71806" lon="6.04988">
        <ele>2653</ele>
        <time>2015-02-01T14:10:08.1Z</time>
      </trkpt>
      <trkpt lat="45.71799" lon="6.05043">
        <ele>2645</ele>
        <time>2015-02-01T14:10:14.1Z</time>
      </trkpt>
      <trkpt lat="45.71804" lon="6.05102">
        <ele>2639</ele>
        <time>2015-02-01T14:10:20.1Z</time>
      </trkpt>
      <trkpt lat="45.71812" lon="6.05142">
        <ele>2634</ele>
        <time>2015-02-01T14:10:25.1Z</time>
      </trkpt>
      <trkpt lat="45.71816" lon="6.0518">
        <ele>2629</ele>
        <time>2015-02-01T14:10:31.1Z</time>
      </trkpt>
      <trkpt lat="45.71822" lon="6.05221">
        <ele>2623</ele>
        <time>2015-02-01T14:10:36.1Z</time>
      </trkpt>
      <trkpt lat="45.71827" lon="6.05272">
        <ele>2615</ele>
        <time>2015-02-01T14:10:42.1Z</time>
      </trkpt>
      <trkpt lat="45.71833" lon="6.05315">
        <ele>2611</ele>
        <time>2015-02-01T14:10:48.1Z</time>
      </trkpt>
      <trkpt lat="45.71838" lon="6.05343">
        <ele>2608</ele>
        <time>2015-02-01T14:10:53.1Z</time>
      </trkpt>
      <trkpt lat="45.71841" lon="6.05376">
        <ele>2605</ele>
        <time>2015-02-01T14:10:58.1Z</time>
      </trkpt>
      <trkpt lat="45.71844" lon="6.05434">
        <ele>2600</ele>
        <time>2015-02-01T14:11:04.1Z</time>
      </trkpt>
      <trkpt lat="45.71846" lon="6.05467">
        <ele>2594</ele>
        <time>2015-02-01T14:11:09.1Z</time>
      </trkpt>
      <trkpt lat="45.71846" lon="6.05501">
        <ele>2590</ele>
        <time>2015-02-01T14:11:14.1Z</time>
      </trkpt>
      <trkpt lat="45.71842" lon="6.05547">
        <ele>2583</ele>
        <time>2015-02-01T14:11:20.1Z</time>
      </trkpt>
      <trkpt lat="45.71838" lon="6.05553">
        <ele>2581</ele>
        <time>2015-02-01T14:11:25.1Z</time>
      </trkpt>
      <trkpt lat="45.71838" lon="6.05558">
        <ele>2580</ele>
        <time>2015-02-01T14:11:31.1Z</time>
      </trkpt>
      <trkpt lat="45.71837" lon="6.05562">
        <ele>2580</ele>
        <time>2015-02-01T14:11:38.1Z</time>
      </trkpt>
      <trkpt lat="45.71836" lon="6.05565">
        <ele>2580</ele>
        <time>2015-02-01T14:11:43.1Z</time>
      </trkpt>
      <trkpt lat="45.71836" lon="6.05566">
        <ele>2580</ele>
        <time>2015-02-01T14:11:48.1Z</time>
      </trkpt>
      <trkpt lat="45.71835" lon="6.05568">
        <ele>2580</ele>
        <time>2015-02-01T14:11:53.1Z</time>
      </trkpt>
      <trkpt lat="45.71836" lon="6.05569">
        <ele>2580</ele>
        <time>2015-02-01T14:11:59.1Z</time>
      </trkpt>
      <trkpt lat="45.71836" lon="6.0557">
        <ele>2580</ele>
        <time>2015-02-01T14:12:05.1Z</time>
      </trkpt>
      <trkpt lat="45.71836" lon="6.05571">
        <ele>2580</ele>
        <time>2015-02-01T14:12:10.1Z</time>
      </trkpt>
      <trkpt lat="45.71836" lon="6.0557">
        <ele>2580</ele>
        <time>2015-02-01T14:12:16.1Z</time>
      </trkpt>
      <trkpt lat="45.71837" lon="6.05571">
        <ele>2580</ele>
        <time>2015-02-01T14:12:23.1Z</time>
      </trkpt>
      <trkpt lat="45.71837" lon="6.05572">
        <ele>2579</ele>
        <time>2015-02-01T14:12:29.1Z</time>
      </trkpt>
      <trkpt lat="45.71837" lon="6.05572">
        <ele>2579</ele>
        <time>2015-02-01T14:12:35.1Z</time>
      </trkpt>
      <trkpt lat="45.71838" lon="6.05573">
        <ele>2580</ele>
        <time>2015-02-01T14:12:41.1Z</time>
      </trkpt>
      <trkpt lat="45.71837" lon="6.05574">
        <ele>2580</ele>
        <time>2015-02-01T14:12:46.1Z</time>
      </trkpt>
      <trkpt lat="45.71837" lon="6.05574">
        <ele>2580</ele>
        <time>2015-02-01T14:12:52.1Z</time>
      </trkpt>
      <trkpt lat="45.71837" lon="6.05575">
        <ele>2581</ele>
        <time>2015-02-01T14:12:58.1Z</time>
      </trkpt>
      <trkpt lat="45.71837" lon="6.05575">
        <ele>2580</ele>
        <time>2015-02-01T14:13:04.1Z</time>
      </trkpt>
      <trkpt lat="45.71837" lon="6.05576">
        <ele>2580</ele>
        <time>2015-02-01T14:13:09.1Z</time>
      </trkpt>
      <trkpt lat="45.71837" lon="6.05576">
        <ele>2580</ele>
        <time>2015-02-01T14:13:15.1Z</time>
      </trkpt>
      <trkpt lat="45.71836" lon="6.05576">
        <ele>2580</ele>
        <time>2015-02-01T14:13:21.1Z</time>
      </trkpt>
      <trkpt lat="45.71836" lon="6.05576">
        <ele>2580</ele>
        <time>2015-02-01T14:13:27.1Z</time>
      </trkpt>
      <trkpt lat="45.71836" lon="6.05577">
        <ele>2579</ele>
        <time>2015-02-01T14:13:33.1Z</time>
      </trkpt>
      <trkpt lat="45.71836" lon="6.05577">
        <ele>2579</ele>
        <time>2015-02-01T14:13:38.1Z</time>
      </trkpt>
      <trkpt lat="45.71836" lon="6.05578">
        <ele>2579</ele>
        <time>2015-02-01T14:13:43.1Z</time>
      </trkpt>
      <trkpt lat="45.71836" lon="6.05577">
        <ele>2580</ele>
        <time>2015-02-01T14:13:49.1Z</time>
      </trkpt>
      <trkpt lat="45.71837" lon="6.05577">
        <ele>2580</ele>
        <time>2015-02-01T14:13:55.1Z</time>
      </trkpt>
      <trkpt lat="45.71838" lon="6.05578">
        <ele>2579</ele>
        <time>2015-02-01T14:14:00.1Z</time>
      </trkpt>
      <trkpt lat="45.71852" lon="6.05923">
        <ele>2516</ele>
        <time>2015-02-01T16:19:05.1Z</time>
      </trkpt>
      <trkpt lat="45.71852" lon="6.05926">
        <ele>2515</ele>
        <time>2015-02-01T16:19:10.1Z</time>
      </trkpt>
      <trkpt lat="45.71852" lon="6.05928">
        <ele>2515</ele>
        <time>2015-02-01T16:19:15.1Z</time>
      </trkpt>
      <trkpt lat="45.71855" lon="6.05938">
        <ele>2515</ele>
        <time>2015-02-01T16:19:21.1Z</time>
      </trkpt>
      <trkpt lat="45.71856" lon="6.0597">
        <ele>2511</ele>
        <time>2015-02-01T16:19:26.1Z</time>
      </trkpt>
      <trkpt lat="45.71855" lon="6.05974">
        <ele>2507</ele>
        <time>2015-02-01T16:19:31.1Z</time>
      </trkpt>
      <trkpt lat="45.71855" lon="6.05977">
        <ele>2506</ele>
        <time>2015-02-01T16:19:37.1Z</time>
      </trkpt>
      <trkpt lat="45.71855" lon="6.0598">
        <ele>2505</ele>
        <time>2015-02-01T16:19:42.1Z</time>
      </trkpt>
      <trkpt lat="45.71855" lon="6.05985">
        <ele>2505</ele>
        <time>2015-02-01T16:19:47.1Z</time>
      </trkpt>
      <trkpt lat="45.71855" lon="6.05989">
        <ele>2505</ele>
        <time>2015-02-01T16:19:52.1Z</time>
      </trkpt>
      <trkpt lat="45.71846" lon="6.06">
        <ele>2504</ele>
        <time>2015-02-01T16:19:58.1Z</time>
      </trkpt>
      <trkpt lat="45.71844" lon="6.06023">
        <ele>2499</ele>
        <time>2015-02-01T16:20:04.1Z</time>
      </trkpt>
      <trkpt lat="45.71845" lon="6.06031">
        <ele>2496</ele>
        <time>2015-02-01T16:20:10.1Z</time>
      </trkpt>
      <trkpt lat="45.71844" lon="6.06037">
        <ele>2495</ele>
        <time>2015-02-01T16:20:15.1Z</time>
      </trkpt>
      <trkpt lat="45.71841" lon="6.06041">
        <ele>2495</ele>
        <time>2015-02-01T16:20:21.1Z</time>
      </trkpt>
      <trkpt lat="45.71836" lon="6.0604">
        <ele>2494</ele>
        <time>2015-02-01T16:20:26.1Z</time>
      </trkpt>
      <trkpt lat="45.71834" lon="6.0604">
        <ele>2493</ele>
        <time>2015-02-01T16:20:32.1Z</time>
      </trkpt>
      <trkpt lat="45.71831" lon="6.06041">
        <ele>2493</ele>
        <time>2015-02-01T16:20:37.1Z</time>
      </trkpt>
      <trkpt lat="45.71828" lon="6.06044">
        <ele>2492</ele>
        <time>2015-02-01T16:20:42.1Z</time>
      </trkpt>
      <trkpt lat="45.71825" lon="6.06053">
        <ele>2491</ele>
        <time>2015-02-01T16:20:48.1Z</time>
      </trkpt>
      <trkpt lat="45.71825" lon="6.06057">
        <ele>2490</ele>
        <time>2015-02-01T16:20:54.1Z</time>
      </trkpt>
      <trkpt lat="45.71822" lon="6.06064">
        <ele>2489</ele>
        <time>2015-02-01T16:20:59.1Z</time>
      </trkpt>
      <trkpt lat="45.71824" lon="6.0607">
        <ele>2488</ele>
        <time>2015-02-01T16:21:06.1Z</time>
      </trkpt>
      <trkpt lat="45.71825" lon="6.06074">
        <ele>2487</ele>
        <time>2015-02-01T16:21:11.1Z</time>
      </trkpt>
      <trkpt lat="45.71826" lon="6.0608">
        <ele>2486</ele>
        <time>2015-02-01T16:21:16.1Z</time>
      </trkpt>
      <trkpt lat="45.71827" lon="6.06082">
        <ele>2486</ele>
        <time>2015-02-01T16:21:21.1Z</time>
      </trkpt>
      <trkpt lat="45.7183" lon="6.06085">
        <ele>2486</ele>
        <time>2015-02-01T16:21:27.1Z</time>
      </trkpt>
      <trkpt lat="45.71831" lon="6.06088">
        <ele>2486</ele>
        <time>2015-02-01T16:21:33.1Z</time>
      </trkpt>
      <trkpt lat="45.71831" lon="6.06089">
        <ele>2486</ele>
        <time>2015-02-01T16:21:38.1Z</time>
      </trkpt>
      <trkpt lat="45.71831" lon="6.06088">
        <ele>2486</ele>
        <time>2015-02-01T16:21:43.1Z</time>
      </trkpt>
      <trkpt lat="45.71832" lon="6.06089">
        <ele>2486</ele>
        <time>2015-02-01T16:21:48.1Z</time>
      </trkpt>
      <trkpt lat="45.71832" lon="6.06088">
        <ele>2486</ele>
        <time>2015-02-01T16:21:53.1Z</time>
      </trkpt>
      <trkpt lat="45.7183" lon="6.06088">
        <ele>2486</ele>
        <time>2015-02-01T16:21:58.1Z</time>
      </trkpt>
      <trkpt lat="45.7183" lon="6.06089">
        <ele>2485</ele>
        <time>2015-02-01T16:22:03.1Z</time>
      </trkpt>
      <trkpt lat="45.7183" lon="6.06089">
        <ele>2486</ele>
        <time>2015-02-01T16:22:09.1Z</time>
      </trkpt>
      <trkpt lat="45.7183" lon="6.0609">
        <ele>2486</ele>
        <time>2015-02-01T16:22:15.1Z</time>
      </trkpt>
      <trkpt lat="45.7183" lon="6.06091">
        <ele>2486</ele>
        <time>2015-02-01T16:22:21.1Z</time>
      </trkpt>
      <trkpt lat="45.71831" lon="6.06093">
        <ele>2485</ele>
        <time>2015-02-01T16:22:27.1Z</time>
      </trkpt>
      <trkpt lat="45.71834" lon="6.06097">
        <ele>2484</ele>
        <time>2015-02-01T16:22:33.1Z</time>
      </trkpt>
      <trkpt lat="45.71834" lon="6.06103">
        <ele>2483</ele>
        <time>2015-02-01T16:22:38.1Z</time>
      </trkpt>
      <trkpt lat="45.71834" lon="6.06104">
        <ele>2482</ele>
        <time>2015-02-01T16:22:43.1Z</time>
      </trkpt>
      <trkpt lat="45.71836" lon="6.06104">
        <ele>2482</ele>
        <time>2015-02-01T16:22:48.1Z</time>
      </trkpt>
      <trkpt lat="45.71837" lon="6.0611">
        <ele>2481</ele>
        <time>2015-02-01T16:22:53.1Z</time>
      </trkpt>
      <trkpt lat="45.71838" lon="6.06124">
        <ele>2478</ele>
        <time>2015-02-01T16:22:59.1Z</time>
      </trkpt>
      <trkpt lat="45.71837" lon="6.06129">
        <ele>2477</ele>
        <time>2015-02-01T16:23:04.1Z</time>
      </trkpt>
      <trkpt lat="45.71831" lon="6.06143">
        <ele>2474</ele>
        <time>2015-02-01T16:23:10.1Z</time>
      </trkpt>
      <trkpt lat="45.7183" lon="6.06145">
        <ele>2472</ele>
        <time>2015-02-01T16:23:15.1Z</time>
      </trkpt>
      <trkpt lat="45.7183" lon="6.06149">
        <ele>2472</ele>
        <time>2015-02-01T16:23:21.1Z</time>
      </trkpt>
      <trkpt lat="45.71825" lon="6.06154">
        <ele>2471</ele>
        <time>2015-02-01T16:23:27.1Z</time>
      </trkpt>
      <trkpt lat="45.7182" lon="6.06161">
        <ele>2471</ele>
        <time>2015-02-01T16:23:32.1Z</time>
      </trkpt>
      <trkpt lat="45.71816" lon="6.06168">
        <ele>2470</ele>
        <time>2015-02-01T16:23:38.1Z</time>
      </trkpt>
      <trkpt lat="45.71816" lon="6.06176">
        <ele>2469</ele>
        <time>2015-02-01T16:23:43.1Z</time>
      </trkpt>
      <trkpt lat="45.71816" lon="6.06182">
        <ele>2467</ele>
        <time>2015-02-01T16:23:49.1Z</time>
      </trkpt>
      <trkpt lat="45.71815" lon="6.06183">
        <ele>2467</ele>
        <time>2015-02-01T16:23:54.1Z</time>
      </trkpt>
      <trkpt lat="45.71814" lon="6.06183">
        <ele>2467</ele>
        <time>2015-02-01T16:23:59.1Z</time>
      </trkpt>
      <trkpt lat="45.71814" lon="6.06182">
        <ele>2467</ele>
        <time>2015-02-01T16:24:06.1Z</time>
      </trkpt>
      <trkpt lat="45.71814" lon="6.06183">
        <ele>2467</ele>
        <time>2015-02-01T16:24:11.1Z</time>
      </trkpt>
      <trkpt lat="45.71812" lon="6.06186">
        <ele>2467</ele>
        <time>2015-02-01T16:24:17.1Z</time>
      </trkpt>
      <trkpt lat="45.71811" lon="6.06188">
        <ele>2467</ele>
        <time>2015-02-01T16:24:22.1Z</time>
      </trkpt>
      <trkpt lat="45.71811" lon="6.06188">
        <ele>2468</ele>
        <time>2015-02-01T16:24:28.1Z</time>
      </trkpt>
      <trkpt lat="45.71811" lon="6.06189">
        <ele>2467</ele>
        <time>2015-02-01T16:24:34.1Z</time>
      </trkpt>
      <trkpt lat="45.71811" lon="6.06188">
        <ele>2467</ele>
        <time>2015-02-01T16:24:39.1Z</time>
      </trkpt>
      <trkpt lat="45.71813" lon="6.06202">
        <ele>2466</ele>
        <time>2015-02-01T16:24:45.1Z</time>
      </trkpt>
      <trkpt lat="45.71815" lon="6.06228">
        <ele>2463</ele>
        <time>2015-02-01T16:24:51.1Z</time>
      </trkpt>
      <trkpt lat="45.71823" lon="6.06272">
        <ele>2455</ele>
        <time>2015-02-01T16:24:57.1Z</time>
      </trkpt>
      <trkpt lat="45.71828" lon="6.06308">
        <ele>2449</ele>
        <time>2015-02-01T16:25:02.1Z</time>
      </trkpt>
      <trkpt lat="45.71833" lon="6.06321">
        <ele>2443</ele>
        <time>2015-02-01T16:25:07.1Z</time>
      </trkpt>
      <trkpt lat="45.71832" lon="6.06326">
        <ele>2442</ele>
        <time>2015-02-01T16:25:13.1Z</time>
      </trkpt>
      <trkpt lat="45.71826" lon="6.06342">
        <ele>2441</ele>
        <time>2015-02-01T16:25:18.1Z</time>
      </trkpt>
      <trkpt lat="45.71806" lon="6.06359">
        <ele>2437</ele>
        <time>2015-02-01T16:25:24.1Z</time>
      </trkpt>
      <trkpt lat="45.71786" lon="6.0638">
        <ele>2434</ele>
        <time>2015-02-01T16:25:29.1Z</time>
      </trkpt>
      <trkpt lat="45.71766" lon="6.06383">
        <ele>2431</ele>
        <time>2015-02-01T16:25:35.1Z</time>
      </trkpt>
      <trkpt lat="45.71742" lon="6.0638">
        <ele>2429</ele>
        <time>2015-02-01T16:25:41.1Z</time>
      </trkpt>
      <trkpt lat="45.71722" lon="6.06389">
        <ele>2427</ele>
        <time>2015-02-01T16:25:47.1Z</time>
      </trkpt>
      <trkpt lat="45.71705" lon="6.06426">
        <ele>2425</ele>
        <time>2015-02-01T16:25:53.1Z</time>
      </trkpt>
      <trkpt lat="45.71683" lon="6.06459">
        <ele>2421</ele>
        <time>2015-02-01T16:25:58.1Z</time>
      </trkpt>
      <trkpt lat="45.71655" lon="6.06494">
        <ele>2417</ele>
        <time>2015-02-01T16:26:04.1Z</time>
      </trkpt>
      <trkpt lat="45.71638" lon="6.06523">
        <ele>2414</ele>
        <time>2015-02-01T16:26:09.1Z</time>
      </trkpt>
      <trkpt lat="45.71616" lon="6.06546">
        <ele>2411</ele>
        <time>2015-02-01T16:26:15.1Z</time>
      </trkpt>
      <trkpt lat="45.71594" lon="6.0656">
        <ele>2409</ele>
        <time>2015-02-01T16:26:20.1Z</time>
      </trkpt>
      <trkpt lat="45.71566" lon="6.06564">
        <ele>2407</ele>
        <time>2015-02-01T16:26:26.1Z</time>
      </trkpt>
      <trkpt lat="45.71549" lon="6.06561">
        <ele>2405</ele>
        <time>2015-02-01T16:26:31.1Z</time>
      </trkpt>
      <trkpt lat="45.71525" lon="6.06554">
        <ele>2403</ele>
        <time>2015-02-01T16:26:36.1Z</time>
      </trkpt>
      <trkpt lat="45.71493" lon="6.06567">
        <ele>2400</ele>
        <time>2015-02-01T16:26:42.1Z</time>
      </trkpt>
      <trkpt lat="45.71463" lon="6.06595">
        <ele>2397</ele>
        <time>2015-02-01T16:26:48.1Z</time>
      </trkpt>
      <trkpt lat="45.71429" lon="6.06612">
        <ele>2393</ele>
        <time>2015-02-01T16:26:54.1Z</time>
      </trkpt>
      <trkpt lat="45.71398" lon="6.06626">
        <ele>2390</ele>
        <time>2015-02-01T16:27:00.1Z</time>
      </trkpt>
      <trkpt lat="45.71383" lon="6.06639">
        <ele>2388</ele>
        <time>2015-02-01T16:27:05.1Z</time>
      </trkpt>
      <trkpt lat="45.71382" lon="6.06641">
        <ele>2388</ele>
        <time>2015-02-01T16:27:11.1Z</time>
      </trkpt>
      <trkpt lat="45.71382" lon="6.06642">
        <ele>2388</ele>
        <time>2015-02-01T16:27:16.1Z</time>
      </trkpt>
      <trkpt lat="45.71383" lon="6.06641">
        <ele>2387</ele>
        <time>2015-02-01T16:27:21.1Z</time>
      </trkpt>
    </trkseg>
  </trk>
</gpx>